<?xml version="1.0" encoding="UTF-8" standalone="no" ?>
<gpx xmlns="http://www.topografix.com/GPX/1/1" xmlns:xsi="http://www.w3.org/2001/XMLSchema-instance" xsi:schemaLocation="http://www.topografix.com/GPX/1/1 http://www.topografix.com/GPX/1/1/gpx.xsd" version="1.1" creator="VisuGPX - https://www.visugpx.com">
  <metadata>
    <name>13.05.2022 -Etape 2 Savournon pas de judeo crête de l'aup</name>
    <desc><![CDATA[Sentier aprés le pas de judéo faisable en montée si bonnes jambes. la montagne de l'aup roulable et superbe. montée au col de garde et suillet très dure. entre 30 et 50 % de dénivellé ; poussage bien sûr. La descente sur Orpierre vaut le coup. Je n'ai pas eu la force de passer par le rocher de quinquillon...canicule. ]]></desc>
  </metadata>
  <trk>
    <name><![CDATA[14797617-Etape 2 Savournon pas de judeo crête de l'aup]]></name>
    <extensions>
      <line xmlns="http://www.topografix.com/GPX/gpx_style/0/2">
        <color>0000FF</color>
        <width>4</width>
      </line>
    </extensions>
    <trkseg>
      <trkpt lat="44.42416" lon="5.77694">
        <ele>725</ele>
        <time>2022-06-09T20:44:31Z</time>
      </trkpt>
      <trkpt lat="44.4242" lon="5.77691">
        <ele>726</ele>
        <time>2022-06-09T20:44:32Z</time>
      </trkpt>
      <trkpt lat="44.42431" lon="5.77672">
        <ele>727</ele>
        <time>2022-06-09T20:44:36Z</time>
      </trkpt>
      <trkpt lat="44.42437" lon="5.77652">
        <ele>728</ele>
        <time>2022-06-09T20:44:40Z</time>
      </trkpt>
      <trkpt lat="44.42437" lon="5.77629">
        <ele>727</ele>
        <time>2022-06-09T20:44:44Z</time>
      </trkpt>
      <trkpt lat="44.42433" lon="5.77625">
        <ele>726</ele>
        <time>2022-06-09T20:44:45Z</time>
      </trkpt>
      <trkpt lat="44.42407" lon="5.77649">
        <ele>724</ele>
        <time>2022-06-09T20:44:52Z</time>
      </trkpt>
      <trkpt lat="44.42349" lon="5.77692">
        <ele>720</ele>
        <time>2022-06-09T20:45:07Z</time>
      </trkpt>
      <trkpt lat="44.42309" lon="5.77737">
        <ele>718</ele>
        <time>2022-06-09T20:45:19Z</time>
      </trkpt>
      <trkpt lat="44.42298" lon="5.77739">
        <ele>718</ele>
        <time>2022-06-09T20:45:22Z</time>
      </trkpt>
      <trkpt lat="44.42279" lon="5.77732">
        <ele>717</ele>
        <time>2022-06-09T20:45:27Z</time>
      </trkpt>
      <trkpt lat="44.42242" lon="5.77697">
        <ele>716</ele>
        <time>2022-06-09T20:45:37Z</time>
      </trkpt>
      <trkpt lat="44.42233" lon="5.77697">
        <ele>716</ele>
        <time>2022-06-09T20:45:39Z</time>
      </trkpt>
      <trkpt lat="44.42228" lon="5.777">
        <ele>716</ele>
        <time>2022-06-09T20:45:40Z</time>
      </trkpt>
      <trkpt lat="44.42221" lon="5.77709">
        <ele>716</ele>
        <time>2022-06-09T20:45:43Z</time>
      </trkpt>
      <trkpt lat="44.42216" lon="5.77725">
        <ele>716</ele>
        <time>2022-06-09T20:45:45Z</time>
      </trkpt>
      <trkpt lat="44.42202" lon="5.77751">
        <ele>716</ele>
        <time>2022-06-09T20:45:51Z</time>
      </trkpt>
      <trkpt lat="44.42184" lon="5.77779">
        <ele>717</ele>
        <time>2022-06-09T20:45:57Z</time>
      </trkpt>
      <trkpt lat="44.42145" lon="5.77826">
        <ele>716</ele>
        <time>2022-06-09T20:46:09Z</time>
      </trkpt>
      <trkpt lat="44.42123" lon="5.77882">
        <ele>717</ele>
        <time>2022-06-09T20:46:20Z</time>
      </trkpt>
      <trkpt lat="44.421" lon="5.77927">
        <ele>718</ele>
        <time>2022-06-09T20:46:29Z</time>
      </trkpt>
      <trkpt lat="44.42065" lon="5.77964">
        <ele>717</ele>
        <time>2022-06-09T20:46:39Z</time>
      </trkpt>
      <trkpt lat="44.4203" lon="5.77979">
        <ele>716</ele>
        <time>2022-06-09T20:46:48Z</time>
      </trkpt>
      <trkpt lat="44.42018" lon="5.77993">
        <ele>715</ele>
        <time>2022-06-09T20:46:51Z</time>
      </trkpt>
      <trkpt lat="44.42006" lon="5.78214">
        <ele>719</ele>
        <time>2022-06-09T20:47:28Z</time>
      </trkpt>
      <trkpt lat="44.42013" lon="5.78297">
        <ele>722</ele>
        <time>2022-06-09T20:47:42Z</time>
      </trkpt>
      <trkpt lat="44.42009" lon="5.78301">
        <ele>722</ele>
        <time>2022-06-09T20:47:44Z</time>
      </trkpt>
      <trkpt lat="44.42015" lon="5.78315">
        <ele>723</ele>
        <time>2022-06-09T20:47:46Z</time>
      </trkpt>
      <trkpt lat="44.42017" lon="5.7833">
        <ele>724</ele>
        <time>2022-06-09T20:47:49Z</time>
      </trkpt>
      <trkpt lat="44.4204" lon="5.78552">
        <ele>737</ele>
        <time>2022-06-09T20:48:26Z</time>
      </trkpt>
      <trkpt lat="44.42039" lon="5.78639">
        <ele>740</ele>
        <time>2022-06-09T20:48:41Z</time>
      </trkpt>
      <trkpt lat="44.42037" lon="5.78655">
        <ele>741</ele>
        <time>2022-06-09T20:48:43Z</time>
      </trkpt>
      <trkpt lat="44.42038" lon="5.78749">
        <ele>739</ele>
        <time>2022-06-09T20:48:59Z</time>
      </trkpt>
      <trkpt lat="44.42034" lon="5.78811">
        <ele>738</ele>
        <time>2022-06-09T20:49:10Z</time>
      </trkpt>
      <trkpt lat="44.42012" lon="5.78925">
        <ele>735</ele>
        <time>2022-06-09T20:49:29Z</time>
      </trkpt>
      <trkpt lat="44.42009" lon="5.78979">
        <ele>734</ele>
        <time>2022-06-09T20:49:38Z</time>
      </trkpt>
      <trkpt lat="44.42023" lon="5.7912">
        <ele>733</ele>
        <time>2022-06-09T20:50:02Z</time>
      </trkpt>
      <trkpt lat="44.42022" lon="5.79128">
        <ele>733</ele>
        <time>2022-06-09T20:50:03Z</time>
      </trkpt>
      <trkpt lat="44.42013" lon="5.79142">
        <ele>731</ele>
        <time>2022-06-09T20:50:06Z</time>
      </trkpt>
      <trkpt lat="44.41953" lon="5.792">
        <ele>726</ele>
        <time>2022-06-09T20:50:24Z</time>
      </trkpt>
      <trkpt lat="44.41915" lon="5.79227">
        <ele>724</ele>
        <time>2022-06-09T20:50:33Z</time>
      </trkpt>
      <trkpt lat="44.41879" lon="5.79243">
        <ele>723</ele>
        <time>2022-06-09T20:50:42Z</time>
      </trkpt>
      <trkpt lat="44.41871" lon="5.79244">
        <ele>723</ele>
        <time>2022-06-09T20:50:44Z</time>
      </trkpt>
      <trkpt lat="44.41864" lon="5.79244">
        <ele>723</ele>
        <time>2022-06-09T20:50:46Z</time>
      </trkpt>
      <trkpt lat="44.41792" lon="5.79224">
        <ele>722</ele>
        <time>2022-06-09T20:51:03Z</time>
      </trkpt>
      <trkpt lat="44.41651" lon="5.79232">
        <ele>719</ele>
        <time>2022-06-09T20:51:36Z</time>
      </trkpt>
      <trkpt lat="44.41611" lon="5.79251">
        <ele>717</ele>
        <time>2022-06-09T20:51:46Z</time>
      </trkpt>
      <trkpt lat="44.4152" lon="5.7931">
        <ele>718</ele>
        <time>2022-06-09T20:52:09Z</time>
      </trkpt>
      <trkpt lat="44.41486" lon="5.79313">
        <ele>719</ele>
        <time>2022-06-09T20:52:17Z</time>
      </trkpt>
      <trkpt lat="44.41456" lon="5.79311">
        <ele>721</ele>
        <time>2022-06-09T20:52:24Z</time>
      </trkpt>
      <trkpt lat="44.41383" lon="5.79322">
        <ele>724</ele>
        <time>2022-06-09T20:52:41Z</time>
      </trkpt>
      <trkpt lat="44.41353" lon="5.7932">
        <ele>725</ele>
        <time>2022-06-09T20:52:48Z</time>
      </trkpt>
      <trkpt lat="44.41317" lon="5.79322">
        <ele>727</ele>
        <time>2022-06-09T20:52:57Z</time>
      </trkpt>
      <trkpt lat="44.41269" lon="5.7931">
        <ele>729</ele>
        <time>2022-06-09T20:53:08Z</time>
      </trkpt>
      <trkpt lat="44.41253" lon="5.79303">
        <ele>730</ele>
        <time>2022-06-09T20:53:12Z</time>
      </trkpt>
      <trkpt lat="44.41205" lon="5.79303">
        <ele>733</ele>
        <time>2022-06-09T20:53:23Z</time>
      </trkpt>
      <trkpt lat="44.41186" lon="5.79311">
        <ele>734</ele>
        <time>2022-06-09T20:53:28Z</time>
      </trkpt>
      <trkpt lat="44.41148" lon="5.79338">
        <ele>737</ele>
        <time>2022-06-09T20:53:38Z</time>
      </trkpt>
      <trkpt lat="44.41125" lon="5.79359">
        <ele>739</ele>
        <time>2022-06-09T20:53:44Z</time>
      </trkpt>
      <trkpt lat="44.41084" lon="5.7938">
        <ele>744</ele>
        <time>2022-06-09T20:53:54Z</time>
      </trkpt>
      <trkpt lat="44.41061" lon="5.79387">
        <ele>746</ele>
        <time>2022-06-09T20:54:00Z</time>
      </trkpt>
      <trkpt lat="44.41043" lon="5.79383">
        <ele>747</ele>
        <time>2022-06-09T20:54:04Z</time>
      </trkpt>
      <trkpt lat="44.41015" lon="5.79362">
        <ele>750</ele>
        <time>2022-06-09T20:54:12Z</time>
      </trkpt>
      <trkpt lat="44.40995" lon="5.79356">
        <ele>753</ele>
        <time>2022-06-09T20:54:16Z</time>
      </trkpt>
      <trkpt lat="44.40956" lon="5.79359">
        <ele>758</ele>
        <time>2022-06-09T20:54:25Z</time>
      </trkpt>
      <trkpt lat="44.40933" lon="5.79367">
        <ele>760</ele>
        <time>2022-06-09T20:54:31Z</time>
      </trkpt>
      <trkpt lat="44.40915" lon="5.7937">
        <ele>762</ele>
        <time>2022-06-09T20:54:35Z</time>
      </trkpt>
      <trkpt lat="44.40892" lon="5.7937">
        <ele>764</ele>
        <time>2022-06-09T20:54:41Z</time>
      </trkpt>
      <trkpt lat="44.40858" lon="5.7938">
        <ele>766</ele>
        <time>2022-06-09T20:54:49Z</time>
      </trkpt>
      <trkpt lat="44.40824" lon="5.79378">
        <ele>769</ele>
        <time>2022-06-09T20:54:57Z</time>
      </trkpt>
      <trkpt lat="44.40801" lon="5.79374">
        <ele>771</ele>
        <time>2022-06-09T20:55:02Z</time>
      </trkpt>
      <trkpt lat="44.40754" lon="5.79374">
        <ele>775</ele>
        <time>2022-06-09T20:55:13Z</time>
      </trkpt>
      <trkpt lat="44.4074" lon="5.79372">
        <ele>777</ele>
        <time>2022-06-09T20:55:16Z</time>
      </trkpt>
      <trkpt lat="44.40704" lon="5.79361">
        <ele>781</ele>
        <time>2022-06-09T20:55:25Z</time>
      </trkpt>
      <trkpt lat="44.40664" lon="5.79321">
        <ele>786</ele>
        <time>2022-06-09T20:55:36Z</time>
      </trkpt>
      <trkpt lat="44.40572" lon="5.79293">
        <ele>799</ele>
        <time>2022-06-09T20:55:58Z</time>
      </trkpt>
      <trkpt lat="44.40557" lon="5.79285">
        <ele>801</ele>
        <time>2022-06-09T20:56:02Z</time>
      </trkpt>
      <trkpt lat="44.40506" lon="5.79277">
        <ele>806</ele>
        <time>2022-06-09T20:56:14Z</time>
      </trkpt>
      <trkpt lat="44.40493" lon="5.79269">
        <ele>808</ele>
        <time>2022-06-09T20:56:17Z</time>
      </trkpt>
      <trkpt lat="44.40478" lon="5.79265">
        <ele>810</ele>
        <time>2022-06-09T20:56:21Z</time>
      </trkpt>
      <trkpt lat="44.40442" lon="5.79261">
        <ele>816</ele>
        <time>2022-06-09T20:56:29Z</time>
      </trkpt>
      <trkpt lat="44.40412" lon="5.79268">
        <ele>819</ele>
        <time>2022-06-09T20:56:37Z</time>
      </trkpt>
      <trkpt lat="44.40385" lon="5.7928">
        <ele>820</ele>
        <time>2022-06-09T20:56:43Z</time>
      </trkpt>
      <trkpt lat="44.40368" lon="5.79284">
        <ele>821</ele>
        <time>2022-06-09T20:56:47Z</time>
      </trkpt>
      <trkpt lat="44.40351" lon="5.79275">
        <ele>823</ele>
        <time>2022-06-09T20:56:51Z</time>
      </trkpt>
      <trkpt lat="44.40332" lon="5.79257">
        <ele>826</ele>
        <time>2022-06-09T20:56:57Z</time>
      </trkpt>
      <trkpt lat="44.40318" lon="5.79239">
        <ele>830</ele>
        <time>2022-06-09T20:57:01Z</time>
      </trkpt>
      <trkpt lat="44.40303" lon="5.792">
        <ele>836</ele>
        <time>2022-06-09T20:57:09Z</time>
      </trkpt>
      <trkpt lat="44.40293" lon="5.79192">
        <ele>838</ele>
        <time>2022-06-09T20:57:11Z</time>
      </trkpt>
      <trkpt lat="44.40285" lon="5.79192">
        <ele>839</ele>
        <time>2022-06-09T20:57:13Z</time>
      </trkpt>
      <trkpt lat="44.40254" lon="5.792">
        <ele>841</ele>
        <time>2022-06-09T20:57:21Z</time>
      </trkpt>
      <trkpt lat="44.40221" lon="5.79197">
        <ele>847</ele>
        <time>2022-06-09T20:57:28Z</time>
      </trkpt>
      <trkpt lat="44.40174" lon="5.79213">
        <ele>854</ele>
        <time>2022-06-09T20:57:40Z</time>
      </trkpt>
      <trkpt lat="44.40154" lon="5.79238">
        <ele>855</ele>
        <time>2022-06-09T20:57:46Z</time>
      </trkpt>
      <trkpt lat="44.40142" lon="5.79246">
        <ele>856</ele>
        <time>2022-06-09T20:57:49Z</time>
      </trkpt>
      <trkpt lat="44.40085" lon="5.79263">
        <ele>868</ele>
        <time>2022-06-09T20:58:03Z</time>
      </trkpt>
      <trkpt lat="44.40071" lon="5.79276">
        <ele>873</ele>
        <time>2022-06-09T20:58:07Z</time>
      </trkpt>
      <trkpt lat="44.40062" lon="5.7929">
        <ele>876</ele>
        <time>2022-06-09T20:58:10Z</time>
      </trkpt>
      <trkpt lat="44.40056" lon="5.79307">
        <ele>878</ele>
        <time>2022-06-09T20:58:13Z</time>
      </trkpt>
      <trkpt lat="44.40053" lon="5.79318">
        <ele>879</ele>
        <time>2022-06-09T20:58:15Z</time>
      </trkpt>
      <trkpt lat="44.40053" lon="5.79345">
        <ele>878</ele>
        <time>2022-06-09T20:58:19Z</time>
      </trkpt>
      <trkpt lat="44.40063" lon="5.79387">
        <ele>875</ele>
        <time>2022-06-09T20:58:27Z</time>
      </trkpt>
      <trkpt lat="44.40062" lon="5.79402">
        <ele>876</ele>
        <time>2022-06-09T20:58:29Z</time>
      </trkpt>
      <trkpt lat="44.40054" lon="5.79422">
        <ele>879</ele>
        <time>2022-06-09T20:58:33Z</time>
      </trkpt>
      <trkpt lat="44.40054" lon="5.7944">
        <ele>881</ele>
        <time>2022-06-09T20:58:36Z</time>
      </trkpt>
      <trkpt lat="44.40059" lon="5.79473">
        <ele>884</ele>
        <time>2022-06-09T20:58:42Z</time>
      </trkpt>
      <trkpt lat="44.40073" lon="5.79513">
        <ele>886</ele>
        <time>2022-06-09T20:58:49Z</time>
      </trkpt>
      <trkpt lat="44.40083" lon="5.79525">
        <ele>886</ele>
        <time>2022-06-09T20:58:52Z</time>
      </trkpt>
      <trkpt lat="44.40094" lon="5.79531">
        <ele>884</ele>
        <time>2022-06-09T20:58:55Z</time>
      </trkpt>
      <trkpt lat="44.4011" lon="5.79545">
        <ele>883</ele>
        <time>2022-06-09T20:58:59Z</time>
      </trkpt>
      <trkpt lat="44.40113" lon="5.79554">
        <ele>885</ele>
        <time>2022-06-09T20:59:01Z</time>
      </trkpt>
      <trkpt lat="44.40111" lon="5.79559">
        <ele>886</ele>
        <time>2022-06-09T20:59:02Z</time>
      </trkpt>
      <trkpt lat="44.40105" lon="5.79562">
        <ele>888</ele>
        <time>2022-06-09T20:59:03Z</time>
      </trkpt>
      <trkpt lat="44.40097" lon="5.79561">
        <ele>890</ele>
        <time>2022-06-09T20:59:05Z</time>
      </trkpt>
      <trkpt lat="44.40078" lon="5.79539">
        <ele>890</ele>
        <time>2022-06-09T20:59:11Z</time>
      </trkpt>
      <trkpt lat="44.40051" lon="5.79519">
        <ele>892</ele>
        <time>2022-06-09T20:59:18Z</time>
      </trkpt>
      <trkpt lat="44.40007" lon="5.79466">
        <ele>897</ele>
        <time>2022-06-09T20:59:32Z</time>
      </trkpt>
      <trkpt lat="44.39993" lon="5.79455">
        <ele>899</ele>
        <time>2022-06-09T20:59:35Z</time>
      </trkpt>
      <trkpt lat="44.39979" lon="5.7945">
        <ele>899</ele>
        <time>2022-06-09T20:59:39Z</time>
      </trkpt>
      <trkpt lat="44.39964" lon="5.79459">
        <ele>900</ele>
        <time>2022-06-09T20:59:43Z</time>
      </trkpt>
      <trkpt lat="44.39951" lon="5.79483">
        <ele>901</ele>
        <time>2022-06-09T20:59:48Z</time>
      </trkpt>
      <trkpt lat="44.3994" lon="5.79475">
        <ele>901</ele>
        <time>2022-06-09T20:59:51Z</time>
      </trkpt>
      <trkpt lat="44.39934" lon="5.79479">
        <ele>902</ele>
        <time>2022-06-09T20:59:52Z</time>
      </trkpt>
      <trkpt lat="44.39926" lon="5.7948">
        <ele>902</ele>
        <time>2022-06-09T20:59:54Z</time>
      </trkpt>
      <trkpt lat="44.39933" lon="5.7948">
        <ele>902</ele>
        <time>2022-06-09T20:59:56Z</time>
      </trkpt>
      <trkpt lat="44.39929" lon="5.79474">
        <ele>902</ele>
        <time>2022-06-09T20:59:57Z</time>
      </trkpt>
      <trkpt lat="44.39918" lon="5.79473">
        <ele>902</ele>
        <time>2022-06-09T21:00:00Z</time>
      </trkpt>
      <trkpt lat="44.39919" lon="5.79483">
        <ele>902</ele>
        <time>2022-06-09T21:00:01Z</time>
      </trkpt>
      <trkpt lat="44.39912" lon="5.79493">
        <ele>902</ele>
        <time>2022-06-09T21:00:04Z</time>
      </trkpt>
      <trkpt lat="44.39855" lon="5.79533">
        <ele>900</ele>
        <time>2022-06-09T21:00:19Z</time>
      </trkpt>
      <trkpt lat="44.39807" lon="5.79578">
        <ele>902</ele>
        <time>2022-06-09T21:00:32Z</time>
      </trkpt>
      <trkpt lat="44.39793" lon="5.79587">
        <ele>903</ele>
        <time>2022-06-09T21:00:36Z</time>
      </trkpt>
      <trkpt lat="44.39719" lon="5.79619">
        <ele>907</ele>
        <time>2022-06-09T21:00:54Z</time>
      </trkpt>
      <trkpt lat="44.39674" lon="5.79629">
        <ele>908</ele>
        <time>2022-06-09T21:01:04Z</time>
      </trkpt>
      <trkpt lat="44.39622" lon="5.79657">
        <ele>914</ele>
        <time>2022-06-09T21:01:17Z</time>
      </trkpt>
      <trkpt lat="44.3961" lon="5.79659">
        <ele>914</ele>
        <time>2022-06-09T21:01:20Z</time>
      </trkpt>
      <trkpt lat="44.39581" lon="5.7967">
        <ele>917</ele>
        <time>2022-06-09T21:01:27Z</time>
      </trkpt>
      <trkpt lat="44.39561" lon="5.7968">
        <ele>919</ele>
        <time>2022-06-09T21:01:32Z</time>
      </trkpt>
      <trkpt lat="44.39519" lon="5.79715">
        <ele>929</ele>
        <time>2022-06-09T21:01:44Z</time>
      </trkpt>
      <trkpt lat="44.39467" lon="5.79728">
        <ele>929</ele>
        <time>2022-06-09T21:01:56Z</time>
      </trkpt>
      <trkpt lat="44.3946" lon="5.79734">
        <ele>931</ele>
        <time>2022-06-09T21:01:58Z</time>
      </trkpt>
      <trkpt lat="44.39475" lon="5.79739">
        <ele>934</ele>
        <time>2022-06-09T21:02:01Z</time>
      </trkpt>
      <trkpt lat="44.3949" lon="5.79739">
        <ele>935</ele>
        <time>2022-06-09T21:02:05Z</time>
      </trkpt>
      <trkpt lat="44.39496" lon="5.79742">
        <ele>937</ele>
        <time>2022-06-09T21:02:06Z</time>
      </trkpt>
      <trkpt lat="44.39503" lon="5.79742">
        <ele>937</ele>
        <time>2022-06-09T21:02:08Z</time>
      </trkpt>
      <trkpt lat="44.39514" lon="5.79748">
        <ele>940</ele>
        <time>2022-06-09T21:02:11Z</time>
      </trkpt>
      <trkpt lat="44.39518" lon="5.79753">
        <ele>943</ele>
        <time>2022-06-09T21:02:12Z</time>
      </trkpt>
      <trkpt lat="44.39496" lon="5.79762">
        <ele>946</ele>
        <time>2022-06-09T21:02:17Z</time>
      </trkpt>
      <trkpt lat="44.39466" lon="5.79769">
        <ele>947</ele>
        <time>2022-06-09T21:02:24Z</time>
      </trkpt>
      <trkpt lat="44.39411" lon="5.79797">
        <ele>958</ele>
        <time>2022-06-09T21:02:38Z</time>
      </trkpt>
      <trkpt lat="44.39386" lon="5.79795">
        <ele>955</ele>
        <time>2022-06-09T21:02:44Z</time>
      </trkpt>
      <trkpt lat="44.39372" lon="5.79788">
        <ele>950</ele>
        <time>2022-06-09T21:02:47Z</time>
      </trkpt>
      <trkpt lat="44.39362" lon="5.79804">
        <ele>957</ele>
        <time>2022-06-09T21:02:51Z</time>
      </trkpt>
      <trkpt lat="44.39344" lon="5.79803">
        <ele>955</ele>
        <time>2022-06-09T21:02:55Z</time>
      </trkpt>
      <trkpt lat="44.3933" lon="5.79786">
        <ele>945</ele>
        <time>2022-06-09T21:03:00Z</time>
      </trkpt>
      <trkpt lat="44.39315" lon="5.79775">
        <ele>936</ele>
        <time>2022-06-09T21:03:04Z</time>
      </trkpt>
      <trkpt lat="44.39304" lon="5.79782">
        <ele>936</ele>
        <time>2022-06-09T21:03:06Z</time>
      </trkpt>
      <trkpt lat="44.39294" lon="5.79801">
        <ele>941</ele>
        <time>2022-06-09T21:03:10Z</time>
      </trkpt>
      <trkpt lat="44.39284" lon="5.79831">
        <ele>948</ele>
        <time>2022-06-09T21:03:16Z</time>
      </trkpt>
      <trkpt lat="44.39279" lon="5.79857">
        <ele>950</ele>
        <time>2022-06-09T21:03:20Z</time>
      </trkpt>
      <trkpt lat="44.39289" lon="5.79807">
        <ele>941</ele>
        <time>2022-06-09T21:03:29Z</time>
      </trkpt>
      <trkpt lat="44.39288" lon="5.79813">
        <ele>943</ele>
        <time>2022-06-09T21:03:30Z</time>
      </trkpt>
      <trkpt lat="44.39292" lon="5.79823">
        <ele>948</ele>
        <time>2022-06-09T21:03:32Z</time>
      </trkpt>
      <trkpt lat="44.39305" lon="5.79894">
        <ele>967</ele>
        <time>2022-06-09T21:03:44Z</time>
      </trkpt>
      <trkpt lat="44.3931" lon="5.7991">
        <ele>972</ele>
        <time>2022-06-09T21:03:47Z</time>
      </trkpt>
      <trkpt lat="44.39313" lon="5.79938">
        <ele>976</ele>
        <time>2022-06-09T21:03:52Z</time>
      </trkpt>
      <trkpt lat="44.39333" lon="5.80036">
        <ele>993</ele>
        <time>2022-06-09T21:04:09Z</time>
      </trkpt>
      <trkpt lat="44.39342" lon="5.80099">
        <ele>1000</ele>
        <time>2022-06-09T21:04:19Z</time>
      </trkpt>
      <trkpt lat="44.39336" lon="5.80098">
        <ele>997</ele>
        <time>2022-06-09T21:04:21Z</time>
      </trkpt>
      <trkpt lat="44.39336" lon="5.80096">
        <ele>997</ele>
        <time>2022-06-09T21:04:21Z</time>
      </trkpt>
      <trkpt lat="44.39337" lon="5.80102">
        <ele>997</ele>
        <time>2022-06-09T21:04:22Z</time>
      </trkpt>
      <trkpt lat="44.39351" lon="5.80129">
        <ele>1005</ele>
        <time>2022-06-09T21:04:28Z</time>
      </trkpt>
      <trkpt lat="44.39362" lon="5.80162">
        <ele>1011</ele>
        <time>2022-06-09T21:04:34Z</time>
      </trkpt>
      <trkpt lat="44.39365" lon="5.80182">
        <ele>1012</ele>
        <time>2022-06-09T21:04:37Z</time>
      </trkpt>
      <trkpt lat="44.39373" lon="5.80209">
        <ele>1017</ele>
        <time>2022-06-09T21:04:42Z</time>
      </trkpt>
      <trkpt lat="44.39378" lon="5.80279">
        <ele>1021</ele>
        <time>2022-06-09T21:04:54Z</time>
      </trkpt>
      <trkpt lat="44.39382" lon="5.80293">
        <ele>1024</ele>
        <time>2022-06-09T21:04:56Z</time>
      </trkpt>
      <trkpt lat="44.39383" lon="5.80312">
        <ele>1025</ele>
        <time>2022-06-09T21:05:00Z</time>
      </trkpt>
      <trkpt lat="44.39392" lon="5.80342">
        <ele>1031</ele>
        <time>2022-06-09T21:05:05Z</time>
      </trkpt>
      <trkpt lat="44.39394" lon="5.80366">
        <ele>1032</ele>
        <time>2022-06-09T21:05:09Z</time>
      </trkpt>
      <trkpt lat="44.39404" lon="5.80396">
        <ele>1038</ele>
        <time>2022-06-09T21:05:15Z</time>
      </trkpt>
      <trkpt lat="44.39407" lon="5.80413">
        <ele>1039</ele>
        <time>2022-06-09T21:05:18Z</time>
      </trkpt>
      <trkpt lat="44.39411" lon="5.8047">
        <ele>1045</ele>
        <time>2022-06-09T21:05:27Z</time>
      </trkpt>
      <trkpt lat="44.39419" lon="5.80506">
        <ele>1051</ele>
        <time>2022-06-09T21:05:33Z</time>
      </trkpt>
      <trkpt lat="44.39429" lon="5.80598">
        <ele>1062</ele>
        <time>2022-06-09T21:05:49Z</time>
      </trkpt>
      <trkpt lat="44.3943" lon="5.80645">
        <ele>1065</ele>
        <time>2022-06-09T21:05:57Z</time>
      </trkpt>
      <trkpt lat="44.39439" lon="5.80691">
        <ele>1073</ele>
        <time>2022-06-09T21:06:05Z</time>
      </trkpt>
      <trkpt lat="44.3944" lon="5.80736">
        <ele>1077</ele>
        <time>2022-06-09T21:06:12Z</time>
      </trkpt>
      <trkpt lat="44.39442" lon="5.80739">
        <ele>1079</ele>
        <time>2022-06-09T21:06:13Z</time>
      </trkpt>
      <trkpt lat="44.3944" lon="5.80739">
        <ele>1078</ele>
        <time>2022-06-09T21:06:13Z</time>
      </trkpt>
      <trkpt lat="44.39454" lon="5.80873">
        <ele>1094</ele>
        <time>2022-06-09T21:06:36Z</time>
      </trkpt>
      <trkpt lat="44.39458" lon="5.80955">
        <ele>1103</ele>
        <time>2022-06-09T21:06:50Z</time>
      </trkpt>
      <trkpt lat="44.39469" lon="5.81083">
        <ele>1120</ele>
        <time>2022-06-09T21:07:11Z</time>
      </trkpt>
      <trkpt lat="44.39469" lon="5.81108">
        <ele>1123</ele>
        <time>2022-06-09T21:07:15Z</time>
      </trkpt>
      <trkpt lat="44.39473" lon="5.81131">
        <ele>1129</ele>
        <time>2022-06-09T21:07:19Z</time>
      </trkpt>
      <trkpt lat="44.39468" lon="5.8116">
        <ele>1130</ele>
        <time>2022-06-09T21:07:24Z</time>
      </trkpt>
      <trkpt lat="44.39464" lon="5.81245">
        <ele>1138</ele>
        <time>2022-06-09T21:07:39Z</time>
      </trkpt>
      <trkpt lat="44.39472" lon="5.81274">
        <ele>1146</ele>
        <time>2022-06-09T21:07:44Z</time>
      </trkpt>
      <trkpt lat="44.39474" lon="5.81318">
        <ele>1152</ele>
        <time>2022-06-09T21:07:51Z</time>
      </trkpt>
      <trkpt lat="44.3947" lon="5.8134">
        <ele>1153</ele>
        <time>2022-06-09T21:07:55Z</time>
      </trkpt>
      <trkpt lat="44.39449" lon="5.8137">
        <ele>1148</ele>
        <time>2022-06-09T21:08:02Z</time>
      </trkpt>
      <trkpt lat="44.39453" lon="5.81409">
        <ele>1158</ele>
        <time>2022-06-09T21:08:08Z</time>
      </trkpt>
      <trkpt lat="44.39454" lon="5.81473">
        <ele>1170</ele>
        <time>2022-06-09T21:08:19Z</time>
      </trkpt>
      <trkpt lat="44.39457" lon="5.81503">
        <ele>1177</ele>
        <time>2022-06-09T21:08:24Z</time>
      </trkpt>
      <trkpt lat="44.39456" lon="5.81529">
        <ele>1182</ele>
        <time>2022-06-09T21:08:29Z</time>
      </trkpt>
      <trkpt lat="44.39451" lon="5.81552">
        <ele>1184</ele>
        <time>2022-06-09T21:08:33Z</time>
      </trkpt>
      <trkpt lat="44.39443" lon="5.81559">
        <ele>1181</ele>
        <time>2022-06-09T21:08:35Z</time>
      </trkpt>
      <trkpt lat="44.39419" lon="5.81572">
        <ele>1170</ele>
        <time>2022-06-09T21:08:41Z</time>
      </trkpt>
      <trkpt lat="44.39418" lon="5.81638">
        <ele>1183</ele>
        <time>2022-06-09T21:08:52Z</time>
      </trkpt>
      <trkpt lat="44.39422" lon="5.81668">
        <ele>1191</ele>
        <time>2022-06-09T21:08:57Z</time>
      </trkpt>
      <trkpt lat="44.39419" lon="5.81689">
        <ele>1195</ele>
        <time>2022-06-09T21:09:00Z</time>
      </trkpt>
      <trkpt lat="44.39406" lon="5.81731">
        <ele>1198</ele>
        <time>2022-06-09T21:09:08Z</time>
      </trkpt>
      <trkpt lat="44.39399" lon="5.81777">
        <ele>1203</ele>
        <time>2022-06-09T21:09:16Z</time>
      </trkpt>
      <trkpt lat="44.394" lon="5.81816">
        <ele>1209</ele>
        <time>2022-06-09T21:09:22Z</time>
      </trkpt>
      <trkpt lat="44.39406" lon="5.81857">
        <ele>1220</ele>
        <time>2022-06-09T21:09:29Z</time>
      </trkpt>
      <trkpt lat="44.3938" lon="5.82128">
        <ele>1245</ele>
        <time>2022-06-09T21:10:15Z</time>
      </trkpt>
      <trkpt lat="44.39377" lon="5.82228">
        <ele>1259</ele>
        <time>2022-06-09T21:10:32Z</time>
      </trkpt>
      <trkpt lat="44.3938" lon="5.8225">
        <ele>1264</ele>
        <time>2022-06-09T21:10:35Z</time>
      </trkpt>
      <trkpt lat="44.3938" lon="5.82281">
        <ele>1270</ele>
        <time>2022-06-09T21:10:41Z</time>
      </trkpt>
      <trkpt lat="44.39375" lon="5.82295">
        <ele>1269</ele>
        <time>2022-06-09T21:10:43Z</time>
      </trkpt>
      <trkpt lat="44.39364" lon="5.82312">
        <ele>1266</ele>
        <time>2022-06-09T21:10:47Z</time>
      </trkpt>
      <trkpt lat="44.39343" lon="5.82368">
        <ele>1263</ele>
        <time>2022-06-09T21:10:58Z</time>
      </trkpt>
      <trkpt lat="44.39319" lon="5.82461">
        <ele>1264</ele>
        <time>2022-06-09T21:11:14Z</time>
      </trkpt>
      <trkpt lat="44.39318" lon="5.82472">
        <ele>1265</ele>
        <time>2022-06-09T21:11:16Z</time>
      </trkpt>
      <trkpt lat="44.39311" lon="5.82488">
        <ele>1262</ele>
        <time>2022-06-09T21:11:19Z</time>
      </trkpt>
      <trkpt lat="44.39311" lon="5.82496">
        <ele>1264</ele>
        <time>2022-06-09T21:11:20Z</time>
      </trkpt>
      <trkpt lat="44.39295" lon="5.82562">
        <ele>1261</ele>
        <time>2022-06-09T21:11:32Z</time>
      </trkpt>
      <trkpt lat="44.39278" lon="5.82618">
        <ele>1257</ele>
        <time>2022-06-09T21:11:42Z</time>
      </trkpt>
      <trkpt lat="44.39275" lon="5.82662">
        <ele>1261</ele>
        <time>2022-06-09T21:11:50Z</time>
      </trkpt>
      <trkpt lat="44.3927" lon="5.82683">
        <ele>1260</ele>
        <time>2022-06-09T21:11:53Z</time>
      </trkpt>
      <trkpt lat="44.39249" lon="5.82744">
        <ele>1251</ele>
        <time>2022-06-09T21:12:05Z</time>
      </trkpt>
      <trkpt lat="44.39242" lon="5.82775">
        <ele>1252</ele>
        <time>2022-06-09T21:12:10Z</time>
      </trkpt>
      <trkpt lat="44.39225" lon="5.8283">
        <ele>1252</ele>
        <time>2022-06-09T21:12:20Z</time>
      </trkpt>
      <trkpt lat="44.39211" lon="5.8289">
        <ele>1254</ele>
        <time>2022-06-09T21:12:31Z</time>
      </trkpt>
      <trkpt lat="44.39183" lon="5.82946">
        <ele>1247</ele>
        <time>2022-06-09T21:12:42Z</time>
      </trkpt>
      <trkpt lat="44.39176" lon="5.82992">
        <ele>1251</ele>
        <time>2022-06-09T21:12:50Z</time>
      </trkpt>
      <trkpt lat="44.39166" lon="5.8302">
        <ele>1249</ele>
        <time>2022-06-09T21:12:55Z</time>
      </trkpt>
      <trkpt lat="44.39147" lon="5.83056">
        <ele>1246</ele>
        <time>2022-06-09T21:13:03Z</time>
      </trkpt>
      <trkpt lat="44.39125" lon="5.83127">
        <ele>1247</ele>
        <time>2022-06-09T21:13:15Z</time>
      </trkpt>
      <trkpt lat="44.39113" lon="5.83146">
        <ele>1244</ele>
        <time>2022-06-09T21:13:20Z</time>
      </trkpt>
      <trkpt lat="44.39103" lon="5.83175">
        <ele>1244</ele>
        <time>2022-06-09T21:13:25Z</time>
      </trkpt>
      <trkpt lat="44.3909" lon="5.83197">
        <ele>1241</ele>
        <time>2022-06-09T21:13:30Z</time>
      </trkpt>
      <trkpt lat="44.39073" lon="5.83244">
        <ele>1243</ele>
        <time>2022-06-09T21:13:39Z</time>
      </trkpt>
      <trkpt lat="44.39064" lon="5.83257">
        <ele>1242</ele>
        <time>2022-06-09T21:13:42Z</time>
      </trkpt>
      <trkpt lat="44.39039" lon="5.83272">
        <ele>1232</ele>
        <time>2022-06-09T21:13:48Z</time>
      </trkpt>
      <trkpt lat="44.39034" lon="5.83283">
        <ele>1232</ele>
        <time>2022-06-09T21:13:50Z</time>
      </trkpt>
      <trkpt lat="44.39032" lon="5.83293">
        <ele>1233</ele>
        <time>2022-06-09T21:13:52Z</time>
      </trkpt>
      <trkpt lat="44.39026" lon="5.83304">
        <ele>1233</ele>
        <time>2022-06-09T21:13:54Z</time>
      </trkpt>
      <trkpt lat="44.39005" lon="5.83361">
        <ele>1232</ele>
        <time>2022-06-09T21:14:05Z</time>
      </trkpt>
      <trkpt lat="44.3899" lon="5.83445">
        <ele>1236</ele>
        <time>2022-06-09T21:14:19Z</time>
      </trkpt>
      <trkpt lat="44.38974" lon="5.83491">
        <ele>1234</ele>
        <time>2022-06-09T21:14:28Z</time>
      </trkpt>
      <trkpt lat="44.38972" lon="5.83507">
        <ele>1235</ele>
        <time>2022-06-09T21:14:31Z</time>
      </trkpt>
      <trkpt lat="44.38948" lon="5.83558">
        <ele>1232</ele>
        <time>2022-06-09T21:14:41Z</time>
      </trkpt>
      <trkpt lat="44.38926" lon="5.83592">
        <ele>1229</ele>
        <time>2022-06-09T21:14:48Z</time>
      </trkpt>
      <trkpt lat="44.38928" lon="5.83602">
        <ele>1232</ele>
        <time>2022-06-09T21:14:50Z</time>
      </trkpt>
      <trkpt lat="44.38923" lon="5.83607">
        <ele>1231</ele>
        <time>2022-06-09T21:14:52Z</time>
      </trkpt>
      <trkpt lat="44.38945" lon="5.8364">
        <ele>1243</ele>
        <time>2022-06-09T21:14:59Z</time>
      </trkpt>
      <trkpt lat="44.38946" lon="5.8365">
        <ele>1245</ele>
        <time>2022-06-09T21:15:01Z</time>
      </trkpt>
      <trkpt lat="44.38938" lon="5.83667">
        <ele>1245</ele>
        <time>2022-06-09T21:15:04Z</time>
      </trkpt>
      <trkpt lat="44.38932" lon="5.83711">
        <ele>1246</ele>
        <time>2022-06-09T21:15:12Z</time>
      </trkpt>
      <trkpt lat="44.38933" lon="5.83729">
        <ele>1249</ele>
        <time>2022-06-09T21:15:15Z</time>
      </trkpt>
      <trkpt lat="44.38943" lon="5.83723">
        <ele>1253</ele>
        <time>2022-06-09T21:15:17Z</time>
      </trkpt>
      <trkpt lat="44.38959" lon="5.83721">
        <ele>1261</ele>
        <time>2022-06-09T21:15:21Z</time>
      </trkpt>
      <trkpt lat="44.38969" lon="5.83732">
        <ele>1268</ele>
        <time>2022-06-09T21:15:24Z</time>
      </trkpt>
      <trkpt lat="44.38971" lon="5.83741">
        <ele>1271</ele>
        <time>2022-06-09T21:15:26Z</time>
      </trkpt>
      <trkpt lat="44.38971" lon="5.83769">
        <ele>1274</ele>
        <time>2022-06-09T21:15:30Z</time>
      </trkpt>
      <trkpt lat="44.38968" lon="5.83769">
        <ele>1272</ele>
        <time>2022-06-09T21:15:31Z</time>
      </trkpt>
      <trkpt lat="44.38968" lon="5.83766">
        <ele>1272</ele>
        <time>2022-06-09T21:15:31Z</time>
      </trkpt>
      <trkpt lat="44.38968" lon="5.83784">
        <ele>1274</ele>
        <time>2022-06-09T21:15:34Z</time>
      </trkpt>
      <trkpt lat="44.38969" lon="5.8383">
        <ele>1279</ele>
        <time>2022-06-09T21:15:42Z</time>
      </trkpt>
      <trkpt lat="44.38975" lon="5.83892">
        <ele>1286</ele>
        <time>2022-06-09T21:15:53Z</time>
      </trkpt>
      <trkpt lat="44.38973" lon="5.83911">
        <ele>1285</ele>
        <time>2022-06-09T21:15:56Z</time>
      </trkpt>
      <trkpt lat="44.38958" lon="5.83976">
        <ele>1284</ele>
        <time>2022-06-09T21:16:07Z</time>
      </trkpt>
      <trkpt lat="44.38938" lon="5.84091">
        <ele>1288</ele>
        <time>2022-06-09T21:16:27Z</time>
      </trkpt>
      <trkpt lat="44.38932" lon="5.84114">
        <ele>1286</ele>
        <time>2022-06-09T21:16:31Z</time>
      </trkpt>
      <trkpt lat="44.38929" lon="5.84216">
        <ele>1299</ele>
        <time>2022-06-09T21:16:48Z</time>
      </trkpt>
      <trkpt lat="44.38902" lon="5.84289">
        <ele>1296</ele>
        <time>2022-06-09T21:17:02Z</time>
      </trkpt>
      <trkpt lat="44.38894" lon="5.84304">
        <ele>1294</ele>
        <time>2022-06-09T21:17:05Z</time>
      </trkpt>
      <trkpt lat="44.38891" lon="5.84331">
        <ele>1298</ele>
        <time>2022-06-09T21:17:09Z</time>
      </trkpt>
      <trkpt lat="44.38885" lon="5.84353">
        <ele>1299</ele>
        <time>2022-06-09T21:17:13Z</time>
      </trkpt>
      <trkpt lat="44.3888" lon="5.8436">
        <ele>1298</ele>
        <time>2022-06-09T21:17:15Z</time>
      </trkpt>
      <trkpt lat="44.38878" lon="5.84372">
        <ele>1299</ele>
        <time>2022-06-09T21:17:17Z</time>
      </trkpt>
      <trkpt lat="44.38861" lon="5.84408">
        <ele>1297</ele>
        <time>2022-06-09T21:17:24Z</time>
      </trkpt>
      <trkpt lat="44.38846" lon="5.84464">
        <ele>1299</ele>
        <time>2022-06-09T21:17:34Z</time>
      </trkpt>
      <trkpt lat="44.38829" lon="5.84498">
        <ele>1296</ele>
        <time>2022-06-09T21:17:41Z</time>
      </trkpt>
      <trkpt lat="44.38821" lon="5.8455">
        <ele>1306</ele>
        <time>2022-06-09T21:17:50Z</time>
      </trkpt>
      <trkpt lat="44.38805" lon="5.84593">
        <ele>1310</ele>
        <time>2022-06-09T21:17:58Z</time>
      </trkpt>
      <trkpt lat="44.38803" lon="5.84608">
        <ele>1313</ele>
        <time>2022-06-09T21:18:01Z</time>
      </trkpt>
      <trkpt lat="44.38791" lon="5.84638">
        <ele>1314</ele>
        <time>2022-06-09T21:18:06Z</time>
      </trkpt>
      <trkpt lat="44.3879" lon="5.84662">
        <ele>1320</ele>
        <time>2022-06-09T21:18:10Z</time>
      </trkpt>
      <trkpt lat="44.38783" lon="5.84664">
        <ele>1316</ele>
        <time>2022-06-09T21:18:12Z</time>
      </trkpt>
      <trkpt lat="44.38778" lon="5.84671">
        <ele>1315</ele>
        <time>2022-06-09T21:18:14Z</time>
      </trkpt>
      <trkpt lat="44.38763" lon="5.84711">
        <ele>1312</ele>
        <time>2022-06-09T21:18:21Z</time>
      </trkpt>
      <trkpt lat="44.38756" lon="5.84738">
        <ele>1312</ele>
        <time>2022-06-09T21:18:26Z</time>
      </trkpt>
      <trkpt lat="44.38739" lon="5.84777">
        <ele>1308</ele>
        <time>2022-06-09T21:18:34Z</time>
      </trkpt>
      <trkpt lat="44.38738" lon="5.84789">
        <ele>1308</ele>
        <time>2022-06-09T21:18:36Z</time>
      </trkpt>
      <trkpt lat="44.38732" lon="5.84803">
        <ele>1306</ele>
        <time>2022-06-09T21:18:38Z</time>
      </trkpt>
      <trkpt lat="44.38729" lon="5.84809">
        <ele>1305</ele>
        <time>2022-06-09T21:18:40Z</time>
      </trkpt>
      <trkpt lat="44.38715" lon="5.84823">
        <ele>1300</ele>
        <time>2022-06-09T21:18:44Z</time>
      </trkpt>
      <trkpt lat="44.38702" lon="5.84847">
        <ele>1296</ele>
        <time>2022-06-09T21:18:49Z</time>
      </trkpt>
      <trkpt lat="44.38696" lon="5.84877">
        <ele>1295</ele>
        <time>2022-06-09T21:18:54Z</time>
      </trkpt>
      <trkpt lat="44.38697" lon="5.849">
        <ele>1297</ele>
        <time>2022-06-09T21:18:58Z</time>
      </trkpt>
      <trkpt lat="44.38691" lon="5.84925">
        <ele>1296</ele>
        <time>2022-06-09T21:19:02Z</time>
      </trkpt>
      <trkpt lat="44.38678" lon="5.84951">
        <ele>1293</ele>
        <time>2022-06-09T21:19:07Z</time>
      </trkpt>
      <trkpt lat="44.38643" lon="5.85003">
        <ele>1287</ele>
        <time>2022-06-09T21:19:19Z</time>
      </trkpt>
      <trkpt lat="44.38633" lon="5.85025">
        <ele>1287</ele>
        <time>2022-06-09T21:19:24Z</time>
      </trkpt>
      <trkpt lat="44.38623" lon="5.85038">
        <ele>1285</ele>
        <time>2022-06-09T21:19:27Z</time>
      </trkpt>
      <trkpt lat="44.38593" lon="5.85057">
        <ele>1276</ele>
        <time>2022-06-09T21:19:35Z</time>
      </trkpt>
      <trkpt lat="44.3854" lon="5.85101">
        <ele>1264</ele>
        <time>2022-06-09T21:19:49Z</time>
      </trkpt>
      <trkpt lat="44.38512" lon="5.85138">
        <ele>1262</ele>
        <time>2022-06-09T21:19:58Z</time>
      </trkpt>
      <trkpt lat="44.38461" lon="5.85178">
        <ele>1255</ele>
        <time>2022-06-09T21:20:12Z</time>
      </trkpt>
      <trkpt lat="44.38443" lon="5.85183">
        <ele>1251</ele>
        <time>2022-06-09T21:20:16Z</time>
      </trkpt>
      <trkpt lat="44.38471" lon="5.85138">
        <ele>1251</ele>
        <time>2022-06-09T21:20:26Z</time>
      </trkpt>
      <trkpt lat="44.38482" lon="5.85114">
        <ele>1249</ele>
        <time>2022-06-09T21:20:31Z</time>
      </trkpt>
      <trkpt lat="44.38488" lon="5.85082">
        <ele>1245</ele>
        <time>2022-06-09T21:20:36Z</time>
      </trkpt>
      <trkpt lat="44.38499" lon="5.8505">
        <ele>1244</ele>
        <time>2022-06-09T21:20:42Z</time>
      </trkpt>
      <trkpt lat="44.38506" lon="5.84995">
        <ele>1240</ele>
        <time>2022-06-09T21:20:51Z</time>
      </trkpt>
      <trkpt lat="44.385" lon="5.84941">
        <ele>1234</ele>
        <time>2022-06-09T21:21:01Z</time>
      </trkpt>
      <trkpt lat="44.38494" lon="5.84915">
        <ele>1230</ele>
        <time>2022-06-09T21:21:05Z</time>
      </trkpt>
      <trkpt lat="44.38488" lon="5.84869">
        <ele>1225</ele>
        <time>2022-06-09T21:21:13Z</time>
      </trkpt>
      <trkpt lat="44.38488" lon="5.84841">
        <ele>1223</ele>
        <time>2022-06-09T21:21:18Z</time>
      </trkpt>
      <trkpt lat="44.38493" lon="5.84825">
        <ele>1222</ele>
        <time>2022-06-09T21:21:20Z</time>
      </trkpt>
      <trkpt lat="44.38501" lon="5.84816">
        <ele>1223</ele>
        <time>2022-06-09T21:21:23Z</time>
      </trkpt>
      <trkpt lat="44.38507" lon="5.84802">
        <ele>1223</ele>
        <time>2022-06-09T21:21:26Z</time>
      </trkpt>
      <trkpt lat="44.38515" lon="5.84729">
        <ele>1217</ele>
        <time>2022-06-09T21:21:38Z</time>
      </trkpt>
      <trkpt lat="44.38524" lon="5.84691">
        <ele>1218</ele>
        <time>2022-06-09T21:21:45Z</time>
      </trkpt>
      <trkpt lat="44.38521" lon="5.84682">
        <ele>1216</ele>
        <time>2022-06-09T21:21:46Z</time>
      </trkpt>
      <trkpt lat="44.38508" lon="5.84667">
        <ele>1211</ele>
        <time>2022-06-09T21:21:50Z</time>
      </trkpt>
      <trkpt lat="44.38494" lon="5.84634">
        <ele>1206</ele>
        <time>2022-06-09T21:21:57Z</time>
      </trkpt>
      <trkpt lat="44.38487" lon="5.84602">
        <ele>1202</ele>
        <time>2022-06-09T21:22:02Z</time>
      </trkpt>
      <trkpt lat="44.38472" lon="5.84557">
        <ele>1195</ele>
        <time>2022-06-09T21:22:10Z</time>
      </trkpt>
      <trkpt lat="44.38469" lon="5.84525">
        <ele>1192</ele>
        <time>2022-06-09T21:22:16Z</time>
      </trkpt>
      <trkpt lat="44.38474" lon="5.8447">
        <ele>1188</ele>
        <time>2022-06-09T21:22:25Z</time>
      </trkpt>
      <trkpt lat="44.38501" lon="5.84395">
        <ele>1181</ele>
        <time>2022-06-09T21:22:39Z</time>
      </trkpt>
      <trkpt lat="44.38519" lon="5.84373">
        <ele>1179</ele>
        <time>2022-06-09T21:22:45Z</time>
      </trkpt>
      <trkpt lat="44.38549" lon="5.84371">
        <ele>1182</ele>
        <time>2022-06-09T21:22:52Z</time>
      </trkpt>
      <trkpt lat="44.38554" lon="5.84365">
        <ele>1181</ele>
        <time>2022-06-09T21:22:53Z</time>
      </trkpt>
      <trkpt lat="44.38537" lon="5.84356">
        <ele>1178</ele>
        <time>2022-06-09T21:22:58Z</time>
      </trkpt>
      <trkpt lat="44.38514" lon="5.84339">
        <ele>1172</ele>
        <time>2022-06-09T21:23:04Z</time>
      </trkpt>
      <trkpt lat="44.38496" lon="5.84336">
        <ele>1169</ele>
        <time>2022-06-09T21:23:08Z</time>
      </trkpt>
      <trkpt lat="44.38471" lon="5.84337">
        <ele>1169</ele>
        <time>2022-06-09T21:23:14Z</time>
      </trkpt>
      <trkpt lat="44.38413" lon="5.84308">
        <ele>1162</ele>
        <time>2022-06-09T21:23:28Z</time>
      </trkpt>
      <trkpt lat="44.38394" lon="5.84301">
        <ele>1159</ele>
        <time>2022-06-09T21:23:33Z</time>
      </trkpt>
      <trkpt lat="44.38365" lon="5.84298">
        <ele>1157</ele>
        <time>2022-06-09T21:23:39Z</time>
      </trkpt>
      <trkpt lat="44.38312" lon="5.84288">
        <ele>1153</ele>
        <time>2022-06-09T21:23:52Z</time>
      </trkpt>
      <trkpt lat="44.38305" lon="5.84284">
        <ele>1152</ele>
        <time>2022-06-09T21:23:54Z</time>
      </trkpt>
      <trkpt lat="44.38282" lon="5.84255">
        <ele>1150</ele>
        <time>2022-06-09T21:24:01Z</time>
      </trkpt>
      <trkpt lat="44.38255" lon="5.84233">
        <ele>1150</ele>
        <time>2022-06-09T21:24:08Z</time>
      </trkpt>
      <trkpt lat="44.38236" lon="5.84203">
        <ele>1154</ele>
        <time>2022-06-09T21:24:15Z</time>
      </trkpt>
      <trkpt lat="44.38232" lon="5.842">
        <ele>1154</ele>
        <time>2022-06-09T21:24:16Z</time>
      </trkpt>
      <trkpt lat="44.38222" lon="5.84197">
        <ele>1154</ele>
        <time>2022-06-09T21:24:18Z</time>
      </trkpt>
      <trkpt lat="44.38185" lon="5.84201">
        <ele>1151</ele>
        <time>2022-06-09T21:24:27Z</time>
      </trkpt>
      <trkpt lat="44.38151" lon="5.84192">
        <ele>1151</ele>
        <time>2022-06-09T21:24:35Z</time>
      </trkpt>
      <trkpt lat="44.38085" lon="5.84165">
        <ele>1152</ele>
        <time>2022-06-09T21:24:51Z</time>
      </trkpt>
      <trkpt lat="44.3805" lon="5.8415">
        <ele>1153</ele>
        <time>2022-06-09T21:25:00Z</time>
      </trkpt>
      <trkpt lat="44.37994" lon="5.84098">
        <ele>1163</ele>
        <time>2022-06-09T21:25:15Z</time>
      </trkpt>
      <trkpt lat="44.37979" lon="5.84095">
        <ele>1165</ele>
        <time>2022-06-09T21:25:19Z</time>
      </trkpt>
      <trkpt lat="44.37949" lon="5.84119">
        <ele>1160</ele>
        <time>2022-06-09T21:25:27Z</time>
      </trkpt>
      <trkpt lat="44.37926" lon="5.84133">
        <ele>1157</ele>
        <time>2022-06-09T21:25:33Z</time>
      </trkpt>
      <trkpt lat="44.37895" lon="5.84144">
        <ele>1156</ele>
        <time>2022-06-09T21:25:40Z</time>
      </trkpt>
      <trkpt lat="44.37813" lon="5.84158">
        <ele>1160</ele>
        <time>2022-06-09T21:26:00Z</time>
      </trkpt>
      <trkpt lat="44.37795" lon="5.84163">
        <ele>1162</ele>
        <time>2022-06-09T21:26:04Z</time>
      </trkpt>
      <trkpt lat="44.37758" lon="5.84184">
        <ele>1163</ele>
        <time>2022-06-09T21:26:13Z</time>
      </trkpt>
      <trkpt lat="44.37687" lon="5.84215">
        <ele>1166</ele>
        <time>2022-06-09T21:26:31Z</time>
      </trkpt>
      <trkpt lat="44.37641" lon="5.84248">
        <ele>1165</ele>
        <time>2022-06-09T21:26:43Z</time>
      </trkpt>
      <trkpt lat="44.37621" lon="5.84255">
        <ele>1166</ele>
        <time>2022-06-09T21:26:47Z</time>
      </trkpt>
      <trkpt lat="44.37612" lon="5.84244">
        <ele>1167</ele>
        <time>2022-06-09T21:26:50Z</time>
      </trkpt>
      <trkpt lat="44.37609" lon="5.84228">
        <ele>1167</ele>
        <time>2022-06-09T21:26:53Z</time>
      </trkpt>
      <trkpt lat="44.37609" lon="5.84166">
        <ele>1165</ele>
        <time>2022-06-09T21:27:03Z</time>
      </trkpt>
      <trkpt lat="44.37614" lon="5.84141">
        <ele>1166</ele>
        <time>2022-06-09T21:27:08Z</time>
      </trkpt>
      <trkpt lat="44.37624" lon="5.8412">
        <ele>1170</ele>
        <time>2022-06-09T21:27:12Z</time>
      </trkpt>
      <trkpt lat="44.37631" lon="5.84094">
        <ele>1174</ele>
        <time>2022-06-09T21:27:17Z</time>
      </trkpt>
      <trkpt lat="44.37634" lon="5.84063">
        <ele>1179</ele>
        <time>2022-06-09T21:27:22Z</time>
      </trkpt>
      <trkpt lat="44.37634" lon="5.84032">
        <ele>1183</ele>
        <time>2022-06-09T21:27:27Z</time>
      </trkpt>
      <trkpt lat="44.37619" lon="5.84009">
        <ele>1178</ele>
        <time>2022-06-09T21:27:32Z</time>
      </trkpt>
      <trkpt lat="44.37614" lon="5.83984">
        <ele>1177</ele>
        <time>2022-06-09T21:27:36Z</time>
      </trkpt>
      <trkpt lat="44.37625" lon="5.83931">
        <ele>1187</ele>
        <time>2022-06-09T21:27:46Z</time>
      </trkpt>
      <trkpt lat="44.37626" lon="5.83904">
        <ele>1191</ele>
        <time>2022-06-09T21:27:50Z</time>
      </trkpt>
      <trkpt lat="44.37621" lon="5.8388">
        <ele>1191</ele>
        <time>2022-06-09T21:27:54Z</time>
      </trkpt>
      <trkpt lat="44.37622" lon="5.83859">
        <ele>1195</ele>
        <time>2022-06-09T21:27:58Z</time>
      </trkpt>
      <trkpt lat="44.37619" lon="5.83841">
        <ele>1196</ele>
        <time>2022-06-09T21:28:01Z</time>
      </trkpt>
      <trkpt lat="44.37599" lon="5.83803">
        <ele>1193</ele>
        <time>2022-06-09T21:28:09Z</time>
      </trkpt>
      <trkpt lat="44.37568" lon="5.83727">
        <ele>1197</ele>
        <time>2022-06-09T21:28:23Z</time>
      </trkpt>
      <trkpt lat="44.37543" lon="5.83618">
        <ele>1205</ele>
        <time>2022-06-09T21:28:43Z</time>
      </trkpt>
      <trkpt lat="44.3754" lon="5.83567">
        <ele>1204</ele>
        <time>2022-06-09T21:28:51Z</time>
      </trkpt>
      <trkpt lat="44.37542" lon="5.8354">
        <ele>1200</ele>
        <time>2022-06-09T21:28:56Z</time>
      </trkpt>
      <trkpt lat="44.37539" lon="5.83531">
        <ele>1198</ele>
        <time>2022-06-09T21:28:57Z</time>
      </trkpt>
      <trkpt lat="44.37528" lon="5.83524">
        <ele>1196</ele>
        <time>2022-06-09T21:29:00Z</time>
      </trkpt>
      <trkpt lat="44.37517" lon="5.83524">
        <ele>1195</ele>
        <time>2022-06-09T21:29:03Z</time>
      </trkpt>
      <trkpt lat="44.37484" lon="5.83535">
        <ele>1195</ele>
        <time>2022-06-09T21:29:11Z</time>
      </trkpt>
      <trkpt lat="44.37472" lon="5.83533">
        <ele>1195</ele>
        <time>2022-06-09T21:29:13Z</time>
      </trkpt>
      <trkpt lat="44.37459" lon="5.83526">
        <ele>1195</ele>
        <time>2022-06-09T21:29:17Z</time>
      </trkpt>
      <trkpt lat="44.37436" lon="5.83464">
        <ele>1197</ele>
        <time>2022-06-09T21:29:28Z</time>
      </trkpt>
      <trkpt lat="44.37422" lon="5.83444">
        <ele>1201</ele>
        <time>2022-06-09T21:29:33Z</time>
      </trkpt>
      <trkpt lat="44.37414" lon="5.83438">
        <ele>1202</ele>
        <time>2022-06-09T21:29:35Z</time>
      </trkpt>
      <trkpt lat="44.374" lon="5.83417">
        <ele>1205</ele>
        <time>2022-06-09T21:29:40Z</time>
      </trkpt>
      <trkpt lat="44.37392" lon="5.8341">
        <ele>1205</ele>
        <time>2022-06-09T21:29:42Z</time>
      </trkpt>
      <trkpt lat="44.37384" lon="5.83413">
        <ele>1206</ele>
        <time>2022-06-09T21:29:44Z</time>
      </trkpt>
      <trkpt lat="44.37364" lon="5.83414">
        <ele>1207</ele>
        <time>2022-06-09T21:29:49Z</time>
      </trkpt>
      <trkpt lat="44.37347" lon="5.83385">
        <ele>1211</ele>
        <time>2022-06-09T21:29:55Z</time>
      </trkpt>
      <trkpt lat="44.37336" lon="5.83346">
        <ele>1219</ele>
        <time>2022-06-09T21:30:02Z</time>
      </trkpt>
      <trkpt lat="44.37336" lon="5.8334">
        <ele>1219</ele>
        <time>2022-06-09T21:30:03Z</time>
      </trkpt>
      <trkpt lat="44.37342" lon="5.83325">
        <ele>1220</ele>
        <time>2022-06-09T21:30:06Z</time>
      </trkpt>
      <trkpt lat="44.37343" lon="5.83311">
        <ele>1221</ele>
        <time>2022-06-09T21:30:08Z</time>
      </trkpt>
      <trkpt lat="44.37334" lon="5.83263">
        <ele>1228</ele>
        <time>2022-06-09T21:30:17Z</time>
      </trkpt>
      <trkpt lat="44.37335" lon="5.83236">
        <ele>1230</ele>
        <time>2022-06-09T21:30:21Z</time>
      </trkpt>
      <trkpt lat="44.37343" lon="5.83201">
        <ele>1229</ele>
        <time>2022-06-09T21:30:27Z</time>
      </trkpt>
      <trkpt lat="44.37339" lon="5.83164">
        <ele>1231</ele>
        <time>2022-06-09T21:30:33Z</time>
      </trkpt>
      <trkpt lat="44.37339" lon="5.83155">
        <ele>1231</ele>
        <time>2022-06-09T21:30:35Z</time>
      </trkpt>
      <trkpt lat="44.37343" lon="5.83141">
        <ele>1230</ele>
        <time>2022-06-09T21:30:37Z</time>
      </trkpt>
      <trkpt lat="44.37339" lon="5.83089">
        <ele>1232</ele>
        <time>2022-06-09T21:30:46Z</time>
      </trkpt>
      <trkpt lat="44.37346" lon="5.83064">
        <ele>1230</ele>
        <time>2022-06-09T21:30:51Z</time>
      </trkpt>
      <trkpt lat="44.37355" lon="5.83013">
        <ele>1227</ele>
        <time>2022-06-09T21:30:59Z</time>
      </trkpt>
      <trkpt lat="44.37355" lon="5.82998">
        <ele>1226</ele>
        <time>2022-06-09T21:31:02Z</time>
      </trkpt>
      <trkpt lat="44.37365" lon="5.82967">
        <ele>1222</ele>
        <time>2022-06-09T21:31:08Z</time>
      </trkpt>
      <trkpt lat="44.37368" lon="5.8295">
        <ele>1220</ele>
        <time>2022-06-09T21:31:11Z</time>
      </trkpt>
      <trkpt lat="44.37366" lon="5.82896">
        <ele>1217</ele>
        <time>2022-06-09T21:31:20Z</time>
      </trkpt>
      <trkpt lat="44.37369" lon="5.82852">
        <ele>1215</ele>
        <time>2022-06-09T21:31:27Z</time>
      </trkpt>
      <trkpt lat="44.37374" lon="5.82821">
        <ele>1216</ele>
        <time>2022-06-09T21:31:32Z</time>
      </trkpt>
      <trkpt lat="44.3737" lon="5.82786">
        <ele>1217</ele>
        <time>2022-06-09T21:31:38Z</time>
      </trkpt>
      <trkpt lat="44.37377" lon="5.82748">
        <ele>1219</ele>
        <time>2022-06-09T21:31:45Z</time>
      </trkpt>
      <trkpt lat="44.37372" lon="5.8269">
        <ele>1215</ele>
        <time>2022-06-09T21:31:54Z</time>
      </trkpt>
      <trkpt lat="44.37379" lon="5.82619">
        <ele>1217</ele>
        <time>2022-06-09T21:32:06Z</time>
      </trkpt>
      <trkpt lat="44.37378" lon="5.82587">
        <ele>1219</ele>
        <time>2022-06-09T21:32:12Z</time>
      </trkpt>
      <trkpt lat="44.37376" lon="5.82583">
        <ele>1219</ele>
        <time>2022-06-09T21:32:13Z</time>
      </trkpt>
      <trkpt lat="44.37381" lon="5.8255">
        <ele>1218</ele>
        <time>2022-06-09T21:32:18Z</time>
      </trkpt>
      <trkpt lat="44.3738" lon="5.82529">
        <ele>1216</ele>
        <time>2022-06-09T21:32:22Z</time>
      </trkpt>
      <trkpt lat="44.37382" lon="5.82524">
        <ele>1216</ele>
        <time>2022-06-09T21:32:23Z</time>
      </trkpt>
      <trkpt lat="44.37384" lon="5.8246">
        <ele>1203</ele>
        <time>2022-06-09T21:32:33Z</time>
      </trkpt>
      <trkpt lat="44.37391" lon="5.82426">
        <ele>1197</ele>
        <time>2022-06-09T21:32:39Z</time>
      </trkpt>
      <trkpt lat="44.37391" lon="5.82402">
        <ele>1191</ele>
        <time>2022-06-09T21:32:43Z</time>
      </trkpt>
      <trkpt lat="44.37415" lon="5.82287">
        <ele>1207</ele>
        <time>2022-06-09T21:33:03Z</time>
      </trkpt>
      <trkpt lat="44.3741" lon="5.82311">
        <ele>1201</ele>
        <time>2022-06-09T21:33:07Z</time>
      </trkpt>
      <trkpt lat="44.37413" lon="5.8229">
        <ele>1204</ele>
        <time>2022-06-09T21:33:11Z</time>
      </trkpt>
      <trkpt lat="44.37418" lon="5.82281">
        <ele>1209</ele>
        <time>2022-06-09T21:33:13Z</time>
      </trkpt>
      <trkpt lat="44.37427" lon="5.82244">
        <ele>1206</ele>
        <time>2022-06-09T21:33:19Z</time>
      </trkpt>
      <trkpt lat="44.37429" lon="5.82208">
        <ele>1201</ele>
        <time>2022-06-09T21:33:25Z</time>
      </trkpt>
      <trkpt lat="44.37434" lon="5.82195">
        <ele>1199</ele>
        <time>2022-06-09T21:33:28Z</time>
      </trkpt>
      <trkpt lat="44.37433" lon="5.82144">
        <ele>1190</ele>
        <time>2022-06-09T21:33:36Z</time>
      </trkpt>
      <trkpt lat="44.37436" lon="5.82139">
        <ele>1188</ele>
        <time>2022-06-09T21:33:38Z</time>
      </trkpt>
      <trkpt lat="44.37435" lon="5.82133">
        <ele>1186</ele>
        <time>2022-06-09T21:33:39Z</time>
      </trkpt>
      <trkpt lat="44.37438" lon="5.82121">
        <ele>1183</ele>
        <time>2022-06-09T21:33:41Z</time>
      </trkpt>
      <trkpt lat="44.3744" lon="5.81987">
        <ele>1177</ele>
        <time>2022-06-09T21:34:03Z</time>
      </trkpt>
      <trkpt lat="44.37441" lon="5.81976">
        <ele>1177</ele>
        <time>2022-06-09T21:34:05Z</time>
      </trkpt>
      <trkpt lat="44.37448" lon="5.81961">
        <ele>1179</ele>
        <time>2022-06-09T21:34:08Z</time>
      </trkpt>
      <trkpt lat="44.37452" lon="5.8192">
        <ele>1181</ele>
        <time>2022-06-09T21:34:15Z</time>
      </trkpt>
      <trkpt lat="44.37452" lon="5.81901">
        <ele>1180</ele>
        <time>2022-06-09T21:34:18Z</time>
      </trkpt>
      <trkpt lat="44.37449" lon="5.81883">
        <ele>1178</ele>
        <time>2022-06-09T21:34:21Z</time>
      </trkpt>
      <trkpt lat="44.37453" lon="5.81875">
        <ele>1179</ele>
        <time>2022-06-09T21:34:23Z</time>
      </trkpt>
      <trkpt lat="44.3747" lon="5.81796">
        <ele>1182</ele>
        <time>2022-06-09T21:34:36Z</time>
      </trkpt>
      <trkpt lat="44.37479" lon="5.81729">
        <ele>1186</ele>
        <time>2022-06-09T21:34:48Z</time>
      </trkpt>
      <trkpt lat="44.37485" lon="5.81704">
        <ele>1190</ele>
        <time>2022-06-09T21:34:52Z</time>
      </trkpt>
      <trkpt lat="44.37486" lon="5.81656">
        <ele>1187</ele>
        <time>2022-06-09T21:35:00Z</time>
      </trkpt>
      <trkpt lat="44.3749" lon="5.8165">
        <ele>1188</ele>
        <time>2022-06-09T21:35:02Z</time>
      </trkpt>
      <trkpt lat="44.37497" lon="5.81608">
        <ele>1181</ele>
        <time>2022-06-09T21:35:09Z</time>
      </trkpt>
      <trkpt lat="44.37495" lon="5.8158">
        <ele>1170</ele>
        <time>2022-06-09T21:35:14Z</time>
      </trkpt>
      <trkpt lat="44.37497" lon="5.81559">
        <ele>1168</ele>
        <time>2022-06-09T21:35:17Z</time>
      </trkpt>
      <trkpt lat="44.37519" lon="5.81442">
        <ele>1158</ele>
        <time>2022-06-09T21:35:37Z</time>
      </trkpt>
      <trkpt lat="44.37526" lon="5.81337">
        <ele>1157</ele>
        <time>2022-06-09T21:35:55Z</time>
      </trkpt>
      <trkpt lat="44.37533" lon="5.8129">
        <ele>1157</ele>
        <time>2022-06-09T21:36:03Z</time>
      </trkpt>
      <trkpt lat="44.37532" lon="5.81271">
        <ele>1156</ele>
        <time>2022-06-09T21:36:06Z</time>
      </trkpt>
      <trkpt lat="44.37529" lon="5.81262">
        <ele>1155</ele>
        <time>2022-06-09T21:36:08Z</time>
      </trkpt>
      <trkpt lat="44.37534" lon="5.81243">
        <ele>1155</ele>
        <time>2022-06-09T21:36:11Z</time>
      </trkpt>
      <trkpt lat="44.37536" lon="5.81215">
        <ele>1154</ele>
        <time>2022-06-09T21:36:16Z</time>
      </trkpt>
      <trkpt lat="44.37562" lon="5.81142">
        <ele>1166</ele>
        <time>2022-06-09T21:36:29Z</time>
      </trkpt>
      <trkpt lat="44.37566" lon="5.81112">
        <ele>1170</ele>
        <time>2022-06-09T21:36:35Z</time>
      </trkpt>
      <trkpt lat="44.37582" lon="5.81053">
        <ele>1183</ele>
        <time>2022-06-09T21:36:45Z</time>
      </trkpt>
      <trkpt lat="44.37581" lon="5.81044">
        <ele>1182</ele>
        <time>2022-06-09T21:36:47Z</time>
      </trkpt>
      <trkpt lat="44.37588" lon="5.81021">
        <ele>1183</ele>
        <time>2022-06-09T21:36:51Z</time>
      </trkpt>
      <trkpt lat="44.37587" lon="5.81017">
        <ele>1184</ele>
        <time>2022-06-09T21:36:51Z</time>
      </trkpt>
      <trkpt lat="44.37599" lon="5.80957">
        <ele>1179</ele>
        <time>2022-06-09T21:37:02Z</time>
      </trkpt>
      <trkpt lat="44.37603" lon="5.80893">
        <ele>1176</ele>
        <time>2022-06-09T21:37:13Z</time>
      </trkpt>
      <trkpt lat="44.37613" lon="5.80841">
        <ele>1172</ele>
        <time>2022-06-09T21:37:22Z</time>
      </trkpt>
      <trkpt lat="44.3761" lon="5.80813">
        <ele>1172</ele>
        <time>2022-06-09T21:37:26Z</time>
      </trkpt>
      <trkpt lat="44.37617" lon="5.808">
        <ele>1171</ele>
        <time>2022-06-09T21:37:29Z</time>
      </trkpt>
      <trkpt lat="44.37618" lon="5.80727">
        <ele>1171</ele>
        <time>2022-06-09T21:37:41Z</time>
      </trkpt>
      <trkpt lat="44.37621" lon="5.80709">
        <ele>1170</ele>
        <time>2022-06-09T21:37:44Z</time>
      </trkpt>
      <trkpt lat="44.37618" lon="5.80693">
        <ele>1170</ele>
        <time>2022-06-09T21:37:47Z</time>
      </trkpt>
      <trkpt lat="44.37611" lon="5.80685">
        <ele>1169</ele>
        <time>2022-06-09T21:37:49Z</time>
      </trkpt>
      <trkpt lat="44.37609" lon="5.80679">
        <ele>1169</ele>
        <time>2022-06-09T21:37:50Z</time>
      </trkpt>
      <trkpt lat="44.37617" lon="5.80582">
        <ele>1172</ele>
        <time>2022-06-09T21:38:07Z</time>
      </trkpt>
      <trkpt lat="44.37622" lon="5.8056">
        <ele>1173</ele>
        <time>2022-06-09T21:38:10Z</time>
      </trkpt>
      <trkpt lat="44.37636" lon="5.80525">
        <ele>1177</ele>
        <time>2022-06-09T21:38:17Z</time>
      </trkpt>
      <trkpt lat="44.3764" lon="5.8052">
        <ele>1178</ele>
        <time>2022-06-09T21:38:18Z</time>
      </trkpt>
      <trkpt lat="44.3764" lon="5.80511">
        <ele>1178</ele>
        <time>2022-06-09T21:38:20Z</time>
      </trkpt>
      <trkpt lat="44.37632" lon="5.80497">
        <ele>1176</ele>
        <time>2022-06-09T21:38:23Z</time>
      </trkpt>
      <trkpt lat="44.37649" lon="5.80463">
        <ele>1180</ele>
        <time>2022-06-09T21:38:30Z</time>
      </trkpt>
      <trkpt lat="44.37654" lon="5.8042">
        <ele>1181</ele>
        <time>2022-06-09T21:38:37Z</time>
      </trkpt>
      <trkpt lat="44.37651" lon="5.804">
        <ele>1180</ele>
        <time>2022-06-09T21:38:40Z</time>
      </trkpt>
      <trkpt lat="44.37653" lon="5.80309">
        <ele>1182</ele>
        <time>2022-06-09T21:38:56Z</time>
      </trkpt>
      <trkpt lat="44.37651" lon="5.80266">
        <ele>1180</ele>
        <time>2022-06-09T21:39:03Z</time>
      </trkpt>
      <trkpt lat="44.37663" lon="5.80208">
        <ele>1183</ele>
        <time>2022-06-09T21:39:13Z</time>
      </trkpt>
      <trkpt lat="44.37662" lon="5.8018">
        <ele>1181</ele>
        <time>2022-06-09T21:39:18Z</time>
      </trkpt>
      <trkpt lat="44.37666" lon="5.80111">
        <ele>1171</ele>
        <time>2022-06-09T21:39:29Z</time>
      </trkpt>
      <trkpt lat="44.37663" lon="5.8008">
        <ele>1162</ele>
        <time>2022-06-09T21:39:34Z</time>
      </trkpt>
      <trkpt lat="44.37667" lon="5.80066">
        <ele>1161</ele>
        <time>2022-06-09T21:39:37Z</time>
      </trkpt>
      <trkpt lat="44.37671" lon="5.8003">
        <ele>1152</ele>
        <time>2022-06-09T21:39:43Z</time>
      </trkpt>
      <trkpt lat="44.37667" lon="5.79981">
        <ele>1146</ele>
        <time>2022-06-09T21:39:51Z</time>
      </trkpt>
      <trkpt lat="44.37681" lon="5.79927">
        <ele>1152</ele>
        <time>2022-06-09T21:40:01Z</time>
      </trkpt>
      <trkpt lat="44.37684" lon="5.79896">
        <ele>1148</ele>
        <time>2022-06-09T21:40:06Z</time>
      </trkpt>
      <trkpt lat="44.37694" lon="5.79864">
        <ele>1142</ele>
        <time>2022-06-09T21:40:12Z</time>
      </trkpt>
      <trkpt lat="44.37694" lon="5.79848">
        <ele>1138</ele>
        <time>2022-06-09T21:40:15Z</time>
      </trkpt>
      <trkpt lat="44.37698" lon="5.79825">
        <ele>1134</ele>
        <time>2022-06-09T21:40:18Z</time>
      </trkpt>
      <trkpt lat="44.37698" lon="5.79793">
        <ele>1128</ele>
        <time>2022-06-09T21:40:24Z</time>
      </trkpt>
      <trkpt lat="44.37704" lon="5.79784">
        <ele>1129</ele>
        <time>2022-06-09T21:40:26Z</time>
      </trkpt>
      <trkpt lat="44.37702" lon="5.7978">
        <ele>1128</ele>
        <time>2022-06-09T21:40:27Z</time>
      </trkpt>
      <trkpt lat="44.37702" lon="5.79782">
        <ele>1128</ele>
        <time>2022-06-09T21:40:27Z</time>
      </trkpt>
      <trkpt lat="44.37707" lon="5.79758">
        <ele>1126</ele>
        <time>2022-06-09T21:40:31Z</time>
      </trkpt>
      <trkpt lat="44.37715" lon="5.79734">
        <ele>1127</ele>
        <time>2022-06-09T21:40:36Z</time>
      </trkpt>
      <trkpt lat="44.37727" lon="5.79709">
        <ele>1129</ele>
        <time>2022-06-09T21:40:41Z</time>
      </trkpt>
      <trkpt lat="44.37729" lon="5.79696">
        <ele>1129</ele>
        <time>2022-06-09T21:40:43Z</time>
      </trkpt>
      <trkpt lat="44.37726" lon="5.79684">
        <ele>1125</ele>
        <time>2022-06-09T21:40:45Z</time>
      </trkpt>
      <trkpt lat="44.37731" lon="5.79658">
        <ele>1124</ele>
        <time>2022-06-09T21:40:49Z</time>
      </trkpt>
      <trkpt lat="44.37725" lon="5.79636">
        <ele>1116</ele>
        <time>2022-06-09T21:40:53Z</time>
      </trkpt>
      <trkpt lat="44.37732" lon="5.79548">
        <ele>1107</ele>
        <time>2022-06-09T21:41:08Z</time>
      </trkpt>
      <trkpt lat="44.37729" lon="5.79509">
        <ele>1104</ele>
        <time>2022-06-09T21:41:15Z</time>
      </trkpt>
      <trkpt lat="44.3773" lon="5.79484">
        <ele>1105</ele>
        <time>2022-06-09T21:41:19Z</time>
      </trkpt>
      <trkpt lat="44.37723" lon="5.79471">
        <ele>1102</ele>
        <time>2022-06-09T21:41:22Z</time>
      </trkpt>
      <trkpt lat="44.37718" lon="5.79431">
        <ele>1103</ele>
        <time>2022-06-09T21:41:28Z</time>
      </trkpt>
      <trkpt lat="44.37713" lon="5.79413">
        <ele>1101</ele>
        <time>2022-06-09T21:41:32Z</time>
      </trkpt>
      <trkpt lat="44.37716" lon="5.794">
        <ele>1101</ele>
        <time>2022-06-09T21:41:34Z</time>
      </trkpt>
      <trkpt lat="44.37714" lon="5.79389">
        <ele>1098</ele>
        <time>2022-06-09T21:41:36Z</time>
      </trkpt>
      <trkpt lat="44.37715" lon="5.79353">
        <ele>1094</ele>
        <time>2022-06-09T21:41:42Z</time>
      </trkpt>
      <trkpt lat="44.37712" lon="5.79325">
        <ele>1090</ele>
        <time>2022-06-09T21:41:47Z</time>
      </trkpt>
      <trkpt lat="44.3771" lon="5.79259">
        <ele>1089</ele>
        <time>2022-06-09T21:41:58Z</time>
      </trkpt>
      <trkpt lat="44.37698" lon="5.79172">
        <ele>1092</ele>
        <time>2022-06-09T21:42:12Z</time>
      </trkpt>
      <trkpt lat="44.37698" lon="5.79153">
        <ele>1093</ele>
        <time>2022-06-09T21:42:16Z</time>
      </trkpt>
      <trkpt lat="44.37694" lon="5.79141">
        <ele>1092</ele>
        <time>2022-06-09T21:42:18Z</time>
      </trkpt>
      <trkpt lat="44.37693" lon="5.79128">
        <ele>1092</ele>
        <time>2022-06-09T21:42:20Z</time>
      </trkpt>
      <trkpt lat="44.37694" lon="5.79092">
        <ele>1093</ele>
        <time>2022-06-09T21:42:26Z</time>
      </trkpt>
      <trkpt lat="44.37689" lon="5.79034">
        <ele>1105</ele>
        <time>2022-06-09T21:42:36Z</time>
      </trkpt>
      <trkpt lat="44.37691" lon="5.78998">
        <ele>1114</ele>
        <time>2022-06-09T21:42:42Z</time>
      </trkpt>
      <trkpt lat="44.37686" lon="5.78947">
        <ele>1106</ele>
        <time>2022-06-09T21:42:50Z</time>
      </trkpt>
      <trkpt lat="44.37685" lon="5.788">
        <ele>1115</ele>
        <time>2022-06-09T21:43:15Z</time>
      </trkpt>
      <trkpt lat="44.37687" lon="5.78773">
        <ele>1118</ele>
        <time>2022-06-09T21:43:19Z</time>
      </trkpt>
      <trkpt lat="44.37684" lon="5.78756">
        <ele>1119</ele>
        <time>2022-06-09T21:43:22Z</time>
      </trkpt>
      <trkpt lat="44.37684" lon="5.78725">
        <ele>1123</ele>
        <time>2022-06-09T21:43:27Z</time>
      </trkpt>
      <trkpt lat="44.37687" lon="5.787">
        <ele>1127</ele>
        <time>2022-06-09T21:43:32Z</time>
      </trkpt>
      <trkpt lat="44.37684" lon="5.78678">
        <ele>1131</ele>
        <time>2022-06-09T21:43:35Z</time>
      </trkpt>
      <trkpt lat="44.37684" lon="5.78652">
        <ele>1135</ele>
        <time>2022-06-09T21:43:40Z</time>
      </trkpt>
      <trkpt lat="44.37696" lon="5.78551">
        <ele>1138</ele>
        <time>2022-06-09T21:43:57Z</time>
      </trkpt>
      <trkpt lat="44.37702" lon="5.78545">
        <ele>1137</ele>
        <time>2022-06-09T21:43:59Z</time>
      </trkpt>
      <trkpt lat="44.37716" lon="5.78507">
        <ele>1134</ele>
        <time>2022-06-09T21:44:06Z</time>
      </trkpt>
      <trkpt lat="44.3772" lon="5.78482">
        <ele>1131</ele>
        <time>2022-06-09T21:44:10Z</time>
      </trkpt>
      <trkpt lat="44.37719" lon="5.78473">
        <ele>1130</ele>
        <time>2022-06-09T21:44:12Z</time>
      </trkpt>
      <trkpt lat="44.37725" lon="5.78449">
        <ele>1127</ele>
        <time>2022-06-09T21:44:16Z</time>
      </trkpt>
      <trkpt lat="44.37734" lon="5.7843">
        <ele>1126</ele>
        <time>2022-06-09T21:44:20Z</time>
      </trkpt>
      <trkpt lat="44.37746" lon="5.78384">
        <ele>1124</ele>
        <time>2022-06-09T21:44:28Z</time>
      </trkpt>
      <trkpt lat="44.37756" lon="5.78357">
        <ele>1121</ele>
        <time>2022-06-09T21:44:33Z</time>
      </trkpt>
      <trkpt lat="44.37751" lon="5.78343">
        <ele>1122</ele>
        <time>2022-06-09T21:44:35Z</time>
      </trkpt>
      <trkpt lat="44.37757" lon="5.78331">
        <ele>1119</ele>
        <time>2022-06-09T21:44:38Z</time>
      </trkpt>
      <trkpt lat="44.37758" lon="5.78322">
        <ele>1118</ele>
        <time>2022-06-09T21:44:39Z</time>
      </trkpt>
      <trkpt lat="44.3775" lon="5.7832">
        <ele>1120</ele>
        <time>2022-06-09T21:44:41Z</time>
      </trkpt>
      <trkpt lat="44.37736" lon="5.78336">
        <ele>1120</ele>
        <time>2022-06-09T21:44:46Z</time>
      </trkpt>
      <trkpt lat="44.37708" lon="5.78343">
        <ele>1116</ele>
        <time>2022-06-09T21:44:52Z</time>
      </trkpt>
      <trkpt lat="44.37707" lon="5.78347">
        <ele>1116</ele>
        <time>2022-06-09T21:44:53Z</time>
      </trkpt>
      <trkpt lat="44.37684" lon="5.78355">
        <ele>1113</ele>
        <time>2022-06-09T21:44:58Z</time>
      </trkpt>
      <trkpt lat="44.37677" lon="5.78365">
        <ele>1113</ele>
        <time>2022-06-09T21:45:01Z</time>
      </trkpt>
      <trkpt lat="44.37653" lon="5.78387">
        <ele>1108</ele>
        <time>2022-06-09T21:45:07Z</time>
      </trkpt>
      <trkpt lat="44.37641" lon="5.78405">
        <ele>1105</ele>
        <time>2022-06-09T21:45:12Z</time>
      </trkpt>
      <trkpt lat="44.37634" lon="5.78418">
        <ele>1104</ele>
        <time>2022-06-09T21:45:14Z</time>
      </trkpt>
      <trkpt lat="44.37627" lon="5.78446">
        <ele>1106</ele>
        <time>2022-06-09T21:45:19Z</time>
      </trkpt>
      <trkpt lat="44.37621" lon="5.78455">
        <ele>1105</ele>
        <time>2022-06-09T21:45:21Z</time>
      </trkpt>
      <trkpt lat="44.37617" lon="5.78457">
        <ele>1104</ele>
        <time>2022-06-09T21:45:22Z</time>
      </trkpt>
      <trkpt lat="44.37603" lon="5.78454">
        <ele>1097</ele>
        <time>2022-06-09T21:45:26Z</time>
      </trkpt>
      <trkpt lat="44.37588" lon="5.7844">
        <ele>1088</ele>
        <time>2022-06-09T21:45:30Z</time>
      </trkpt>
      <trkpt lat="44.3758" lon="5.78436">
        <ele>1085</ele>
        <time>2022-06-09T21:45:32Z</time>
      </trkpt>
      <trkpt lat="44.37569" lon="5.78436">
        <ele>1081</ele>
        <time>2022-06-09T21:45:34Z</time>
      </trkpt>
      <trkpt lat="44.37558" lon="5.78441">
        <ele>1077</ele>
        <time>2022-06-09T21:45:37Z</time>
      </trkpt>
      <trkpt lat="44.37551" lon="5.78438">
        <ele>1074</ele>
        <time>2022-06-09T21:45:39Z</time>
      </trkpt>
      <trkpt lat="44.37549" lon="5.78433">
        <ele>1073</ele>
        <time>2022-06-09T21:45:40Z</time>
      </trkpt>
      <trkpt lat="44.37555" lon="5.7839">
        <ele>1069</ele>
        <time>2022-06-09T21:45:47Z</time>
      </trkpt>
      <trkpt lat="44.37552" lon="5.78372">
        <ele>1065</ele>
        <time>2022-06-09T21:45:50Z</time>
      </trkpt>
      <trkpt lat="44.37542" lon="5.7836">
        <ele>1060</ele>
        <time>2022-06-09T21:45:53Z</time>
      </trkpt>
      <trkpt lat="44.37535" lon="5.7836">
        <ele>1058</ele>
        <time>2022-06-09T21:45:55Z</time>
      </trkpt>
      <trkpt lat="44.37533" lon="5.78358">
        <ele>1057</ele>
        <time>2022-06-09T21:45:55Z</time>
      </trkpt>
      <trkpt lat="44.37531" lon="5.78351">
        <ele>1055</ele>
        <time>2022-06-09T21:45:57Z</time>
      </trkpt>
      <trkpt lat="44.37525" lon="5.78344">
        <ele>1052</ele>
        <time>2022-06-09T21:45:58Z</time>
      </trkpt>
      <trkpt lat="44.37516" lon="5.78308">
        <ele>1041</ele>
        <time>2022-06-09T21:46:05Z</time>
      </trkpt>
      <trkpt lat="44.37533" lon="5.78273">
        <ele>1038</ele>
        <time>2022-06-09T21:46:12Z</time>
      </trkpt>
      <trkpt lat="44.37554" lon="5.78243">
        <ele>1038</ele>
        <time>2022-06-09T21:46:19Z</time>
      </trkpt>
      <trkpt lat="44.37558" lon="5.78221">
        <ele>1032</ele>
        <time>2022-06-09T21:46:23Z</time>
      </trkpt>
      <trkpt lat="44.37558" lon="5.7821">
        <ele>1028</ele>
        <time>2022-06-09T21:46:25Z</time>
      </trkpt>
      <trkpt lat="44.37541" lon="5.78212">
        <ele>1024</ele>
        <time>2022-06-09T21:46:29Z</time>
      </trkpt>
      <trkpt lat="44.37535" lon="5.7821">
        <ele>1021</ele>
        <time>2022-06-09T21:46:30Z</time>
      </trkpt>
      <trkpt lat="44.37527" lon="5.78202">
        <ele>1016</ele>
        <time>2022-06-09T21:46:32Z</time>
      </trkpt>
      <trkpt lat="44.37541" lon="5.78169">
        <ele>1011</ele>
        <time>2022-06-09T21:46:39Z</time>
      </trkpt>
      <trkpt lat="44.37551" lon="5.78156">
        <ele>1009</ele>
        <time>2022-06-09T21:46:42Z</time>
      </trkpt>
      <trkpt lat="44.37551" lon="5.7813">
        <ele>1001</ele>
        <time>2022-06-09T21:46:46Z</time>
      </trkpt>
      <trkpt lat="44.37545" lon="5.78121">
        <ele>997</ele>
        <time>2022-06-09T21:46:48Z</time>
      </trkpt>
      <trkpt lat="44.37545" lon="5.78107">
        <ele>993</ele>
        <time>2022-06-09T21:46:51Z</time>
      </trkpt>
      <trkpt lat="44.37556" lon="5.78083">
        <ele>988</ele>
        <time>2022-06-09T21:46:55Z</time>
      </trkpt>
      <trkpt lat="44.3754" lon="5.78064">
        <ele>979</ele>
        <time>2022-06-09T21:47:00Z</time>
      </trkpt>
      <trkpt lat="44.37528" lon="5.78064">
        <ele>976</ele>
        <time>2022-06-09T21:47:03Z</time>
      </trkpt>
      <trkpt lat="44.37515" lon="5.7806">
        <ele>973</ele>
        <time>2022-06-09T21:47:06Z</time>
      </trkpt>
      <trkpt lat="44.37507" lon="5.78053">
        <ele>969</ele>
        <time>2022-06-09T21:47:08Z</time>
      </trkpt>
      <trkpt lat="44.37471" lon="5.78057">
        <ele>960</ele>
        <time>2022-06-09T21:47:17Z</time>
      </trkpt>
      <trkpt lat="44.37443" lon="5.78067">
        <ele>954</ele>
        <time>2022-06-09T21:47:24Z</time>
      </trkpt>
      <trkpt lat="44.37436" lon="5.78064">
        <ele>951</ele>
        <time>2022-06-09T21:47:25Z</time>
      </trkpt>
      <trkpt lat="44.3742" lon="5.78063">
        <ele>946</ele>
        <time>2022-06-09T21:47:29Z</time>
      </trkpt>
      <trkpt lat="44.374" lon="5.78073">
        <ele>943</ele>
        <time>2022-06-09T21:47:34Z</time>
      </trkpt>
      <trkpt lat="44.37391" lon="5.78073">
        <ele>940</ele>
        <time>2022-06-09T21:47:36Z</time>
      </trkpt>
      <trkpt lat="44.37378" lon="5.78063">
        <ele>935</ele>
        <time>2022-06-09T21:47:40Z</time>
      </trkpt>
      <trkpt lat="44.3737" lon="5.78065">
        <ele>933</ele>
        <time>2022-06-09T21:47:41Z</time>
      </trkpt>
      <trkpt lat="44.37348" lon="5.78061">
        <ele>926</ele>
        <time>2022-06-09T21:47:47Z</time>
      </trkpt>
      <trkpt lat="44.37338" lon="5.78064">
        <ele>924</ele>
        <time>2022-06-09T21:47:49Z</time>
      </trkpt>
      <trkpt lat="44.37333" lon="5.78059">
        <ele>922</ele>
        <time>2022-06-09T21:47:50Z</time>
      </trkpt>
      <trkpt lat="44.37328" lon="5.7806">
        <ele>920</ele>
        <time>2022-06-09T21:47:52Z</time>
      </trkpt>
      <trkpt lat="44.37302" lon="5.78055">
        <ele>913</ele>
        <time>2022-06-09T21:47:58Z</time>
      </trkpt>
      <trkpt lat="44.37279" lon="5.78047">
        <ele>906</ele>
        <time>2022-06-09T21:48:03Z</time>
      </trkpt>
      <trkpt lat="44.37264" lon="5.78047">
        <ele>903</ele>
        <time>2022-06-09T21:48:07Z</time>
      </trkpt>
      <trkpt lat="44.37255" lon="5.78038">
        <ele>899</ele>
        <time>2022-06-09T21:48:09Z</time>
      </trkpt>
      <trkpt lat="44.37238" lon="5.78038">
        <ele>895</ele>
        <time>2022-06-09T21:48:13Z</time>
      </trkpt>
      <trkpt lat="44.37223" lon="5.78032">
        <ele>891</ele>
        <time>2022-06-09T21:48:17Z</time>
      </trkpt>
      <trkpt lat="44.37218" lon="5.78021">
        <ele>888</ele>
        <time>2022-06-09T21:48:19Z</time>
      </trkpt>
      <trkpt lat="44.37243" lon="5.77961">
        <ele>886</ele>
        <time>2022-06-09T21:48:31Z</time>
      </trkpt>
      <trkpt lat="44.37247" lon="5.77946">
        <ele>884</ele>
        <time>2022-06-09T21:48:33Z</time>
      </trkpt>
      <trkpt lat="44.37261" lon="5.77919">
        <ele>883</ele>
        <time>2022-06-09T21:48:39Z</time>
      </trkpt>
      <trkpt lat="44.37265" lon="5.77891">
        <ele>879</ele>
        <time>2022-06-09T21:48:44Z</time>
      </trkpt>
      <trkpt lat="44.37268" lon="5.77884">
        <ele>878</ele>
        <time>2022-06-09T21:48:45Z</time>
      </trkpt>
      <trkpt lat="44.37268" lon="5.77855">
        <ele>872</ele>
        <time>2022-06-09T21:48:50Z</time>
      </trkpt>
      <trkpt lat="44.37258" lon="5.7784">
        <ele>868</ele>
        <time>2022-06-09T21:48:53Z</time>
      </trkpt>
      <trkpt lat="44.37255" lon="5.77825">
        <ele>864</ele>
        <time>2022-06-09T21:48:56Z</time>
      </trkpt>
      <trkpt lat="44.37244" lon="5.77806">
        <ele>857</ele>
        <time>2022-06-09T21:49:00Z</time>
      </trkpt>
      <trkpt lat="44.3724" lon="5.77804">
        <ele>856</ele>
        <time>2022-06-09T21:49:01Z</time>
      </trkpt>
      <trkpt lat="44.37216" lon="5.77795">
        <ele>847</ele>
        <time>2022-06-09T21:49:07Z</time>
      </trkpt>
      <trkpt lat="44.37198" lon="5.77796">
        <ele>843</ele>
        <time>2022-06-09T21:49:11Z</time>
      </trkpt>
      <trkpt lat="44.37171" lon="5.77804">
        <ele>840</ele>
        <time>2022-06-09T21:49:17Z</time>
      </trkpt>
      <trkpt lat="44.37156" lon="5.77802">
        <ele>835</ele>
        <time>2022-06-09T21:49:21Z</time>
      </trkpt>
      <trkpt lat="44.37142" lon="5.77804">
        <ele>831</ele>
        <time>2022-06-09T21:49:24Z</time>
      </trkpt>
      <trkpt lat="44.3713" lon="5.77799">
        <ele>826</ele>
        <time>2022-06-09T21:49:27Z</time>
      </trkpt>
      <trkpt lat="44.37119" lon="5.77798">
        <ele>822</ele>
        <time>2022-06-09T21:49:30Z</time>
      </trkpt>
      <trkpt lat="44.37097" lon="5.77804">
        <ele>818</ele>
        <time>2022-06-09T21:49:35Z</time>
      </trkpt>
      <trkpt lat="44.3708" lon="5.77803">
        <ele>812</ele>
        <time>2022-06-09T21:49:39Z</time>
      </trkpt>
      <trkpt lat="44.37064" lon="5.77816">
        <ele>811</ele>
        <time>2022-06-09T21:49:43Z</time>
      </trkpt>
      <trkpt lat="44.37058" lon="5.77815">
        <ele>808</ele>
        <time>2022-06-09T21:49:45Z</time>
      </trkpt>
      <trkpt lat="44.3704" lon="5.7782">
        <ele>804</ele>
        <time>2022-06-09T21:49:49Z</time>
      </trkpt>
      <trkpt lat="44.37007" lon="5.77851">
        <ele>799</ele>
        <time>2022-06-09T21:49:58Z</time>
      </trkpt>
      <trkpt lat="44.36975" lon="5.77911">
        <ele>795</ele>
        <time>2022-06-09T21:50:11Z</time>
      </trkpt>
      <trkpt lat="44.36968" lon="5.77936">
        <ele>793</ele>
        <time>2022-06-09T21:50:15Z</time>
      </trkpt>
      <trkpt lat="44.36957" lon="5.77938">
        <ele>789</ele>
        <time>2022-06-09T21:50:18Z</time>
      </trkpt>
      <trkpt lat="44.36955" lon="5.77936">
        <ele>788</ele>
        <time>2022-06-09T21:50:18Z</time>
      </trkpt>
      <trkpt lat="44.36953" lon="5.77913">
        <ele>786</ele>
        <time>2022-06-09T21:50:22Z</time>
      </trkpt>
      <trkpt lat="44.36953" lon="5.77868">
        <ele>779</ele>
        <time>2022-06-09T21:50:30Z</time>
      </trkpt>
      <trkpt lat="44.36955" lon="5.77856">
        <ele>778</ele>
        <time>2022-06-09T21:50:32Z</time>
      </trkpt>
      <trkpt lat="44.36952" lon="5.77851">
        <ele>776</ele>
        <time>2022-06-09T21:50:33Z</time>
      </trkpt>
      <trkpt lat="44.36945" lon="5.77853">
        <ele>774</ele>
        <time>2022-06-09T21:50:35Z</time>
      </trkpt>
      <trkpt lat="44.36929" lon="5.77866">
        <ele>769</ele>
        <time>2022-06-09T21:50:39Z</time>
      </trkpt>
      <trkpt lat="44.36902" lon="5.77878">
        <ele>760</ele>
        <time>2022-06-09T21:50:46Z</time>
      </trkpt>
      <trkpt lat="44.36889" lon="5.7788">
        <ele>756</ele>
        <time>2022-06-09T21:50:49Z</time>
      </trkpt>
      <trkpt lat="44.36883" lon="5.77877">
        <ele>754</ele>
        <time>2022-06-09T21:50:50Z</time>
      </trkpt>
      <trkpt lat="44.3687" lon="5.77857">
        <ele>748</ele>
        <time>2022-06-09T21:50:55Z</time>
      </trkpt>
      <trkpt lat="44.36847" lon="5.77868">
        <ele>742</ele>
        <time>2022-06-09T21:51:00Z</time>
      </trkpt>
      <trkpt lat="44.36836" lon="5.77869">
        <ele>738</ele>
        <time>2022-06-09T21:51:03Z</time>
      </trkpt>
      <trkpt lat="44.36829" lon="5.77865">
        <ele>736</ele>
        <time>2022-06-09T21:51:05Z</time>
      </trkpt>
      <trkpt lat="44.36823" lon="5.77855">
        <ele>734</ele>
        <time>2022-06-09T21:51:07Z</time>
      </trkpt>
      <trkpt lat="44.36816" lon="5.77869">
        <ele>734</ele>
        <time>2022-06-09T21:51:10Z</time>
      </trkpt>
      <trkpt lat="44.36807" lon="5.77869">
        <ele>732</ele>
        <time>2022-06-09T21:51:12Z</time>
      </trkpt>
      <trkpt lat="44.36794" lon="5.77865">
        <ele>729</ele>
        <time>2022-06-09T21:51:15Z</time>
      </trkpt>
      <trkpt lat="44.36788" lon="5.77867">
        <ele>728</ele>
        <time>2022-06-09T21:51:16Z</time>
      </trkpt>
      <trkpt lat="44.36778" lon="5.77877">
        <ele>726</ele>
        <time>2022-06-09T21:51:19Z</time>
      </trkpt>
      <trkpt lat="44.36771" lon="5.7788">
        <ele>725</ele>
        <time>2022-06-09T21:51:21Z</time>
      </trkpt>
      <trkpt lat="44.36765" lon="5.77876">
        <ele>724</ele>
        <time>2022-06-09T21:51:22Z</time>
      </trkpt>
      <trkpt lat="44.36739" lon="5.77838">
        <ele>720</ele>
        <time>2022-06-09T21:51:31Z</time>
      </trkpt>
      <trkpt lat="44.36667" lon="5.77803">
        <ele>710</ele>
        <time>2022-06-09T21:51:49Z</time>
      </trkpt>
      <trkpt lat="44.36659" lon="5.77792">
        <ele>708</ele>
        <time>2022-06-09T21:51:52Z</time>
      </trkpt>
      <trkpt lat="44.36654" lon="5.77769">
        <ele>707</ele>
        <time>2022-06-09T21:51:56Z</time>
      </trkpt>
      <trkpt lat="44.36643" lon="5.77662">
        <ele>697</ele>
        <time>2022-06-09T21:52:14Z</time>
      </trkpt>
      <trkpt lat="44.36641" lon="5.77634">
        <ele>693</ele>
        <time>2022-06-09T21:52:18Z</time>
      </trkpt>
      <trkpt lat="44.36643" lon="5.77596">
        <ele>688</ele>
        <time>2022-06-09T21:52:25Z</time>
      </trkpt>
      <trkpt lat="44.3664" lon="5.77576">
        <ele>686</ele>
        <time>2022-06-09T21:52:28Z</time>
      </trkpt>
      <trkpt lat="44.36577" lon="5.77386">
        <ele>670</ele>
        <time>2022-06-09T21:53:03Z</time>
      </trkpt>
      <trkpt lat="44.3657" lon="5.77374">
        <ele>668</ele>
        <time>2022-06-09T21:53:06Z</time>
      </trkpt>
      <trkpt lat="44.36567" lon="5.77374">
        <ele>668</ele>
        <time>2022-06-09T21:53:06Z</time>
      </trkpt>
      <trkpt lat="44.36545" lon="5.77393">
        <ele>669</ele>
        <time>2022-06-09T21:53:12Z</time>
      </trkpt>
      <trkpt lat="44.36502" lon="5.77443">
        <ele>670</ele>
        <time>2022-06-09T21:53:26Z</time>
      </trkpt>
      <trkpt lat="44.36488" lon="5.77466">
        <ele>670</ele>
        <time>2022-06-09T21:53:31Z</time>
      </trkpt>
      <trkpt lat="44.36473" lon="5.77544">
        <ele>672</ele>
        <time>2022-06-09T21:53:44Z</time>
      </trkpt>
      <trkpt lat="44.3646" lon="5.77573">
        <ele>672</ele>
        <time>2022-06-09T21:53:50Z</time>
      </trkpt>
      <trkpt lat="44.36399" lon="5.77682">
        <ele>670</ele>
        <time>2022-06-09T21:54:13Z</time>
      </trkpt>
      <trkpt lat="44.3638" lon="5.77698">
        <ele>670</ele>
        <time>2022-06-09T21:54:18Z</time>
      </trkpt>
      <trkpt lat="44.36353" lon="5.77704">
        <ele>669</ele>
        <time>2022-06-09T21:54:24Z</time>
      </trkpt>
      <trkpt lat="44.36333" lon="5.77721">
        <ele>669</ele>
        <time>2022-06-09T21:54:30Z</time>
      </trkpt>
      <trkpt lat="44.36307" lon="5.77751">
        <ele>669</ele>
        <time>2022-06-09T21:54:38Z</time>
      </trkpt>
      <trkpt lat="44.36272" lon="5.77779">
        <ele>668</ele>
        <time>2022-06-09T21:54:47Z</time>
      </trkpt>
      <trkpt lat="44.36236" lon="5.77822">
        <ele>666</ele>
        <time>2022-06-09T21:54:58Z</time>
      </trkpt>
      <trkpt lat="44.362" lon="5.77854">
        <ele>663</ele>
        <time>2022-06-09T21:55:08Z</time>
      </trkpt>
      <trkpt lat="44.36173" lon="5.77869">
        <ele>661</ele>
        <time>2022-06-09T21:55:15Z</time>
      </trkpt>
      <trkpt lat="44.36165" lon="5.77877">
        <ele>660</ele>
        <time>2022-06-09T21:55:17Z</time>
      </trkpt>
      <trkpt lat="44.36159" lon="5.77889">
        <ele>660</ele>
        <time>2022-06-09T21:55:20Z</time>
      </trkpt>
      <trkpt lat="44.36149" lon="5.77926">
        <ele>661</ele>
        <time>2022-06-09T21:55:26Z</time>
      </trkpt>
      <trkpt lat="44.36134" lon="5.77928">
        <ele>661</ele>
        <time>2022-06-09T21:55:30Z</time>
      </trkpt>
      <trkpt lat="44.36129" lon="5.77936">
        <ele>661</ele>
        <time>2022-06-09T21:55:32Z</time>
      </trkpt>
      <trkpt lat="44.3612" lon="5.7796">
        <ele>663</ele>
        <time>2022-06-09T21:55:36Z</time>
      </trkpt>
      <trkpt lat="44.3612" lon="5.77968">
        <ele>664</ele>
        <time>2022-06-09T21:55:38Z</time>
      </trkpt>
      <trkpt lat="44.36126" lon="5.77981">
        <ele>665</ele>
        <time>2022-06-09T21:55:40Z</time>
      </trkpt>
      <trkpt lat="44.36128" lon="5.77995">
        <ele>666</ele>
        <time>2022-06-09T21:55:42Z</time>
      </trkpt>
      <trkpt lat="44.36118" lon="5.78032">
        <ele>669</ele>
        <time>2022-06-09T21:55:49Z</time>
      </trkpt>
      <trkpt lat="44.36115" lon="5.78052">
        <ele>671</ele>
        <time>2022-06-09T21:55:52Z</time>
      </trkpt>
      <trkpt lat="44.36121" lon="5.78077">
        <ele>673</ele>
        <time>2022-06-09T21:55:57Z</time>
      </trkpt>
      <trkpt lat="44.36133" lon="5.78091">
        <ele>674</ele>
        <time>2022-06-09T21:56:01Z</time>
      </trkpt>
      <trkpt lat="44.36139" lon="5.78108">
        <ele>675</ele>
        <time>2022-06-09T21:56:04Z</time>
      </trkpt>
      <trkpt lat="44.36142" lon="5.78133">
        <ele>677</ele>
        <time>2022-06-09T21:56:08Z</time>
      </trkpt>
      <trkpt lat="44.3614" lon="5.78142">
        <ele>677</ele>
        <time>2022-06-09T21:56:10Z</time>
      </trkpt>
      <trkpt lat="44.36132" lon="5.78151">
        <ele>678</ele>
        <time>2022-06-09T21:56:12Z</time>
      </trkpt>
      <trkpt lat="44.36116" lon="5.78162">
        <ele>679</ele>
        <time>2022-06-09T21:56:16Z</time>
      </trkpt>
      <trkpt lat="44.361" lon="5.78163">
        <ele>679</ele>
        <time>2022-06-09T21:56:20Z</time>
      </trkpt>
      <trkpt lat="44.36089" lon="5.78185">
        <ele>681</ele>
        <time>2022-06-09T21:56:24Z</time>
      </trkpt>
      <trkpt lat="44.36075" lon="5.78187">
        <ele>681</ele>
        <time>2022-06-09T21:56:28Z</time>
      </trkpt>
      <trkpt lat="44.36071" lon="5.78183">
        <ele>680</ele>
        <time>2022-06-09T21:56:29Z</time>
      </trkpt>
      <trkpt lat="44.36069" lon="5.7819">
        <ele>681</ele>
        <time>2022-06-09T21:56:30Z</time>
      </trkpt>
      <trkpt lat="44.36064" lon="5.78196">
        <ele>682</ele>
        <time>2022-06-09T21:56:32Z</time>
      </trkpt>
      <trkpt lat="44.36052" lon="5.7823">
        <ele>685</ele>
        <time>2022-06-09T21:56:38Z</time>
      </trkpt>
      <trkpt lat="44.36037" lon="5.78256">
        <ele>688</ele>
        <time>2022-06-09T21:56:43Z</time>
      </trkpt>
      <trkpt lat="44.36013" lon="5.78272">
        <ele>689</ele>
        <time>2022-06-09T21:56:50Z</time>
      </trkpt>
      <trkpt lat="44.3599" lon="5.78277">
        <ele>689</ele>
        <time>2022-06-09T21:56:55Z</time>
      </trkpt>
      <trkpt lat="44.35984" lon="5.78275">
        <ele>689</ele>
        <time>2022-06-09T21:56:57Z</time>
      </trkpt>
      <trkpt lat="44.35973" lon="5.78284">
        <ele>690</ele>
        <time>2022-06-09T21:57:00Z</time>
      </trkpt>
      <trkpt lat="44.35956" lon="5.78284">
        <ele>690</ele>
        <time>2022-06-09T21:57:03Z</time>
      </trkpt>
      <trkpt lat="44.35945" lon="5.78288">
        <ele>690</ele>
        <time>2022-06-09T21:57:06Z</time>
      </trkpt>
      <trkpt lat="44.35927" lon="5.78299">
        <ele>689</ele>
        <time>2022-06-09T21:57:11Z</time>
      </trkpt>
      <trkpt lat="44.35919" lon="5.78311">
        <ele>688</ele>
        <time>2022-06-09T21:57:13Z</time>
      </trkpt>
      <trkpt lat="44.35918" lon="5.78326">
        <ele>688</ele>
        <time>2022-06-09T21:57:16Z</time>
      </trkpt>
      <trkpt lat="44.35909" lon="5.78354">
        <ele>685</ele>
        <time>2022-06-09T21:57:21Z</time>
      </trkpt>
      <trkpt lat="44.3587" lon="5.78393">
        <ele>680</ele>
        <time>2022-06-09T21:57:32Z</time>
      </trkpt>
      <trkpt lat="44.35864" lon="5.78423">
        <ele>680</ele>
        <time>2022-06-09T21:57:37Z</time>
      </trkpt>
      <trkpt lat="44.35854" lon="5.78425">
        <ele>679</ele>
        <time>2022-06-09T21:57:40Z</time>
      </trkpt>
      <trkpt lat="44.35828" lon="5.78439">
        <ele>677</ele>
        <time>2022-06-09T21:57:46Z</time>
      </trkpt>
      <trkpt lat="44.35758" lon="5.78453">
        <ele>673</ele>
        <time>2022-06-09T21:58:03Z</time>
      </trkpt>
      <trkpt lat="44.35719" lon="5.78452">
        <ele>672</ele>
        <time>2022-06-09T21:58:12Z</time>
      </trkpt>
      <trkpt lat="44.35699" lon="5.78461">
        <ele>671</ele>
        <time>2022-06-09T21:58:17Z</time>
      </trkpt>
      <trkpt lat="44.35663" lon="5.78489">
        <ele>670</ele>
        <time>2022-06-09T21:58:27Z</time>
      </trkpt>
      <trkpt lat="44.35649" lon="5.78505">
        <ele>670</ele>
        <time>2022-06-09T21:58:31Z</time>
      </trkpt>
      <trkpt lat="44.35602" lon="5.78549">
        <ele>668</ele>
        <time>2022-06-09T21:58:44Z</time>
      </trkpt>
      <trkpt lat="44.35557" lon="5.78604">
        <ele>666</ele>
        <time>2022-06-09T21:58:58Z</time>
      </trkpt>
      <trkpt lat="44.35523" lon="5.78657">
        <ele>661</ele>
        <time>2022-06-09T21:59:10Z</time>
      </trkpt>
      <trkpt lat="44.35517" lon="5.78663">
        <ele>661</ele>
        <time>2022-06-09T21:59:12Z</time>
      </trkpt>
      <trkpt lat="44.3551" lon="5.78667">
        <ele>660</ele>
        <time>2022-06-09T21:59:13Z</time>
      </trkpt>
      <trkpt lat="44.35474" lon="5.78672">
        <ele>657</ele>
        <time>2022-06-09T21:59:22Z</time>
      </trkpt>
      <trkpt lat="44.35454" lon="5.78687">
        <ele>656</ele>
        <time>2022-06-09T21:59:27Z</time>
      </trkpt>
      <trkpt lat="44.35438" lon="5.7869">
        <ele>655</ele>
        <time>2022-06-09T21:59:31Z</time>
      </trkpt>
      <trkpt lat="44.3542" lon="5.78686">
        <ele>654</ele>
        <time>2022-06-09T21:59:35Z</time>
      </trkpt>
      <trkpt lat="44.354" lon="5.78673">
        <ele>656</ele>
        <time>2022-06-09T21:59:40Z</time>
      </trkpt>
      <trkpt lat="44.35383" lon="5.78652">
        <ele>658</ele>
        <time>2022-06-09T21:59:45Z</time>
      </trkpt>
      <trkpt lat="44.35374" lon="5.7865">
        <ele>659</ele>
        <time>2022-06-09T21:59:48Z</time>
      </trkpt>
      <trkpt lat="44.35366" lon="5.78654">
        <ele>660</ele>
        <time>2022-06-09T21:59:50Z</time>
      </trkpt>
      <trkpt lat="44.35365" lon="5.78659">
        <ele>660</ele>
        <time>2022-06-09T21:59:50Z</time>
      </trkpt>
      <trkpt lat="44.35378" lon="5.78716">
        <ele>660</ele>
        <time>2022-06-09T22:00:00Z</time>
      </trkpt>
      <trkpt lat="44.3537" lon="5.78724">
        <ele>661</ele>
        <time>2022-06-09T22:00:03Z</time>
      </trkpt>
      <trkpt lat="44.35329" lon="5.78745">
        <ele>667</ele>
        <time>2022-06-09T22:00:13Z</time>
      </trkpt>
      <trkpt lat="44.35308" lon="5.78746">
        <ele>670</ele>
        <time>2022-06-09T22:00:18Z</time>
      </trkpt>
      <trkpt lat="44.35262" lon="5.78724">
        <ele>677</ele>
        <time>2022-06-09T22:00:29Z</time>
      </trkpt>
      <trkpt lat="44.35271" lon="5.78698">
        <ele>676</ele>
        <time>2022-06-09T22:00:34Z</time>
      </trkpt>
      <trkpt lat="44.35275" lon="5.78674">
        <ele>676</ele>
        <time>2022-06-09T22:00:38Z</time>
      </trkpt>
      <trkpt lat="44.35268" lon="5.78654">
        <ele>678</ele>
        <time>2022-06-09T22:00:42Z</time>
      </trkpt>
      <trkpt lat="44.35263" lon="5.78647">
        <ele>679</ele>
        <time>2022-06-09T22:00:44Z</time>
      </trkpt>
      <trkpt lat="44.35261" lon="5.78608">
        <ele>682</ele>
        <time>2022-06-09T22:00:50Z</time>
      </trkpt>
      <trkpt lat="44.35259" lon="5.78605">
        <ele>683</ele>
        <time>2022-06-09T22:00:51Z</time>
      </trkpt>
      <trkpt lat="44.35248" lon="5.78606">
        <ele>685</ele>
        <time>2022-06-09T22:00:53Z</time>
      </trkpt>
      <trkpt lat="44.35243" lon="5.78602">
        <ele>687</ele>
        <time>2022-06-09T22:00:55Z</time>
      </trkpt>
      <trkpt lat="44.3524" lon="5.78595">
        <ele>688</ele>
        <time>2022-06-09T22:00:56Z</time>
      </trkpt>
      <trkpt lat="44.35243" lon="5.7857">
        <ele>688</ele>
        <time>2022-06-09T22:01:00Z</time>
      </trkpt>
      <trkpt lat="44.35241" lon="5.78558">
        <ele>689</ele>
        <time>2022-06-09T22:01:02Z</time>
      </trkpt>
      <trkpt lat="44.35234" lon="5.78552">
        <ele>691</ele>
        <time>2022-06-09T22:01:04Z</time>
      </trkpt>
      <trkpt lat="44.35224" lon="5.78557">
        <ele>694</ele>
        <time>2022-06-09T22:01:07Z</time>
      </trkpt>
      <trkpt lat="44.35208" lon="5.78576">
        <ele>697</ele>
        <time>2022-06-09T22:01:12Z</time>
      </trkpt>
      <trkpt lat="44.352" lon="5.78578">
        <ele>699</ele>
        <time>2022-06-09T22:01:14Z</time>
      </trkpt>
      <trkpt lat="44.35188" lon="5.7859">
        <ele>702</ele>
        <time>2022-06-09T22:01:17Z</time>
      </trkpt>
      <trkpt lat="44.35179" lon="5.78591">
        <ele>704</ele>
        <time>2022-06-09T22:01:19Z</time>
      </trkpt>
      <trkpt lat="44.35167" lon="5.78575">
        <ele>708</ele>
        <time>2022-06-09T22:01:23Z</time>
      </trkpt>
      <trkpt lat="44.35161" lon="5.78576">
        <ele>710</ele>
        <time>2022-06-09T22:01:24Z</time>
      </trkpt>
      <trkpt lat="44.35155" lon="5.78581">
        <ele>711</ele>
        <time>2022-06-09T22:01:26Z</time>
      </trkpt>
      <trkpt lat="44.35147" lon="5.78582">
        <ele>713</ele>
        <time>2022-06-09T22:01:28Z</time>
      </trkpt>
      <trkpt lat="44.35128" lon="5.78576">
        <ele>719</ele>
        <time>2022-06-09T22:01:32Z</time>
      </trkpt>
      <trkpt lat="44.35126" lon="5.7855">
        <ele>721</ele>
        <time>2022-06-09T22:01:37Z</time>
      </trkpt>
      <trkpt lat="44.35128" lon="5.78532">
        <ele>722</ele>
        <time>2022-06-09T22:01:40Z</time>
      </trkpt>
      <trkpt lat="44.35124" lon="5.78523">
        <ele>723</ele>
        <time>2022-06-09T22:01:42Z</time>
      </trkpt>
      <trkpt lat="44.35118" lon="5.78526">
        <ele>725</ele>
        <time>2022-06-09T22:01:43Z</time>
      </trkpt>
      <trkpt lat="44.35104" lon="5.7854">
        <ele>729</ele>
        <time>2022-06-09T22:01:47Z</time>
      </trkpt>
      <trkpt lat="44.35096" lon="5.78541">
        <ele>731</ele>
        <time>2022-06-09T22:01:49Z</time>
      </trkpt>
      <trkpt lat="44.3509" lon="5.78538">
        <ele>733</ele>
        <time>2022-06-09T22:01:50Z</time>
      </trkpt>
      <trkpt lat="44.35087" lon="5.78516">
        <ele>736</ele>
        <time>2022-06-09T22:01:54Z</time>
      </trkpt>
      <trkpt lat="44.35077" lon="5.78498">
        <ele>740</ele>
        <time>2022-06-09T22:01:58Z</time>
      </trkpt>
      <trkpt lat="44.35071" lon="5.78478">
        <ele>742</ele>
        <time>2022-06-09T22:02:02Z</time>
      </trkpt>
      <trkpt lat="44.35087" lon="5.78421">
        <ele>743</ele>
        <time>2022-06-09T22:02:12Z</time>
      </trkpt>
      <trkpt lat="44.3508" lon="5.78381">
        <ele>745</ele>
        <time>2022-06-09T22:02:19Z</time>
      </trkpt>
      <trkpt lat="44.35079" lon="5.78361">
        <ele>744</ele>
        <time>2022-06-09T22:02:22Z</time>
      </trkpt>
      <trkpt lat="44.35082" lon="5.78296">
        <ele>744</ele>
        <time>2022-06-09T22:02:33Z</time>
      </trkpt>
      <trkpt lat="44.35062" lon="5.78222">
        <ele>742</ele>
        <time>2022-06-09T22:02:46Z</time>
      </trkpt>
      <trkpt lat="44.35037" lon="5.7816">
        <ele>735</ele>
        <time>2022-06-09T22:02:58Z</time>
      </trkpt>
      <trkpt lat="44.35011" lon="5.78146">
        <ele>730</ele>
        <time>2022-06-09T22:03:05Z</time>
      </trkpt>
      <trkpt lat="44.3494" lon="5.78141">
        <ele>720</ele>
        <time>2022-06-09T22:03:21Z</time>
      </trkpt>
      <trkpt lat="44.34894" lon="5.78109">
        <ele>712</ele>
        <time>2022-06-09T22:03:33Z</time>
      </trkpt>
      <trkpt lat="44.34846" lon="5.78062">
        <ele>703</ele>
        <time>2022-06-09T22:03:47Z</time>
      </trkpt>
      <trkpt lat="44.34839" lon="5.78058">
        <ele>703</ele>
        <time>2022-06-09T22:03:49Z</time>
      </trkpt>
      <trkpt lat="44.3483" lon="5.78062">
        <ele>703</ele>
        <time>2022-06-09T22:03:51Z</time>
      </trkpt>
      <trkpt lat="44.34799" lon="5.78048">
        <ele>700</ele>
        <time>2022-06-09T22:03:58Z</time>
      </trkpt>
      <trkpt lat="44.34782" lon="5.78025">
        <ele>698</ele>
        <time>2022-06-09T22:04:04Z</time>
      </trkpt>
      <trkpt lat="44.34771" lon="5.77996">
        <ele>694</ele>
        <time>2022-06-09T22:04:09Z</time>
      </trkpt>
      <trkpt lat="44.34771" lon="5.77988">
        <ele>693</ele>
        <time>2022-06-09T22:04:11Z</time>
      </trkpt>
      <trkpt lat="44.34749" lon="5.7795">
        <ele>689</ele>
        <time>2022-06-09T22:04:19Z</time>
      </trkpt>
      <trkpt lat="44.34732" lon="5.77901">
        <ele>682</ele>
        <time>2022-06-09T22:04:28Z</time>
      </trkpt>
      <trkpt lat="44.34713" lon="5.77864">
        <ele>678</ele>
        <time>2022-06-09T22:04:36Z</time>
      </trkpt>
      <trkpt lat="44.34703" lon="5.77837">
        <ele>675</ele>
        <time>2022-06-09T22:04:41Z</time>
      </trkpt>
      <trkpt lat="44.34687" lon="5.77814">
        <ele>674</ele>
        <time>2022-06-09T22:04:46Z</time>
      </trkpt>
      <trkpt lat="44.3468" lon="5.77811">
        <ele>675</ele>
        <time>2022-06-09T22:04:48Z</time>
      </trkpt>
      <trkpt lat="44.34655" lon="5.77779">
        <ele>674</ele>
        <time>2022-06-09T22:04:56Z</time>
      </trkpt>
      <trkpt lat="44.34618" lon="5.7775">
        <ele>671</ele>
        <time>2022-06-09T22:05:06Z</time>
      </trkpt>
      <trkpt lat="44.3461" lon="5.7774">
        <ele>669</ele>
        <time>2022-06-09T22:05:08Z</time>
      </trkpt>
      <trkpt lat="44.34593" lon="5.77729">
        <ele>667</ele>
        <time>2022-06-09T22:05:12Z</time>
      </trkpt>
      <trkpt lat="44.34576" lon="5.7769">
        <ele>660</ele>
        <time>2022-06-09T22:05:20Z</time>
      </trkpt>
      <trkpt lat="44.3456" lon="5.77672">
        <ele>655</ele>
        <time>2022-06-09T22:05:25Z</time>
      </trkpt>
      <trkpt lat="44.34543" lon="5.77657">
        <ele>649</ele>
        <time>2022-06-09T22:05:30Z</time>
      </trkpt>
      <trkpt lat="44.34529" lon="5.77649">
        <ele>645</ele>
        <time>2022-06-09T22:05:33Z</time>
      </trkpt>
      <trkpt lat="44.34498" lon="5.77657">
        <ele>644</ele>
        <time>2022-06-09T22:05:40Z</time>
      </trkpt>
      <trkpt lat="44.34469" lon="5.77654">
        <ele>641</ele>
        <time>2022-06-09T22:05:47Z</time>
      </trkpt>
      <trkpt lat="44.3441" lon="5.77632">
        <ele>631</ele>
        <time>2022-06-09T22:06:02Z</time>
      </trkpt>
      <trkpt lat="44.34406" lon="5.77627">
        <ele>630</ele>
        <time>2022-06-09T22:06:03Z</time>
      </trkpt>
      <trkpt lat="44.34405" lon="5.77615">
        <ele>627</ele>
        <time>2022-06-09T22:06:05Z</time>
      </trkpt>
      <trkpt lat="44.34411" lon="5.77607">
        <ele>625</ele>
        <time>2022-06-09T22:06:07Z</time>
      </trkpt>
      <trkpt lat="44.34423" lon="5.77604">
        <ele>624</ele>
        <time>2022-06-09T22:06:10Z</time>
      </trkpt>
      <trkpt lat="44.34439" lon="5.77604">
        <ele>625</ele>
        <time>2022-06-09T22:06:13Z</time>
      </trkpt>
      <trkpt lat="44.34483" lon="5.77609">
        <ele>629</ele>
        <time>2022-06-09T22:06:24Z</time>
      </trkpt>
      <trkpt lat="44.34492" lon="5.77608">
        <ele>630</ele>
        <time>2022-06-09T22:06:26Z</time>
      </trkpt>
      <trkpt lat="44.34551" lon="5.77583">
        <ele>625</ele>
        <time>2022-06-09T22:06:40Z</time>
      </trkpt>
      <trkpt lat="44.34589" lon="5.7757">
        <ele>624</ele>
        <time>2022-06-09T22:06:49Z</time>
      </trkpt>
      <trkpt lat="44.34633" lon="5.77563">
        <ele>622</ele>
        <time>2022-06-09T22:07:00Z</time>
      </trkpt>
      <trkpt lat="44.3464" lon="5.77547">
        <ele>620</ele>
        <time>2022-06-09T22:07:03Z</time>
      </trkpt>
      <trkpt lat="44.34636" lon="5.77529">
        <ele>617</ele>
        <time>2022-06-09T22:07:06Z</time>
      </trkpt>
      <trkpt lat="44.34635" lon="5.77504">
        <ele>613</ele>
        <time>2022-06-09T22:07:10Z</time>
      </trkpt>
      <trkpt lat="44.34624" lon="5.7748">
        <ele>609</ele>
        <time>2022-06-09T22:07:15Z</time>
      </trkpt>
      <trkpt lat="44.34578" lon="5.77458">
        <ele>605</ele>
        <time>2022-06-09T22:07:26Z</time>
      </trkpt>
      <trkpt lat="44.3454" lon="5.77485">
        <ele>605</ele>
        <time>2022-06-09T22:07:36Z</time>
      </trkpt>
      <trkpt lat="44.34525" lon="5.77486">
        <ele>605</ele>
        <time>2022-06-09T22:07:40Z</time>
      </trkpt>
      <trkpt lat="44.34513" lon="5.7747">
        <ele>603</ele>
        <time>2022-06-09T22:07:44Z</time>
      </trkpt>
      <trkpt lat="44.34504" lon="5.77463">
        <ele>602</ele>
        <time>2022-06-09T22:07:46Z</time>
      </trkpt>
      <trkpt lat="44.34454" lon="5.77437">
        <ele>598</ele>
        <time>2022-06-09T22:07:58Z</time>
      </trkpt>
      <trkpt lat="44.34431" lon="5.7742">
        <ele>595</ele>
        <time>2022-06-09T22:08:04Z</time>
      </trkpt>
      <trkpt lat="44.34428" lon="5.77413">
        <ele>594</ele>
        <time>2022-06-09T22:08:06Z</time>
      </trkpt>
      <trkpt lat="44.34472" lon="5.77352">
        <ele>594</ele>
        <time>2022-06-09T22:08:20Z</time>
      </trkpt>
      <trkpt lat="44.34497" lon="5.77313">
        <ele>594</ele>
        <time>2022-06-09T22:08:29Z</time>
      </trkpt>
      <trkpt lat="44.34525" lon="5.77259">
        <ele>595</ele>
        <time>2022-06-09T22:08:40Z</time>
      </trkpt>
      <trkpt lat="44.34538" lon="5.77222">
        <ele>595</ele>
        <time>2022-06-09T22:08:47Z</time>
      </trkpt>
      <trkpt lat="44.34569" lon="5.77152">
        <ele>596</ele>
        <time>2022-06-09T22:09:01Z</time>
      </trkpt>
      <trkpt lat="44.34565" lon="5.77111">
        <ele>595</ele>
        <time>2022-06-09T22:09:08Z</time>
      </trkpt>
      <trkpt lat="44.34567" lon="5.7711">
        <ele>596</ele>
        <time>2022-06-09T22:09:08Z</time>
      </trkpt>
      <trkpt lat="44.34566" lon="5.77105">
        <ele>596</ele>
        <time>2022-06-09T22:09:09Z</time>
      </trkpt>
      <trkpt lat="44.34554" lon="5.77092">
        <ele>595</ele>
        <time>2022-06-09T22:09:13Z</time>
      </trkpt>
      <trkpt lat="44.34545" lon="5.77071">
        <ele>593</ele>
        <time>2022-06-09T22:09:17Z</time>
      </trkpt>
      <trkpt lat="44.34464" lon="5.7699">
        <ele>589</ele>
        <time>2022-06-09T22:09:40Z</time>
      </trkpt>
      <trkpt lat="44.34426" lon="5.76949">
        <ele>591</ele>
        <time>2022-06-09T22:09:51Z</time>
      </trkpt>
      <trkpt lat="44.34401" lon="5.76918">
        <ele>592</ele>
        <time>2022-06-09T22:09:59Z</time>
      </trkpt>
      <trkpt lat="44.34329" lon="5.76772">
        <ele>594</ele>
        <time>2022-06-09T22:10:29Z</time>
      </trkpt>
      <trkpt lat="44.34333" lon="5.76775">
        <ele>594</ele>
        <time>2022-06-09T22:10:30Z</time>
      </trkpt>
      <trkpt lat="44.34348" lon="5.76761">
        <ele>594</ele>
        <time>2022-06-09T22:10:34Z</time>
      </trkpt>
      <trkpt lat="44.34359" lon="5.76742">
        <ele>593</ele>
        <time>2022-06-09T22:10:38Z</time>
      </trkpt>
      <trkpt lat="44.34359" lon="5.76738">
        <ele>593</ele>
        <time>2022-06-09T22:10:39Z</time>
      </trkpt>
      <trkpt lat="44.34329" lon="5.76623">
        <ele>593</ele>
        <time>2022-06-09T22:10:59Z</time>
      </trkpt>
      <trkpt lat="44.3432" lon="5.76566">
        <ele>593</ele>
        <time>2022-06-09T22:11:09Z</time>
      </trkpt>
      <trkpt lat="44.34306" lon="5.76513">
        <ele>594</ele>
        <time>2022-06-09T22:11:18Z</time>
      </trkpt>
      <trkpt lat="44.34277" lon="5.76432">
        <ele>594</ele>
        <time>2022-06-09T22:11:33Z</time>
      </trkpt>
      <trkpt lat="44.34272" lon="5.7639">
        <ele>595</ele>
        <time>2022-06-09T22:11:41Z</time>
      </trkpt>
      <trkpt lat="44.34287" lon="5.76285">
        <ele>598</ele>
        <time>2022-06-09T22:11:58Z</time>
      </trkpt>
      <trkpt lat="44.34297" lon="5.76249">
        <ele>598</ele>
        <time>2022-06-09T22:12:05Z</time>
      </trkpt>
      <trkpt lat="44.34303" lon="5.76213">
        <ele>599</ele>
        <time>2022-06-09T22:12:11Z</time>
      </trkpt>
      <trkpt lat="44.34316" lon="5.76175">
        <ele>599</ele>
        <time>2022-06-09T22:12:18Z</time>
      </trkpt>
      <trkpt lat="44.34322" lon="5.76172">
        <ele>599</ele>
        <time>2022-06-09T22:12:20Z</time>
      </trkpt>
      <trkpt lat="44.34361" lon="5.76194">
        <ele>600</ele>
        <time>2022-06-09T22:12:29Z</time>
      </trkpt>
      <trkpt lat="44.34386" lon="5.76204">
        <ele>601</ele>
        <time>2022-06-09T22:12:35Z</time>
      </trkpt>
      <trkpt lat="44.34401" lon="5.76197">
        <ele>602</ele>
        <time>2022-06-09T22:12:39Z</time>
      </trkpt>
      <trkpt lat="44.34412" lon="5.76177">
        <ele>603</ele>
        <time>2022-06-09T22:12:43Z</time>
      </trkpt>
      <trkpt lat="44.34412" lon="5.75977">
        <ele>607</ele>
        <time>2022-06-09T22:13:17Z</time>
      </trkpt>
      <trkpt lat="44.34414" lon="5.75936">
        <ele>608</ele>
        <time>2022-06-09T22:13:24Z</time>
      </trkpt>
      <trkpt lat="44.34423" lon="5.75901">
        <ele>609</ele>
        <time>2022-06-09T22:13:30Z</time>
      </trkpt>
      <trkpt lat="44.34569" lon="5.75544">
        <ele>614</ele>
        <time>2022-06-09T22:14:38Z</time>
      </trkpt>
      <trkpt lat="44.346" lon="5.75451">
        <ele>615</ele>
        <time>2022-06-09T22:14:56Z</time>
      </trkpt>
      <trkpt lat="44.34592" lon="5.75444">
        <ele>615</ele>
        <time>2022-06-09T22:14:58Z</time>
      </trkpt>
      <trkpt lat="44.34541" lon="5.75423">
        <ele>613</ele>
        <time>2022-06-09T22:15:10Z</time>
      </trkpt>
      <trkpt lat="44.34477" lon="5.75388">
        <ele>610</ele>
        <time>2022-06-09T22:15:26Z</time>
      </trkpt>
      <trkpt lat="44.34466" lon="5.75378">
        <ele>610</ele>
        <time>2022-06-09T22:15:29Z</time>
      </trkpt>
      <trkpt lat="44.34463" lon="5.75372">
        <ele>610</ele>
        <time>2022-06-09T22:15:31Z</time>
      </trkpt>
      <trkpt lat="44.34455" lon="5.75353">
        <ele>610</ele>
        <time>2022-06-09T22:15:34Z</time>
      </trkpt>
      <trkpt lat="44.34447" lon="5.75319">
        <ele>609</ele>
        <time>2022-06-09T22:15:40Z</time>
      </trkpt>
      <trkpt lat="44.34469" lon="5.75016">
        <ele>612</ele>
        <time>2022-06-09T22:16:31Z</time>
      </trkpt>
      <trkpt lat="44.34479" lon="5.74979">
        <ele>613</ele>
        <time>2022-06-09T22:16:38Z</time>
      </trkpt>
      <trkpt lat="44.34483" lon="5.74952">
        <ele>614</ele>
        <time>2022-06-09T22:16:42Z</time>
      </trkpt>
      <trkpt lat="44.34455" lon="5.74894">
        <ele>620</ele>
        <time>2022-06-09T22:16:54Z</time>
      </trkpt>
      <trkpt lat="44.34451" lon="5.74871">
        <ele>621</ele>
        <time>2022-06-09T22:16:58Z</time>
      </trkpt>
      <trkpt lat="44.34451" lon="5.74856">
        <ele>622</ele>
        <time>2022-06-09T22:17:00Z</time>
      </trkpt>
      <trkpt lat="44.3446" lon="5.74808">
        <ele>622</ele>
        <time>2022-06-09T22:17:09Z</time>
      </trkpt>
      <trkpt lat="44.34463" lon="5.74776">
        <ele>623</ele>
        <time>2022-06-09T22:17:14Z</time>
      </trkpt>
      <trkpt lat="44.34462" lon="5.74737">
        <ele>625</ele>
        <time>2022-06-09T22:17:21Z</time>
      </trkpt>
      <trkpt lat="44.34465" lon="5.74729">
        <ele>625</ele>
        <time>2022-06-09T22:17:22Z</time>
      </trkpt>
      <trkpt lat="44.34473" lon="5.74661">
        <ele>625</ele>
        <time>2022-06-09T22:17:34Z</time>
      </trkpt>
      <trkpt lat="44.34478" lon="5.74572">
        <ele>625</ele>
        <time>2022-06-09T22:17:49Z</time>
      </trkpt>
      <trkpt lat="44.34501" lon="5.74452">
        <ele>628</ele>
        <time>2022-06-09T22:18:09Z</time>
      </trkpt>
      <trkpt lat="44.34515" lon="5.74415">
        <ele>629</ele>
        <time>2022-06-09T22:18:16Z</time>
      </trkpt>
      <trkpt lat="44.34532" lon="5.7436">
        <ele>630</ele>
        <time>2022-06-09T22:18:26Z</time>
      </trkpt>
      <trkpt lat="44.34547" lon="5.74298">
        <ele>632</ele>
        <time>2022-06-09T22:18:37Z</time>
      </trkpt>
      <trkpt lat="44.34551" lon="5.74291">
        <ele>632</ele>
        <time>2022-06-09T22:18:39Z</time>
      </trkpt>
      <trkpt lat="44.34587" lon="5.74298">
        <ele>631</ele>
        <time>2022-06-09T22:18:47Z</time>
      </trkpt>
      <trkpt lat="44.34608" lon="5.7429">
        <ele>630</ele>
        <time>2022-06-09T22:18:52Z</time>
      </trkpt>
      <trkpt lat="44.3464" lon="5.74236">
        <ele>631</ele>
        <time>2022-06-09T22:19:04Z</time>
      </trkpt>
      <trkpt lat="44.34637" lon="5.74251">
        <ele>630</ele>
        <time>2022-06-09T22:19:07Z</time>
      </trkpt>
      <trkpt lat="44.34644" lon="5.74254">
        <ele>629</ele>
        <time>2022-06-09T22:19:08Z</time>
      </trkpt>
      <trkpt lat="44.34687" lon="5.74252">
        <ele>626</ele>
        <time>2022-06-09T22:19:18Z</time>
      </trkpt>
      <trkpt lat="44.34709" lon="5.74255">
        <ele>624</ele>
        <time>2022-06-09T22:19:24Z</time>
      </trkpt>
      <trkpt lat="44.34714" lon="5.74253">
        <ele>623</ele>
        <time>2022-06-09T22:19:25Z</time>
      </trkpt>
      <trkpt lat="44.34726" lon="5.7424">
        <ele>623</ele>
        <time>2022-06-09T22:19:28Z</time>
      </trkpt>
      <trkpt lat="44.34777" lon="5.74157">
        <ele>624</ele>
        <time>2022-06-09T22:19:47Z</time>
      </trkpt>
      <trkpt lat="44.34791" lon="5.74129">
        <ele>625</ele>
        <time>2022-06-09T22:19:52Z</time>
      </trkpt>
      <trkpt lat="44.34807" lon="5.74068">
        <ele>628</ele>
        <time>2022-06-09T22:20:03Z</time>
      </trkpt>
      <trkpt lat="44.34843" lon="5.73971">
        <ele>630</ele>
        <time>2022-06-09T22:20:21Z</time>
      </trkpt>
      <trkpt lat="44.34864" lon="5.73897">
        <ele>630</ele>
        <time>2022-06-09T22:20:35Z</time>
      </trkpt>
      <trkpt lat="44.34888" lon="5.73834">
        <ele>629</ele>
        <time>2022-06-09T22:20:47Z</time>
      </trkpt>
      <trkpt lat="44.34891" lon="5.73807">
        <ele>631</ele>
        <time>2022-06-09T22:20:51Z</time>
      </trkpt>
      <trkpt lat="44.34885" lon="5.7379">
        <ele>633</ele>
        <time>2022-06-09T22:20:54Z</time>
      </trkpt>
      <trkpt lat="44.34887" lon="5.73771">
        <ele>634</ele>
        <time>2022-06-09T22:20:58Z</time>
      </trkpt>
      <trkpt lat="44.34923" lon="5.73591">
        <ele>640</ele>
        <time>2022-06-09T22:21:29Z</time>
      </trkpt>
      <trkpt lat="44.3492" lon="5.73571">
        <ele>641</ele>
        <time>2022-06-09T22:21:32Z</time>
      </trkpt>
      <trkpt lat="44.34891" lon="5.73542">
        <ele>649</ele>
        <time>2022-06-09T22:21:41Z</time>
      </trkpt>
      <trkpt lat="44.34889" lon="5.73522">
        <ele>651</ele>
        <time>2022-06-09T22:21:44Z</time>
      </trkpt>
      <trkpt lat="44.34879" lon="5.7355">
        <ele>650</ele>
        <time>2022-06-09T22:21:49Z</time>
      </trkpt>
      <trkpt lat="44.34841" lon="5.73592">
        <ele>654</ele>
        <time>2022-06-09T22:22:00Z</time>
      </trkpt>
      <trkpt lat="44.34818" lon="5.73603">
        <ele>656</ele>
        <time>2022-06-09T22:22:06Z</time>
      </trkpt>
      <trkpt lat="44.34778" lon="5.73606">
        <ele>659</ele>
        <time>2022-06-09T22:22:15Z</time>
      </trkpt>
      <trkpt lat="44.34734" lon="5.73597">
        <ele>664</ele>
        <time>2022-06-09T22:22:26Z</time>
      </trkpt>
      <trkpt lat="44.34718" lon="5.73597">
        <ele>665</ele>
        <time>2022-06-09T22:22:30Z</time>
      </trkpt>
      <trkpt lat="44.34695" lon="5.73584">
        <ele>668</ele>
        <time>2022-06-09T22:22:35Z</time>
      </trkpt>
      <trkpt lat="44.34682" lon="5.73593">
        <ele>668</ele>
        <time>2022-06-09T22:22:39Z</time>
      </trkpt>
      <trkpt lat="44.34668" lon="5.73598">
        <ele>669</ele>
        <time>2022-06-09T22:22:42Z</time>
      </trkpt>
      <trkpt lat="44.34666" lon="5.73595">
        <ele>669</ele>
        <time>2022-06-09T22:22:43Z</time>
      </trkpt>
      <trkpt lat="44.3466" lon="5.73597">
        <ele>671</ele>
        <time>2022-06-09T22:22:44Z</time>
      </trkpt>
      <trkpt lat="44.34656" lon="5.73606">
        <ele>671</ele>
        <time>2022-06-09T22:22:46Z</time>
      </trkpt>
      <trkpt lat="44.34648" lon="5.73612">
        <ele>673</ele>
        <time>2022-06-09T22:22:48Z</time>
      </trkpt>
      <trkpt lat="44.34639" lon="5.73611">
        <ele>675</ele>
        <time>2022-06-09T22:22:50Z</time>
      </trkpt>
      <trkpt lat="44.34638" lon="5.73592">
        <ele>676</ele>
        <time>2022-06-09T22:22:53Z</time>
      </trkpt>
      <trkpt lat="44.34623" lon="5.73587">
        <ele>680</ele>
        <time>2022-06-09T22:22:57Z</time>
      </trkpt>
      <trkpt lat="44.34622" lon="5.73584">
        <ele>681</ele>
        <time>2022-06-09T22:22:58Z</time>
      </trkpt>
      <trkpt lat="44.34614" lon="5.73583">
        <ele>683</ele>
        <time>2022-06-09T22:22:59Z</time>
      </trkpt>
      <trkpt lat="44.34594" lon="5.73589">
        <ele>687</ele>
        <time>2022-06-09T22:23:04Z</time>
      </trkpt>
      <trkpt lat="44.34579" lon="5.73569">
        <ele>692</ele>
        <time>2022-06-09T22:23:09Z</time>
      </trkpt>
      <trkpt lat="44.34576" lon="5.73524">
        <ele>698</ele>
        <time>2022-06-09T22:23:17Z</time>
      </trkpt>
      <trkpt lat="44.34586" lon="5.73508">
        <ele>698</ele>
        <time>2022-06-09T22:23:20Z</time>
      </trkpt>
      <trkpt lat="44.34585" lon="5.735">
        <ele>699</ele>
        <time>2022-06-09T22:23:22Z</time>
      </trkpt>
      <trkpt lat="44.34583" lon="5.73502">
        <ele>699</ele>
        <time>2022-06-09T22:23:22Z</time>
      </trkpt>
      <trkpt lat="44.34583" lon="5.7349">
        <ele>700</ele>
        <time>2022-06-09T22:23:24Z</time>
      </trkpt>
      <trkpt lat="44.34579" lon="5.73476">
        <ele>703</ele>
        <time>2022-06-09T22:23:27Z</time>
      </trkpt>
      <trkpt lat="44.34564" lon="5.73461">
        <ele>708</ele>
        <time>2022-06-09T22:23:31Z</time>
      </trkpt>
      <trkpt lat="44.34542" lon="5.7342">
        <ele>718</ele>
        <time>2022-06-09T22:23:39Z</time>
      </trkpt>
      <trkpt lat="44.34511" lon="5.734">
        <ele>732</ele>
        <time>2022-06-09T22:23:47Z</time>
      </trkpt>
      <trkpt lat="44.34502" lon="5.73406">
        <ele>732</ele>
        <time>2022-06-09T22:23:50Z</time>
      </trkpt>
      <trkpt lat="44.34488" lon="5.73406">
        <ele>735</ele>
        <time>2022-06-09T22:23:53Z</time>
      </trkpt>
      <trkpt lat="44.34474" lon="5.7341">
        <ele>736</ele>
        <time>2022-06-09T22:23:56Z</time>
      </trkpt>
      <trkpt lat="44.34469" lon="5.73419">
        <ele>735</ele>
        <time>2022-06-09T22:23:58Z</time>
      </trkpt>
      <trkpt lat="44.34458" lon="5.73429">
        <ele>735</ele>
        <time>2022-06-09T22:24:01Z</time>
      </trkpt>
      <trkpt lat="44.34458" lon="5.73426">
        <ele>735</ele>
        <time>2022-06-09T22:24:02Z</time>
      </trkpt>
      <trkpt lat="44.34448" lon="5.73422">
        <ele>738</ele>
        <time>2022-06-09T22:24:04Z</time>
      </trkpt>
      <trkpt lat="44.34454" lon="5.7343">
        <ele>735</ele>
        <time>2022-06-09T22:24:06Z</time>
      </trkpt>
      <trkpt lat="44.34457" lon="5.7343">
        <ele>735</ele>
        <time>2022-06-09T22:24:07Z</time>
      </trkpt>
      <trkpt lat="44.34457" lon="5.73425">
        <ele>736</ele>
        <time>2022-06-09T22:24:08Z</time>
      </trkpt>
      <trkpt lat="44.34452" lon="5.73434">
        <ele>735</ele>
        <time>2022-06-09T22:24:10Z</time>
      </trkpt>
      <trkpt lat="44.34438" lon="5.73442">
        <ele>735</ele>
        <time>2022-06-09T22:24:13Z</time>
      </trkpt>
      <trkpt lat="44.34418" lon="5.73445">
        <ele>738</ele>
        <time>2022-06-09T22:24:18Z</time>
      </trkpt>
      <trkpt lat="44.344" lon="5.7344">
        <ele>737</ele>
        <time>2022-06-09T22:24:22Z</time>
      </trkpt>
      <trkpt lat="44.34368" lon="5.73407">
        <ele>743</ele>
        <time>2022-06-09T22:24:31Z</time>
      </trkpt>
      <trkpt lat="44.34358" lon="5.73393">
        <ele>745</ele>
        <time>2022-06-09T22:24:35Z</time>
      </trkpt>
      <trkpt lat="44.34323" lon="5.7336">
        <ele>749</ele>
        <time>2022-06-09T22:24:45Z</time>
      </trkpt>
      <trkpt lat="44.34311" lon="5.73343">
        <ele>751</ele>
        <time>2022-06-09T22:24:49Z</time>
      </trkpt>
      <trkpt lat="44.3429" lon="5.73286">
        <ele>757</ele>
        <time>2022-06-09T22:24:59Z</time>
      </trkpt>
      <trkpt lat="44.34281" lon="5.73274">
        <ele>758</ele>
        <time>2022-06-09T22:25:02Z</time>
      </trkpt>
      <trkpt lat="44.34264" lon="5.73241">
        <ele>760</ele>
        <time>2022-06-09T22:25:09Z</time>
      </trkpt>
      <trkpt lat="44.34237" lon="5.73212">
        <ele>761</ele>
        <time>2022-06-09T22:25:17Z</time>
      </trkpt>
      <trkpt lat="44.3422" lon="5.732">
        <ele>762</ele>
        <time>2022-06-09T22:25:21Z</time>
      </trkpt>
      <trkpt lat="44.34205" lon="5.73194">
        <ele>761</ele>
        <time>2022-06-09T22:25:25Z</time>
      </trkpt>
      <trkpt lat="44.34178" lon="5.73201">
        <ele>757</ele>
        <time>2022-06-09T22:25:31Z</time>
      </trkpt>
      <trkpt lat="44.34147" lon="5.73213">
        <ele>753</ele>
        <time>2022-06-09T22:25:39Z</time>
      </trkpt>
      <trkpt lat="44.34131" lon="5.73209">
        <ele>753</ele>
        <time>2022-06-09T22:25:43Z</time>
      </trkpt>
      <trkpt lat="44.34123" lon="5.73205">
        <ele>754</ele>
        <time>2022-06-09T22:25:45Z</time>
      </trkpt>
      <trkpt lat="44.3407" lon="5.73164">
        <ele>758</ele>
        <time>2022-06-09T22:25:59Z</time>
      </trkpt>
      <trkpt lat="44.34056" lon="5.73147">
        <ele>759</ele>
        <time>2022-06-09T22:26:03Z</time>
      </trkpt>
      <trkpt lat="44.34046" lon="5.73115">
        <ele>764</ele>
        <time>2022-06-09T22:26:09Z</time>
      </trkpt>
      <trkpt lat="44.34049" lon="5.73078">
        <ele>771</ele>
        <time>2022-06-09T22:26:15Z</time>
      </trkpt>
      <trkpt lat="44.34048" lon="5.73065">
        <ele>774</ele>
        <time>2022-06-09T22:26:17Z</time>
      </trkpt>
      <trkpt lat="44.34026" lon="5.73005">
        <ele>785</ele>
        <time>2022-06-09T22:26:29Z</time>
      </trkpt>
      <trkpt lat="44.3402" lon="5.72961">
        <ele>795</ele>
        <time>2022-06-09T22:26:36Z</time>
      </trkpt>
      <trkpt lat="44.34012" lon="5.72948">
        <ele>797</ele>
        <time>2022-06-09T22:26:39Z</time>
      </trkpt>
      <trkpt lat="44.34008" lon="5.72934">
        <ele>799</ele>
        <time>2022-06-09T22:26:42Z</time>
      </trkpt>
      <trkpt lat="44.33982" lon="5.72898">
        <ele>807</ele>
        <time>2022-06-09T22:26:50Z</time>
      </trkpt>
      <trkpt lat="44.33965" lon="5.72884">
        <ele>811</ele>
        <time>2022-06-09T22:26:55Z</time>
      </trkpt>
      <trkpt lat="44.33961" lon="5.72877">
        <ele>813</ele>
        <time>2022-06-09T22:26:56Z</time>
      </trkpt>
      <trkpt lat="44.33961" lon="5.72867">
        <ele>816</ele>
        <time>2022-06-09T22:26:58Z</time>
      </trkpt>
      <trkpt lat="44.34025" lon="5.7283">
        <ele>834</ele>
        <time>2022-06-09T22:27:14Z</time>
      </trkpt>
      <trkpt lat="44.34046" lon="5.72831">
        <ele>837</ele>
        <time>2022-06-09T22:27:19Z</time>
      </trkpt>
      <trkpt lat="44.34081" lon="5.72824">
        <ele>846</ele>
        <time>2022-06-09T22:27:27Z</time>
      </trkpt>
      <trkpt lat="44.34093" lon="5.72819">
        <ele>849</ele>
        <time>2022-06-09T22:27:30Z</time>
      </trkpt>
      <trkpt lat="44.34092" lon="5.72816">
        <ele>850</ele>
        <time>2022-06-09T22:27:31Z</time>
      </trkpt>
      <trkpt lat="44.34096" lon="5.72818">
        <ele>850</ele>
        <time>2022-06-09T22:27:32Z</time>
      </trkpt>
      <trkpt lat="44.34104" lon="5.72817">
        <ele>851</ele>
        <time>2022-06-09T22:27:34Z</time>
      </trkpt>
      <trkpt lat="44.34132" lon="5.72805">
        <ele>858</ele>
        <time>2022-06-09T22:27:40Z</time>
      </trkpt>
      <trkpt lat="44.3416" lon="5.72781">
        <ele>870</ele>
        <time>2022-06-09T22:27:48Z</time>
      </trkpt>
      <trkpt lat="44.34175" lon="5.72763">
        <ele>878</ele>
        <time>2022-06-09T22:27:53Z</time>
      </trkpt>
      <trkpt lat="44.34198" lon="5.72748">
        <ele>883</ele>
        <time>2022-06-09T22:27:59Z</time>
      </trkpt>
      <trkpt lat="44.34237" lon="5.72717">
        <ele>893</ele>
        <time>2022-06-09T22:28:09Z</time>
      </trkpt>
      <trkpt lat="44.34265" lon="5.72669">
        <ele>912</ele>
        <time>2022-06-09T22:28:19Z</time>
      </trkpt>
      <trkpt lat="44.34284" lon="5.72655">
        <ele>919</ele>
        <time>2022-06-09T22:28:25Z</time>
      </trkpt>
      <trkpt lat="44.34305" lon="5.72628">
        <ele>928</ele>
        <time>2022-06-09T22:28:31Z</time>
      </trkpt>
      <trkpt lat="44.34314" lon="5.72599">
        <ele>936</ele>
        <time>2022-06-09T22:28:36Z</time>
      </trkpt>
      <trkpt lat="44.34326" lon="5.72544">
        <ele>947</ele>
        <time>2022-06-09T22:28:46Z</time>
      </trkpt>
      <trkpt lat="44.34331" lon="5.72506">
        <ele>953</ele>
        <time>2022-06-09T22:28:53Z</time>
      </trkpt>
      <trkpt lat="44.34328" lon="5.72481">
        <ele>958</ele>
        <time>2022-06-09T22:28:57Z</time>
      </trkpt>
      <trkpt lat="44.3433" lon="5.7245">
        <ele>964</ele>
        <time>2022-06-09T22:29:02Z</time>
      </trkpt>
      <trkpt lat="44.34345" lon="5.72391">
        <ele>978</ele>
        <time>2022-06-09T22:29:12Z</time>
      </trkpt>
      <trkpt lat="44.3435" lon="5.72359">
        <ele>985</ele>
        <time>2022-06-09T22:29:18Z</time>
      </trkpt>
      <trkpt lat="44.34349" lon="5.72343">
        <ele>987</ele>
        <time>2022-06-09T22:29:21Z</time>
      </trkpt>
      <trkpt lat="44.34351" lon="5.72328">
        <ele>990</ele>
        <time>2022-06-09T22:29:23Z</time>
      </trkpt>
      <trkpt lat="44.34348" lon="5.72284">
        <ele>992</ele>
        <time>2022-06-09T22:29:30Z</time>
      </trkpt>
      <trkpt lat="44.3435" lon="5.72275">
        <ele>993</ele>
        <time>2022-06-09T22:29:32Z</time>
      </trkpt>
      <trkpt lat="44.3435" lon="5.72237">
        <ele>996</ele>
        <time>2022-06-09T22:29:38Z</time>
      </trkpt>
      <trkpt lat="44.34347" lon="5.7221">
        <ele>997</ele>
        <time>2022-06-09T22:29:43Z</time>
      </trkpt>
      <trkpt lat="44.34331" lon="5.72152">
        <ele>1002</ele>
        <time>2022-06-09T22:29:53Z</time>
      </trkpt>
      <trkpt lat="44.34327" lon="5.72143">
        <ele>1003</ele>
        <time>2022-06-09T22:29:55Z</time>
      </trkpt>
      <trkpt lat="44.34313" lon="5.72124">
        <ele>1007</ele>
        <time>2022-06-09T22:30:00Z</time>
      </trkpt>
      <trkpt lat="44.34309" lon="5.72107">
        <ele>1008</ele>
        <time>2022-06-09T22:30:03Z</time>
      </trkpt>
      <trkpt lat="44.34309" lon="5.72099">
        <ele>1008</ele>
        <time>2022-06-09T22:30:04Z</time>
      </trkpt>
      <trkpt lat="44.34315" lon="5.72081">
        <ele>1005</ele>
        <time>2022-06-09T22:30:07Z</time>
      </trkpt>
      <trkpt lat="44.34315" lon="5.72069">
        <ele>1004</ele>
        <time>2022-06-09T22:30:09Z</time>
      </trkpt>
      <trkpt lat="44.34318" lon="5.72065">
        <ele>1003</ele>
        <time>2022-06-09T22:30:10Z</time>
      </trkpt>
      <trkpt lat="44.34314" lon="5.72066">
        <ele>1004</ele>
        <time>2022-06-09T22:30:11Z</time>
      </trkpt>
      <trkpt lat="44.34306" lon="5.72053">
        <ele>1006</ele>
        <time>2022-06-09T22:30:14Z</time>
      </trkpt>
      <trkpt lat="44.3429" lon="5.72042">
        <ele>1010</ele>
        <time>2022-06-09T22:30:18Z</time>
      </trkpt>
      <trkpt lat="44.34254" lon="5.72006">
        <ele>1021</ele>
        <time>2022-06-09T22:30:29Z</time>
      </trkpt>
      <trkpt lat="44.34233" lon="5.72">
        <ele>1027</ele>
        <time>2022-06-09T22:30:34Z</time>
      </trkpt>
      <trkpt lat="44.34222" lon="5.71985">
        <ele>1030</ele>
        <time>2022-06-09T22:30:37Z</time>
      </trkpt>
      <trkpt lat="44.34212" lon="5.71984">
        <ele>1033</ele>
        <time>2022-06-09T22:30:40Z</time>
      </trkpt>
      <trkpt lat="44.34206" lon="5.71977">
        <ele>1035</ele>
        <time>2022-06-09T22:30:41Z</time>
      </trkpt>
      <trkpt lat="44.34195" lon="5.71974">
        <ele>1039</ele>
        <time>2022-06-09T22:30:44Z</time>
      </trkpt>
      <trkpt lat="44.34181" lon="5.71962">
        <ele>1046</ele>
        <time>2022-06-09T22:30:48Z</time>
      </trkpt>
      <trkpt lat="44.3417" lon="5.71959">
        <ele>1050</ele>
        <time>2022-06-09T22:30:50Z</time>
      </trkpt>
      <trkpt lat="44.34166" lon="5.7196">
        <ele>1052</ele>
        <time>2022-06-09T22:30:51Z</time>
      </trkpt>
      <trkpt lat="44.34164" lon="5.71956">
        <ele>1053</ele>
        <time>2022-06-09T22:30:52Z</time>
      </trkpt>
      <trkpt lat="44.34138" lon="5.71945">
        <ele>1063</ele>
        <time>2022-06-09T22:30:59Z</time>
      </trkpt>
      <trkpt lat="44.34123" lon="5.71927">
        <ele>1071</ele>
        <time>2022-06-09T22:31:03Z</time>
      </trkpt>
      <trkpt lat="44.34118" lon="5.71916">
        <ele>1075</ele>
        <time>2022-06-09T22:31:05Z</time>
      </trkpt>
      <trkpt lat="44.3411" lon="5.71909">
        <ele>1078</ele>
        <time>2022-06-09T22:31:08Z</time>
      </trkpt>
      <trkpt lat="44.34109" lon="5.719">
        <ele>1079</ele>
        <time>2022-06-09T22:31:09Z</time>
      </trkpt>
      <trkpt lat="44.34098" lon="5.71895">
        <ele>1084</ele>
        <time>2022-06-09T22:31:12Z</time>
      </trkpt>
      <trkpt lat="44.3409" lon="5.71882">
        <ele>1089</ele>
        <time>2022-06-09T22:31:15Z</time>
      </trkpt>
      <trkpt lat="44.34079" lon="5.71881">
        <ele>1093</ele>
        <time>2022-06-09T22:31:17Z</time>
      </trkpt>
      <trkpt lat="44.34072" lon="5.71862">
        <ele>1098</ele>
        <time>2022-06-09T22:31:21Z</time>
      </trkpt>
      <trkpt lat="44.34059" lon="5.71848">
        <ele>1104</ele>
        <time>2022-06-09T22:31:25Z</time>
      </trkpt>
      <trkpt lat="44.34055" lon="5.71839">
        <ele>1107</ele>
        <time>2022-06-09T22:31:26Z</time>
      </trkpt>
      <trkpt lat="44.34051" lon="5.71835">
        <ele>1109</ele>
        <time>2022-06-09T22:31:28Z</time>
      </trkpt>
      <trkpt lat="44.34035" lon="5.71831">
        <ele>1114</ele>
        <time>2022-06-09T22:31:31Z</time>
      </trkpt>
      <trkpt lat="44.34028" lon="5.71819">
        <ele>1117</ele>
        <time>2022-06-09T22:31:34Z</time>
      </trkpt>
      <trkpt lat="44.34016" lon="5.71809">
        <ele>1123</ele>
        <time>2022-06-09T22:31:37Z</time>
      </trkpt>
      <trkpt lat="44.34005" lon="5.71795">
        <ele>1129</ele>
        <time>2022-06-09T22:31:41Z</time>
      </trkpt>
      <trkpt lat="44.33999" lon="5.7179">
        <ele>1132</ele>
        <time>2022-06-09T22:31:42Z</time>
      </trkpt>
      <trkpt lat="44.33989" lon="5.71787">
        <ele>1135</ele>
        <time>2022-06-09T22:31:45Z</time>
      </trkpt>
      <trkpt lat="44.33986" lon="5.71782">
        <ele>1137</ele>
        <time>2022-06-09T22:31:46Z</time>
      </trkpt>
      <trkpt lat="44.33983" lon="5.71782">
        <ele>1138</ele>
        <time>2022-06-09T22:31:46Z</time>
      </trkpt>
      <trkpt lat="44.33972" lon="5.71763">
        <ele>1144</ele>
        <time>2022-06-09T22:31:51Z</time>
      </trkpt>
      <trkpt lat="44.33943" lon="5.71756">
        <ele>1156</ele>
        <time>2022-06-09T22:31:57Z</time>
      </trkpt>
      <trkpt lat="44.3393" lon="5.71749">
        <ele>1161</ele>
        <time>2022-06-09T22:32:01Z</time>
      </trkpt>
      <trkpt lat="44.33922" lon="5.71748">
        <ele>1164</ele>
        <time>2022-06-09T22:32:03Z</time>
      </trkpt>
      <trkpt lat="44.33912" lon="5.71737">
        <ele>1168</ele>
        <time>2022-06-09T22:32:05Z</time>
      </trkpt>
      <trkpt lat="44.33898" lon="5.71732">
        <ele>1169</ele>
        <time>2022-06-09T22:32:09Z</time>
      </trkpt>
      <trkpt lat="44.33888" lon="5.71723">
        <ele>1171</ele>
        <time>2022-06-09T22:32:12Z</time>
      </trkpt>
      <trkpt lat="44.3387" lon="5.71713">
        <ele>1174</ele>
        <time>2022-06-09T22:32:16Z</time>
      </trkpt>
      <trkpt lat="44.33869" lon="5.71691">
        <ele>1177</ele>
        <time>2022-06-09T22:32:20Z</time>
      </trkpt>
      <trkpt lat="44.33871" lon="5.71681">
        <ele>1179</ele>
        <time>2022-06-09T22:32:22Z</time>
      </trkpt>
      <trkpt lat="44.3387" lon="5.71673">
        <ele>1180</ele>
        <time>2022-06-09T22:32:23Z</time>
      </trkpt>
      <trkpt lat="44.33864" lon="5.7166">
        <ele>1183</ele>
        <time>2022-06-09T22:32:26Z</time>
      </trkpt>
      <trkpt lat="44.33864" lon="5.71637">
        <ele>1187</ele>
        <time>2022-06-09T22:32:29Z</time>
      </trkpt>
      <trkpt lat="44.33875" lon="5.71585">
        <ele>1192</ele>
        <time>2022-06-09T22:32:38Z</time>
      </trkpt>
      <trkpt lat="44.33873" lon="5.71564">
        <ele>1193</ele>
        <time>2022-06-09T22:32:42Z</time>
      </trkpt>
      <trkpt lat="44.33876" lon="5.71544">
        <ele>1191</ele>
        <time>2022-06-09T22:32:45Z</time>
      </trkpt>
      <trkpt lat="44.33858" lon="5.71492">
        <ele>1198</ele>
        <time>2022-06-09T22:32:55Z</time>
      </trkpt>
      <trkpt lat="44.33852" lon="5.71486">
        <ele>1200</ele>
        <time>2022-06-09T22:32:57Z</time>
      </trkpt>
      <trkpt lat="44.33852" lon="5.71483">
        <ele>1199</ele>
        <time>2022-06-09T22:32:57Z</time>
      </trkpt>
      <trkpt lat="44.33852" lon="5.71488">
        <ele>1200</ele>
        <time>2022-06-09T22:32:58Z</time>
      </trkpt>
      <trkpt lat="44.33854" lon="5.71488">
        <ele>1199</ele>
        <time>2022-06-09T22:32:59Z</time>
      </trkpt>
      <trkpt lat="44.33853" lon="5.71483">
        <ele>1198</ele>
        <time>2022-06-09T22:32:59Z</time>
      </trkpt>
      <trkpt lat="44.33855" lon="5.71484">
        <ele>1198</ele>
        <time>2022-06-09T22:33:00Z</time>
      </trkpt>
      <trkpt lat="44.33855" lon="5.71491">
        <ele>1199</ele>
        <time>2022-06-09T22:33:01Z</time>
      </trkpt>
      <trkpt lat="44.33855" lon="5.71487">
        <ele>1198</ele>
        <time>2022-06-09T22:33:02Z</time>
      </trkpt>
      <trkpt lat="44.33859" lon="5.71489">
        <ele>1197</ele>
        <time>2022-06-09T22:33:03Z</time>
      </trkpt>
      <trkpt lat="44.33853" lon="5.71486">
        <ele>1199</ele>
        <time>2022-06-09T22:33:04Z</time>
      </trkpt>
      <trkpt lat="44.33854" lon="5.71489">
        <ele>1199</ele>
        <time>2022-06-09T22:33:05Z</time>
      </trkpt>
      <trkpt lat="44.33855" lon="5.71487">
        <ele>1198</ele>
        <time>2022-06-09T22:33:05Z</time>
      </trkpt>
      <trkpt lat="44.33851" lon="5.71488">
        <ele>1201</ele>
        <time>2022-06-09T22:33:06Z</time>
      </trkpt>
      <trkpt lat="44.33853" lon="5.71488">
        <ele>1200</ele>
        <time>2022-06-09T22:33:07Z</time>
      </trkpt>
      <trkpt lat="44.3385" lon="5.71494">
        <ele>1202</ele>
        <time>2022-06-09T22:33:08Z</time>
      </trkpt>
      <trkpt lat="44.33846" lon="5.71483">
        <ele>1202</ele>
        <time>2022-06-09T22:33:10Z</time>
      </trkpt>
      <trkpt lat="44.33835" lon="5.71466">
        <ele>1204</ele>
        <time>2022-06-09T22:33:14Z</time>
      </trkpt>
      <trkpt lat="44.33817" lon="5.71446">
        <ele>1200</ele>
        <time>2022-06-09T22:33:19Z</time>
      </trkpt>
      <trkpt lat="44.33804" lon="5.71409">
        <ele>1194</ele>
        <time>2022-06-09T22:33:26Z</time>
      </trkpt>
      <trkpt lat="44.33791" lon="5.71385">
        <ele>1192</ele>
        <time>2022-06-09T22:33:31Z</time>
      </trkpt>
      <trkpt lat="44.33766" lon="5.71358">
        <ele>1193</ele>
        <time>2022-06-09T22:33:38Z</time>
      </trkpt>
      <trkpt lat="44.33752" lon="5.7135">
        <ele>1195</ele>
        <time>2022-06-09T22:33:42Z</time>
      </trkpt>
      <trkpt lat="44.3375" lon="5.71336">
        <ele>1194</ele>
        <time>2022-06-09T22:33:44Z</time>
      </trkpt>
      <trkpt lat="44.33732" lon="5.71297">
        <ele>1189</ele>
        <time>2022-06-09T22:33:52Z</time>
      </trkpt>
      <trkpt lat="44.33723" lon="5.71285">
        <ele>1188</ele>
        <time>2022-06-09T22:33:55Z</time>
      </trkpt>
      <trkpt lat="44.33711" lon="5.71275">
        <ele>1188</ele>
        <time>2022-06-09T22:33:58Z</time>
      </trkpt>
      <trkpt lat="44.33696" lon="5.71245">
        <ele>1190</ele>
        <time>2022-06-09T22:34:04Z</time>
      </trkpt>
      <trkpt lat="44.3368" lon="5.71226">
        <ele>1191</ele>
        <time>2022-06-09T22:34:09Z</time>
      </trkpt>
      <trkpt lat="44.3368" lon="5.71221">
        <ele>1191</ele>
        <time>2022-06-09T22:34:10Z</time>
      </trkpt>
      <trkpt lat="44.33671" lon="5.71206">
        <ele>1193</ele>
        <time>2022-06-09T22:34:13Z</time>
      </trkpt>
      <trkpt lat="44.33667" lon="5.71204">
        <ele>1194</ele>
        <time>2022-06-09T22:34:14Z</time>
      </trkpt>
      <trkpt lat="44.33663" lon="5.71196">
        <ele>1194</ele>
        <time>2022-06-09T22:34:16Z</time>
      </trkpt>
      <trkpt lat="44.33631" lon="5.71162">
        <ele>1190</ele>
        <time>2022-06-09T22:34:25Z</time>
      </trkpt>
      <trkpt lat="44.33622" lon="5.71134">
        <ele>1187</ele>
        <time>2022-06-09T22:34:30Z</time>
      </trkpt>
      <trkpt lat="44.33611" lon="5.7112">
        <ele>1186</ele>
        <time>2022-06-09T22:34:34Z</time>
      </trkpt>
      <trkpt lat="44.33604" lon="5.71091">
        <ele>1188</ele>
        <time>2022-06-09T22:34:39Z</time>
      </trkpt>
      <trkpt lat="44.33587" lon="5.71067">
        <ele>1190</ele>
        <time>2022-06-09T22:34:45Z</time>
      </trkpt>
      <trkpt lat="44.33555" lon="5.70996">
        <ele>1182</ele>
        <time>2022-06-09T22:34:59Z</time>
      </trkpt>
      <trkpt lat="44.33549" lon="5.70975">
        <ele>1180</ele>
        <time>2022-06-09T22:35:03Z</time>
      </trkpt>
      <trkpt lat="44.33535" lon="5.70969">
        <ele>1180</ele>
        <time>2022-06-09T22:35:06Z</time>
      </trkpt>
      <trkpt lat="44.33527" lon="5.70947">
        <ele>1181</ele>
        <time>2022-06-09T22:35:10Z</time>
      </trkpt>
      <trkpt lat="44.33509" lon="5.70934">
        <ele>1185</ele>
        <time>2022-06-09T22:35:15Z</time>
      </trkpt>
      <trkpt lat="44.335" lon="5.70925">
        <ele>1189</ele>
        <time>2022-06-09T22:35:17Z</time>
      </trkpt>
      <trkpt lat="44.33498" lon="5.7092">
        <ele>1189</ele>
        <time>2022-06-09T22:35:18Z</time>
      </trkpt>
      <trkpt lat="44.3349" lon="5.70915">
        <ele>1189</ele>
        <time>2022-06-09T22:35:20Z</time>
      </trkpt>
      <trkpt lat="44.33481" lon="5.70898">
        <ele>1189</ele>
        <time>2022-06-09T22:35:24Z</time>
      </trkpt>
      <trkpt lat="44.33469" lon="5.70884">
        <ele>1190</ele>
        <time>2022-06-09T22:35:28Z</time>
      </trkpt>
      <trkpt lat="44.33459" lon="5.70865">
        <ele>1193</ele>
        <time>2022-06-09T22:35:31Z</time>
      </trkpt>
      <trkpt lat="44.33456" lon="5.70863">
        <ele>1194</ele>
        <time>2022-06-09T22:35:32Z</time>
      </trkpt>
      <trkpt lat="44.33452" lon="5.70865">
        <ele>1194</ele>
        <time>2022-06-09T22:35:33Z</time>
      </trkpt>
      <trkpt lat="44.33446" lon="5.70863">
        <ele>1195</ele>
        <time>2022-06-09T22:35:35Z</time>
      </trkpt>
      <trkpt lat="44.33438" lon="5.70852">
        <ele>1198</ele>
        <time>2022-06-09T22:35:37Z</time>
      </trkpt>
      <trkpt lat="44.3342" lon="5.70838">
        <ele>1206</ele>
        <time>2022-06-09T22:35:42Z</time>
      </trkpt>
      <trkpt lat="44.33418" lon="5.70832">
        <ele>1207</ele>
        <time>2022-06-09T22:35:43Z</time>
      </trkpt>
      <trkpt lat="44.33414" lon="5.70831">
        <ele>1207</ele>
        <time>2022-06-09T22:35:44Z</time>
      </trkpt>
      <trkpt lat="44.33408" lon="5.70819">
        <ele>1205</ele>
        <time>2022-06-09T22:35:47Z</time>
      </trkpt>
      <trkpt lat="44.33404" lon="5.70816">
        <ele>1205</ele>
        <time>2022-06-09T22:35:48Z</time>
      </trkpt>
      <trkpt lat="44.33395" lon="5.70816">
        <ele>1204</ele>
        <time>2022-06-09T22:35:50Z</time>
      </trkpt>
      <trkpt lat="44.33388" lon="5.70806">
        <ele>1204</ele>
        <time>2022-06-09T22:35:52Z</time>
      </trkpt>
      <trkpt lat="44.33358" lon="5.70786">
        <ele>1207</ele>
        <time>2022-06-09T22:36:00Z</time>
      </trkpt>
      <trkpt lat="44.33355" lon="5.7078">
        <ele>1208</ele>
        <time>2022-06-09T22:36:01Z</time>
      </trkpt>
      <trkpt lat="44.33349" lon="5.70776">
        <ele>1210</ele>
        <time>2022-06-09T22:36:03Z</time>
      </trkpt>
      <trkpt lat="44.33342" lon="5.70762">
        <ele>1215</ele>
        <time>2022-06-09T22:36:06Z</time>
      </trkpt>
      <trkpt lat="44.33334" lon="5.70758">
        <ele>1218</ele>
        <time>2022-06-09T22:36:07Z</time>
      </trkpt>
      <trkpt lat="44.33332" lon="5.7075">
        <ele>1220</ele>
        <time>2022-06-09T22:36:09Z</time>
      </trkpt>
      <trkpt lat="44.33312" lon="5.70727">
        <ele>1216</ele>
        <time>2022-06-09T22:36:15Z</time>
      </trkpt>
      <trkpt lat="44.33301" lon="5.7072">
        <ele>1216</ele>
        <time>2022-06-09T22:36:18Z</time>
      </trkpt>
      <trkpt lat="44.33296" lon="5.70711">
        <ele>1216</ele>
        <time>2022-06-09T22:36:20Z</time>
      </trkpt>
      <trkpt lat="44.33273" lon="5.70696">
        <ele>1219</ele>
        <time>2022-06-09T22:36:26Z</time>
      </trkpt>
      <trkpt lat="44.3327" lon="5.7069">
        <ele>1220</ele>
        <time>2022-06-09T22:36:27Z</time>
      </trkpt>
      <trkpt lat="44.33262" lon="5.70685">
        <ele>1222</ele>
        <time>2022-06-09T22:36:29Z</time>
      </trkpt>
      <trkpt lat="44.33244" lon="5.70662">
        <ele>1227</ele>
        <time>2022-06-09T22:36:35Z</time>
      </trkpt>
      <trkpt lat="44.33237" lon="5.70646">
        <ele>1225</ele>
        <time>2022-06-09T22:36:38Z</time>
      </trkpt>
      <trkpt lat="44.33215" lon="5.70612">
        <ele>1226</ele>
        <time>2022-06-09T22:36:45Z</time>
      </trkpt>
      <trkpt lat="44.33196" lon="5.70594">
        <ele>1232</ele>
        <time>2022-06-09T22:36:51Z</time>
      </trkpt>
      <trkpt lat="44.33189" lon="5.7059">
        <ele>1234</ele>
        <time>2022-06-09T22:36:52Z</time>
      </trkpt>
      <trkpt lat="44.33188" lon="5.70594">
        <ele>1234</ele>
        <time>2022-06-09T22:36:53Z</time>
      </trkpt>
      <trkpt lat="44.33184" lon="5.70592">
        <ele>1235</ele>
        <time>2022-06-09T22:36:54Z</time>
      </trkpt>
      <trkpt lat="44.33182" lon="5.70587">
        <ele>1237</ele>
        <time>2022-06-09T22:36:55Z</time>
      </trkpt>
      <trkpt lat="44.33157" lon="5.70581">
        <ele>1245</ele>
        <time>2022-06-09T22:37:01Z</time>
      </trkpt>
      <trkpt lat="44.33136" lon="5.70567">
        <ele>1251</ele>
        <time>2022-06-09T22:37:07Z</time>
      </trkpt>
      <trkpt lat="44.33127" lon="5.70566">
        <ele>1254</ele>
        <time>2022-06-09T22:37:09Z</time>
      </trkpt>
      <trkpt lat="44.33122" lon="5.70562">
        <ele>1256</ele>
        <time>2022-06-09T22:37:10Z</time>
      </trkpt>
      <trkpt lat="44.33117" lon="5.70563">
        <ele>1257</ele>
        <time>2022-06-09T22:37:11Z</time>
      </trkpt>
      <trkpt lat="44.33091" lon="5.7055">
        <ele>1269</ele>
        <time>2022-06-09T22:37:18Z</time>
      </trkpt>
      <trkpt lat="44.33087" lon="5.7055">
        <ele>1270</ele>
        <time>2022-06-09T22:37:19Z</time>
      </trkpt>
      <trkpt lat="44.33076" lon="5.70544">
        <ele>1274</ele>
        <time>2022-06-09T22:37:21Z</time>
      </trkpt>
      <trkpt lat="44.33066" lon="5.70534">
        <ele>1278</ele>
        <time>2022-06-09T22:37:24Z</time>
      </trkpt>
      <trkpt lat="44.33043" lon="5.70532">
        <ele>1280</ele>
        <time>2022-06-09T22:37:30Z</time>
      </trkpt>
      <trkpt lat="44.3304" lon="5.70529">
        <ele>1282</ele>
        <time>2022-06-09T22:37:30Z</time>
      </trkpt>
      <trkpt lat="44.33042" lon="5.70528">
        <ele>1282</ele>
        <time>2022-06-09T22:37:31Z</time>
      </trkpt>
      <trkpt lat="44.33049" lon="5.7053">
        <ele>1281</ele>
        <time>2022-06-09T22:37:33Z</time>
      </trkpt>
      <trkpt lat="44.33042" lon="5.7053">
        <ele>1281</ele>
        <time>2022-06-09T22:37:34Z</time>
      </trkpt>
      <trkpt lat="44.33049" lon="5.70533">
        <ele>1280</ele>
        <time>2022-06-09T22:37:36Z</time>
      </trkpt>
      <trkpt lat="44.3305" lon="5.70531">
        <ele>1280</ele>
        <time>2022-06-09T22:37:36Z</time>
      </trkpt>
      <trkpt lat="44.33042" lon="5.70539">
        <ele>1277</ele>
        <time>2022-06-09T22:37:39Z</time>
      </trkpt>
      <trkpt lat="44.33032" lon="5.70531">
        <ele>1281</ele>
        <time>2022-06-09T22:37:41Z</time>
      </trkpt>
      <trkpt lat="44.33001" lon="5.70527">
        <ele>1285</ele>
        <time>2022-06-09T22:37:49Z</time>
      </trkpt>
      <trkpt lat="44.32986" lon="5.70529">
        <ele>1280</ele>
        <time>2022-06-09T22:37:52Z</time>
      </trkpt>
      <trkpt lat="44.32966" lon="5.70523">
        <ele>1278</ele>
        <time>2022-06-09T22:37:57Z</time>
      </trkpt>
      <trkpt lat="44.32937" lon="5.70519">
        <ele>1273</ele>
        <time>2022-06-09T22:38:04Z</time>
      </trkpt>
      <trkpt lat="44.32915" lon="5.70503">
        <ele>1275</ele>
        <time>2022-06-09T22:38:09Z</time>
      </trkpt>
      <trkpt lat="44.32896" lon="5.70485">
        <ele>1270</ele>
        <time>2022-06-09T22:38:15Z</time>
      </trkpt>
      <trkpt lat="44.32883" lon="5.70466">
        <ele>1267</ele>
        <time>2022-06-09T22:38:19Z</time>
      </trkpt>
      <trkpt lat="44.32874" lon="5.70456">
        <ele>1265</ele>
        <time>2022-06-09T22:38:22Z</time>
      </trkpt>
      <trkpt lat="44.32868" lon="5.70453">
        <ele>1262</ele>
        <time>2022-06-09T22:38:23Z</time>
      </trkpt>
      <trkpt lat="44.32858" lon="5.70459">
        <ele>1257</ele>
        <time>2022-06-09T22:38:26Z</time>
      </trkpt>
      <trkpt lat="44.32836" lon="5.70446">
        <ele>1248</ele>
        <time>2022-06-09T22:38:32Z</time>
      </trkpt>
      <trkpt lat="44.32827" lon="5.70447">
        <ele>1245</ele>
        <time>2022-06-09T22:38:34Z</time>
      </trkpt>
      <trkpt lat="44.3282" lon="5.70458">
        <ele>1240</ele>
        <time>2022-06-09T22:38:36Z</time>
      </trkpt>
      <trkpt lat="44.32793" lon="5.70456">
        <ele>1230</ele>
        <time>2022-06-09T22:38:42Z</time>
      </trkpt>
      <trkpt lat="44.32783" lon="5.70457">
        <ele>1226</ele>
        <time>2022-06-09T22:38:45Z</time>
      </trkpt>
      <trkpt lat="44.32773" lon="5.70462">
        <ele>1221</ele>
        <time>2022-06-09T22:38:47Z</time>
      </trkpt>
      <trkpt lat="44.32745" lon="5.70439">
        <ele>1216</ele>
        <time>2022-06-09T22:38:55Z</time>
      </trkpt>
      <trkpt lat="44.32727" lon="5.70434">
        <ele>1214</ele>
        <time>2022-06-09T22:38:59Z</time>
      </trkpt>
      <trkpt lat="44.32715" lon="5.70441">
        <ele>1211</ele>
        <time>2022-06-09T22:39:02Z</time>
      </trkpt>
      <trkpt lat="44.32698" lon="5.70441">
        <ele>1208</ele>
        <time>2022-06-09T22:39:06Z</time>
      </trkpt>
      <trkpt lat="44.32717" lon="5.70486">
        <ele>1198</ele>
        <time>2022-06-09T22:39:15Z</time>
      </trkpt>
      <trkpt lat="44.32738" lon="5.70511">
        <ele>1194</ele>
        <time>2022-06-09T22:39:21Z</time>
      </trkpt>
      <trkpt lat="44.32748" lon="5.70534">
        <ele>1185</ele>
        <time>2022-06-09T22:39:26Z</time>
      </trkpt>
      <trkpt lat="44.32756" lon="5.70547">
        <ele>1182</ele>
        <time>2022-06-09T22:39:29Z</time>
      </trkpt>
      <trkpt lat="44.32765" lon="5.70556">
        <ele>1182</ele>
        <time>2022-06-09T22:39:31Z</time>
      </trkpt>
      <trkpt lat="44.32774" lon="5.70576">
        <ele>1176</ele>
        <time>2022-06-09T22:39:35Z</time>
      </trkpt>
      <trkpt lat="44.32781" lon="5.70584">
        <ele>1176</ele>
        <time>2022-06-09T22:39:37Z</time>
      </trkpt>
      <trkpt lat="44.32783" lon="5.70588">
        <ele>1174</ele>
        <time>2022-06-09T22:39:38Z</time>
      </trkpt>
      <trkpt lat="44.32778" lon="5.70599">
        <ele>1166</ele>
        <time>2022-06-09T22:39:40Z</time>
      </trkpt>
      <trkpt lat="44.32779" lon="5.70601">
        <ele>1165</ele>
        <time>2022-06-09T22:39:41Z</time>
      </trkpt>
      <trkpt lat="44.32806" lon="5.70625">
        <ele>1164</ele>
        <time>2022-06-09T22:39:48Z</time>
      </trkpt>
      <trkpt lat="44.32817" lon="5.70639">
        <ele>1160</ele>
        <time>2022-06-09T22:39:52Z</time>
      </trkpt>
      <trkpt lat="44.3283" lon="5.70674">
        <ele>1147</ele>
        <time>2022-06-09T22:39:58Z</time>
      </trkpt>
      <trkpt lat="44.32855" lon="5.70714">
        <ele>1145</ele>
        <time>2022-06-09T22:40:07Z</time>
      </trkpt>
      <trkpt lat="44.32861" lon="5.70735">
        <ele>1142</ele>
        <time>2022-06-09T22:40:11Z</time>
      </trkpt>
      <trkpt lat="44.32848" lon="5.70758">
        <ele>1130</ele>
        <time>2022-06-09T22:40:16Z</time>
      </trkpt>
      <trkpt lat="44.32838" lon="5.70801">
        <ele>1121</ele>
        <time>2022-06-09T22:40:23Z</time>
      </trkpt>
      <trkpt lat="44.3282" lon="5.70829">
        <ele>1110</ele>
        <time>2022-06-09T22:40:30Z</time>
      </trkpt>
      <trkpt lat="44.32817" lon="5.70841">
        <ele>1107</ele>
        <time>2022-06-09T22:40:32Z</time>
      </trkpt>
      <trkpt lat="44.3281" lon="5.70851">
        <ele>1103</ele>
        <time>2022-06-09T22:40:34Z</time>
      </trkpt>
      <trkpt lat="44.328" lon="5.70841">
        <ele>1100</ele>
        <time>2022-06-09T22:40:37Z</time>
      </trkpt>
      <trkpt lat="44.32797" lon="5.70834">
        <ele>1100</ele>
        <time>2022-06-09T22:40:38Z</time>
      </trkpt>
      <trkpt lat="44.32802" lon="5.70811">
        <ele>1104</ele>
        <time>2022-06-09T22:40:42Z</time>
      </trkpt>
      <trkpt lat="44.328" lon="5.70794">
        <ele>1105</ele>
        <time>2022-06-09T22:40:45Z</time>
      </trkpt>
      <trkpt lat="44.32795" lon="5.70787">
        <ele>1104</ele>
        <time>2022-06-09T22:40:47Z</time>
      </trkpt>
      <trkpt lat="44.32783" lon="5.70781">
        <ele>1099</ele>
        <time>2022-06-09T22:40:50Z</time>
      </trkpt>
      <trkpt lat="44.32762" lon="5.70764">
        <ele>1091</ele>
        <time>2022-06-09T22:40:55Z</time>
      </trkpt>
      <trkpt lat="44.32741" lon="5.70767">
        <ele>1080</ele>
        <time>2022-06-09T22:41:00Z</time>
      </trkpt>
      <trkpt lat="44.32718" lon="5.70777">
        <ele>1068</ele>
        <time>2022-06-09T22:41:06Z</time>
      </trkpt>
      <trkpt lat="44.32702" lon="5.70817">
        <ele>1056</ele>
        <time>2022-06-09T22:41:14Z</time>
      </trkpt>
      <trkpt lat="44.32694" lon="5.70845">
        <ele>1049</ele>
        <time>2022-06-09T22:41:19Z</time>
      </trkpt>
      <trkpt lat="44.32687" lon="5.70839">
        <ele>1046</ele>
        <time>2022-06-09T22:41:21Z</time>
      </trkpt>
      <trkpt lat="44.32684" lon="5.70839">
        <ele>1044</ele>
        <time>2022-06-09T22:41:21Z</time>
      </trkpt>
      <trkpt lat="44.32683" lon="5.70843">
        <ele>1043</ele>
        <time>2022-06-09T22:41:22Z</time>
      </trkpt>
      <trkpt lat="44.32685" lon="5.70845">
        <ele>1044</ele>
        <time>2022-06-09T22:41:23Z</time>
      </trkpt>
      <trkpt lat="44.32667" lon="5.70834">
        <ele>1035</ele>
        <time>2022-06-09T22:41:27Z</time>
      </trkpt>
      <trkpt lat="44.32658" lon="5.70845">
        <ele>1029</ele>
        <time>2022-06-09T22:41:30Z</time>
      </trkpt>
      <trkpt lat="44.32652" lon="5.70903">
        <ele>1018</ele>
        <time>2022-06-09T22:41:40Z</time>
      </trkpt>
      <trkpt lat="44.32643" lon="5.70958">
        <ele>1007</ele>
        <time>2022-06-09T22:41:49Z</time>
      </trkpt>
      <trkpt lat="44.32635" lon="5.70986">
        <ele>1000</ele>
        <time>2022-06-09T22:41:54Z</time>
      </trkpt>
      <trkpt lat="44.32628" lon="5.71038">
        <ele>992</ele>
        <time>2022-06-09T22:42:03Z</time>
      </trkpt>
      <trkpt lat="44.32622" lon="5.7106">
        <ele>987</ele>
        <time>2022-06-09T22:42:07Z</time>
      </trkpt>
      <trkpt lat="44.32621" lon="5.71076">
        <ele>985</ele>
        <time>2022-06-09T22:42:10Z</time>
      </trkpt>
      <trkpt lat="44.32626" lon="5.71114">
        <ele>984</ele>
        <time>2022-06-09T22:42:16Z</time>
      </trkpt>
      <trkpt lat="44.32618" lon="5.71145">
        <ele>978</ele>
        <time>2022-06-09T22:42:22Z</time>
      </trkpt>
      <trkpt lat="44.32614" lon="5.71188">
        <ele>969</ele>
        <time>2022-06-09T22:42:29Z</time>
      </trkpt>
      <trkpt lat="44.32616" lon="5.7123">
        <ele>960</ele>
        <time>2022-06-09T22:42:36Z</time>
      </trkpt>
      <trkpt lat="44.32638" lon="5.713">
        <ele>949</ele>
        <time>2022-06-09T22:42:49Z</time>
      </trkpt>
      <trkpt lat="44.32645" lon="5.71333">
        <ele>942</ele>
        <time>2022-06-09T22:42:54Z</time>
      </trkpt>
      <trkpt lat="44.32644" lon="5.71339">
        <ele>940</ele>
        <time>2022-06-09T22:42:55Z</time>
      </trkpt>
      <trkpt lat="44.3262" lon="5.71351">
        <ele>933</ele>
        <time>2022-06-09T22:43:01Z</time>
      </trkpt>
      <trkpt lat="44.3259" lon="5.71371">
        <ele>925</ele>
        <time>2022-06-09T22:43:09Z</time>
      </trkpt>
      <trkpt lat="44.3257" lon="5.71391">
        <ele>918</ele>
        <time>2022-06-09T22:43:15Z</time>
      </trkpt>
      <trkpt lat="44.32555" lon="5.71398">
        <ele>914</ele>
        <time>2022-06-09T22:43:19Z</time>
      </trkpt>
      <trkpt lat="44.32543" lon="5.71397">
        <ele>911</ele>
        <time>2022-06-09T22:43:21Z</time>
      </trkpt>
      <trkpt lat="44.32503" lon="5.71354">
        <ele>907</ele>
        <time>2022-06-09T22:43:33Z</time>
      </trkpt>
      <trkpt lat="44.32499" lon="5.71344">
        <ele>907</ele>
        <time>2022-06-09T22:43:35Z</time>
      </trkpt>
      <trkpt lat="44.32489" lon="5.71336">
        <ele>904</ele>
        <time>2022-06-09T22:43:38Z</time>
      </trkpt>
      <trkpt lat="44.32474" lon="5.71316">
        <ele>903</ele>
        <time>2022-06-09T22:43:43Z</time>
      </trkpt>
      <trkpt lat="44.32457" lon="5.71306">
        <ele>899</ele>
        <time>2022-06-09T22:43:47Z</time>
      </trkpt>
      <trkpt lat="44.32444" lon="5.71284">
        <ele>899</ele>
        <time>2022-06-09T22:43:52Z</time>
      </trkpt>
      <trkpt lat="44.32432" lon="5.71271">
        <ele>898</ele>
        <time>2022-06-09T22:43:55Z</time>
      </trkpt>
      <trkpt lat="44.32416" lon="5.71259">
        <ele>896</ele>
        <time>2022-06-09T22:44:00Z</time>
      </trkpt>
      <trkpt lat="44.32354" lon="5.71231">
        <ele>885</ele>
        <time>2022-06-09T22:44:15Z</time>
      </trkpt>
      <trkpt lat="44.32339" lon="5.71229">
        <ele>881</ele>
        <time>2022-06-09T22:44:18Z</time>
      </trkpt>
      <trkpt lat="44.32325" lon="5.71213">
        <ele>878</ele>
        <time>2022-06-09T22:44:23Z</time>
      </trkpt>
      <trkpt lat="44.3232" lon="5.712">
        <ele>876</ele>
        <time>2022-06-09T22:44:25Z</time>
      </trkpt>
      <trkpt lat="44.32316" lon="5.71196">
        <ele>875</ele>
        <time>2022-06-09T22:44:26Z</time>
      </trkpt>
      <trkpt lat="44.32314" lon="5.71187">
        <ele>874</ele>
        <time>2022-06-09T22:44:28Z</time>
      </trkpt>
      <trkpt lat="44.32317" lon="5.71155">
        <ele>875</ele>
        <time>2022-06-09T22:44:33Z</time>
      </trkpt>
      <trkpt lat="44.32326" lon="5.71126">
        <ele>876</ele>
        <time>2022-06-09T22:44:38Z</time>
      </trkpt>
      <trkpt lat="44.32321" lon="5.71119">
        <ele>874</ele>
        <time>2022-06-09T22:44:40Z</time>
      </trkpt>
      <trkpt lat="44.3232" lon="5.71113">
        <ele>873</ele>
        <time>2022-06-09T22:44:41Z</time>
      </trkpt>
      <trkpt lat="44.32326" lon="5.71095">
        <ele>874</ele>
        <time>2022-06-09T22:44:44Z</time>
      </trkpt>
      <trkpt lat="44.3233" lon="5.71049">
        <ele>872</ele>
        <time>2022-06-09T22:44:52Z</time>
      </trkpt>
      <trkpt lat="44.32326" lon="5.71033">
        <ele>869</ele>
        <time>2022-06-09T22:44:55Z</time>
      </trkpt>
      <trkpt lat="44.32319" lon="5.71018">
        <ele>865</ele>
        <time>2022-06-09T22:44:58Z</time>
      </trkpt>
      <trkpt lat="44.32311" lon="5.71017">
        <ele>863</ele>
        <time>2022-06-09T22:45:00Z</time>
      </trkpt>
      <trkpt lat="44.32302" lon="5.7101">
        <ele>859</ele>
        <time>2022-06-09T22:45:02Z</time>
      </trkpt>
      <trkpt lat="44.32292" lon="5.7101">
        <ele>856</ele>
        <time>2022-06-09T22:45:05Z</time>
      </trkpt>
      <trkpt lat="44.32275" lon="5.71037">
        <ele>852</ele>
        <time>2022-06-09T22:45:11Z</time>
      </trkpt>
      <trkpt lat="44.32271" lon="5.71039">
        <ele>851</ele>
        <time>2022-06-09T22:45:12Z</time>
      </trkpt>
      <trkpt lat="44.32266" lon="5.71032">
        <ele>849</ele>
        <time>2022-06-09T22:45:13Z</time>
      </trkpt>
      <trkpt lat="44.32263" lon="5.71006">
        <ele>847</ele>
        <time>2022-06-09T22:45:18Z</time>
      </trkpt>
      <trkpt lat="44.32254" lon="5.70983">
        <ele>844</ele>
        <time>2022-06-09T22:45:22Z</time>
      </trkpt>
      <trkpt lat="44.32241" lon="5.7098">
        <ele>839</ele>
        <time>2022-06-09T22:45:25Z</time>
      </trkpt>
      <trkpt lat="44.32228" lon="5.70986">
        <ele>835</ele>
        <time>2022-06-09T22:45:28Z</time>
      </trkpt>
      <trkpt lat="44.32205" lon="5.71002">
        <ele>827</ele>
        <time>2022-06-09T22:45:34Z</time>
      </trkpt>
      <trkpt lat="44.32196" lon="5.70993">
        <ele>824</ele>
        <time>2022-06-09T22:45:37Z</time>
      </trkpt>
      <trkpt lat="44.3219" lon="5.70979">
        <ele>822</ele>
        <time>2022-06-09T22:45:40Z</time>
      </trkpt>
      <trkpt lat="44.32185" lon="5.70944">
        <ele>820</ele>
        <time>2022-06-09T22:45:46Z</time>
      </trkpt>
      <trkpt lat="44.3218" lon="5.70933">
        <ele>819</ele>
        <time>2022-06-09T22:45:48Z</time>
      </trkpt>
      <trkpt lat="44.32173" lon="5.70927">
        <ele>817</ele>
        <time>2022-06-09T22:45:50Z</time>
      </trkpt>
      <trkpt lat="44.32162" lon="5.7091">
        <ele>815</ele>
        <time>2022-06-09T22:45:53Z</time>
      </trkpt>
      <trkpt lat="44.32128" lon="5.70887">
        <ele>809</ele>
        <time>2022-06-09T22:46:02Z</time>
      </trkpt>
      <trkpt lat="44.32106" lon="5.70865">
        <ele>806</ele>
        <time>2022-06-09T22:46:09Z</time>
      </trkpt>
      <trkpt lat="44.32071" lon="5.70811">
        <ele>804</ele>
        <time>2022-06-09T22:46:21Z</time>
      </trkpt>
      <trkpt lat="44.32043" lon="5.70793">
        <ele>799</ele>
        <time>2022-06-09T22:46:28Z</time>
      </trkpt>
      <trkpt lat="44.32019" lon="5.70749">
        <ele>797</ele>
        <time>2022-06-09T22:46:37Z</time>
      </trkpt>
      <trkpt lat="44.3199" lon="5.70708">
        <ele>793</ele>
        <time>2022-06-09T22:46:47Z</time>
      </trkpt>
      <trkpt lat="44.3195" lon="5.70683">
        <ele>784</ele>
        <time>2022-06-09T22:46:57Z</time>
      </trkpt>
      <trkpt lat="44.31933" lon="5.70663">
        <ele>781</ele>
        <time>2022-06-09T22:47:02Z</time>
      </trkpt>
      <trkpt lat="44.3192" lon="5.70646">
        <ele>779</ele>
        <time>2022-06-09T22:47:06Z</time>
      </trkpt>
      <trkpt lat="44.31878" lon="5.70572">
        <ele>773</ele>
        <time>2022-06-09T22:47:22Z</time>
      </trkpt>
      <trkpt lat="44.31845" lon="5.7053">
        <ele>768</ele>
        <time>2022-06-09T22:47:33Z</time>
      </trkpt>
      <trkpt lat="44.31808" lon="5.70489">
        <ele>762</ele>
        <time>2022-06-09T22:47:44Z</time>
      </trkpt>
      <trkpt lat="44.31771" lon="5.70437">
        <ele>757</ele>
        <time>2022-06-09T22:47:56Z</time>
      </trkpt>
      <trkpt lat="44.31748" lon="5.70412">
        <ele>752</ele>
        <time>2022-06-09T22:48:03Z</time>
      </trkpt>
      <trkpt lat="44.31738" lon="5.70392">
        <ele>750</ele>
        <time>2022-06-09T22:48:07Z</time>
      </trkpt>
      <trkpt lat="44.31733" lon="5.70373">
        <ele>750</ele>
        <time>2022-06-09T22:48:10Z</time>
      </trkpt>
      <trkpt lat="44.3173" lon="5.70313">
        <ele>756</ele>
        <time>2022-06-09T22:48:20Z</time>
      </trkpt>
      <trkpt lat="44.31726" lon="5.703">
        <ele>757</ele>
        <time>2022-06-09T22:48:23Z</time>
      </trkpt>
      <trkpt lat="44.31716" lon="5.70286">
        <ele>756</ele>
        <time>2022-06-09T22:48:26Z</time>
      </trkpt>
      <trkpt lat="44.31685" lon="5.7027">
        <ele>748</ele>
        <time>2022-06-09T22:48:34Z</time>
      </trkpt>
      <trkpt lat="44.31675" lon="5.7026">
        <ele>746</ele>
        <time>2022-06-09T22:48:36Z</time>
      </trkpt>
      <trkpt lat="44.31612" lon="5.70136">
        <ele>743</ele>
        <time>2022-06-09T22:49:02Z</time>
      </trkpt>
      <trkpt lat="44.31593" lon="5.70108">
        <ele>739</ele>
        <time>2022-06-09T22:49:08Z</time>
      </trkpt>
      <trkpt lat="44.31569" lon="5.70081">
        <ele>736</ele>
        <time>2022-06-09T22:49:16Z</time>
      </trkpt>
      <trkpt lat="44.31536" lon="5.70062">
        <ele>733</ele>
        <time>2022-06-09T22:49:24Z</time>
      </trkpt>
      <trkpt lat="44.31506" lon="5.70053">
        <ele>728</ele>
        <time>2022-06-09T22:49:31Z</time>
      </trkpt>
      <trkpt lat="44.31496" lon="5.70047">
        <ele>727</ele>
        <time>2022-06-09T22:49:34Z</time>
      </trkpt>
      <trkpt lat="44.3149" lon="5.70037">
        <ele>726</ele>
        <time>2022-06-09T22:49:36Z</time>
      </trkpt>
      <trkpt lat="44.31476" lon="5.69986">
        <ele>728</ele>
        <time>2022-06-09T22:49:45Z</time>
      </trkpt>
      <trkpt lat="44.3147" lon="5.69978">
        <ele>726</ele>
        <time>2022-06-09T22:49:47Z</time>
      </trkpt>
      <trkpt lat="44.31432" lon="5.69853">
        <ele>715</ele>
        <time>2022-06-09T22:50:10Z</time>
      </trkpt>
      <trkpt lat="44.31431" lon="5.69818">
        <ele>713</ele>
        <time>2022-06-09T22:50:15Z</time>
      </trkpt>
      <trkpt lat="44.31418" lon="5.69794">
        <ele>708</ele>
        <time>2022-06-09T22:50:20Z</time>
      </trkpt>
      <trkpt lat="44.31405" lon="5.69778">
        <ele>704</ele>
        <time>2022-06-09T22:50:24Z</time>
      </trkpt>
      <trkpt lat="44.314" lon="5.69749">
        <ele>702</ele>
        <time>2022-06-09T22:50:29Z</time>
      </trkpt>
      <trkpt lat="44.31386" lon="5.69703">
        <ele>700</ele>
        <time>2022-06-09T22:50:38Z</time>
      </trkpt>
      <trkpt lat="44.31368" lon="5.69699">
        <ele>697</ele>
        <time>2022-06-09T22:50:42Z</time>
      </trkpt>
      <trkpt lat="44.31334" lon="5.69685">
        <ele>691</ele>
        <time>2022-06-09T22:50:50Z</time>
      </trkpt>
      <trkpt lat="44.3133" lon="5.69675">
        <ele>691</ele>
        <time>2022-06-09T22:50:52Z</time>
      </trkpt>
      <trkpt lat="44.31328" lon="5.69646">
        <ele>690</ele>
        <time>2022-06-09T22:50:57Z</time>
      </trkpt>
      <trkpt lat="44.31336" lon="5.69556">
        <ele>691</ele>
        <time>2022-06-09T22:51:12Z</time>
      </trkpt>
      <trkpt lat="44.31341" lon="5.69526">
        <ele>692</ele>
        <time>2022-06-09T22:51:17Z</time>
      </trkpt>
      <trkpt lat="44.31358" lon="5.69456">
        <ele>693</ele>
        <time>2022-06-09T22:51:30Z</time>
      </trkpt>
      <trkpt lat="44.31361" lon="5.69425">
        <ele>691</ele>
        <time>2022-06-09T22:51:35Z</time>
      </trkpt>
      <trkpt lat="44.31361" lon="5.69396">
        <ele>689</ele>
        <time>2022-06-09T22:51:40Z</time>
      </trkpt>
      <trkpt lat="44.31356" lon="5.69347">
        <ele>687</ele>
        <time>2022-06-09T22:51:48Z</time>
      </trkpt>
      <trkpt lat="44.31355" lon="5.69271">
        <ele>688</ele>
        <time>2022-06-09T22:52:01Z</time>
      </trkpt>
      <trkpt lat="44.31351" lon="5.69263">
        <ele>688</ele>
        <time>2022-06-09T22:52:02Z</time>
      </trkpt>
      <trkpt lat="44.31359" lon="5.69267">
        <ele>689</ele>
        <time>2022-06-09T22:52:04Z</time>
      </trkpt>
      <trkpt lat="44.31362" lon="5.69266">
        <ele>689</ele>
        <time>2022-06-09T22:52:05Z</time>
      </trkpt>
    </trkseg>
  </trk>
</gpx>